PWSweather.com
Personal Weather Stations
Station Observations
HVALPSUND
Hvalpsund, FarsoeDK 9640

HvalpsundFarsoeDK 9640

Lat: 56.705311, Lon: 9.203638

Elevation: 5

Station Type: Vantage Pro2

http://hvalpsundvejr.dk

High Low Average
Temperature 46.3°F7.9°C 38.7°F3.7°C 43.0°F6.1°C
Dew Point 44.1°F6.7°C 30.8°F-0.7°C 38.6°F3.7°C
Winds 38.2 mph 61.5 kmh 2.0 mph 3.2 kmh 14.0 mph SW22.5 kmh SW
Wind Gusts 46.0 mph74.0 kmh 3.0 mph4.8 kmh 18.0 mph29.0 kmh
Humidity 93% 69% 84%
Pressure 29.88 in1011.9 mb 29.35 in993.9 mb -
Precipitation 0.38 in9.7 mm - -
Hour Temp Dew Point Humidity Winds Wind Gusts Pressure Precip Precip Rate Daily Precip Total
12:00 AM 46.3°F7.9°C 43.5°F6.4°C 90% 8.0 mph SE12.9 kmh SE 10.0 mph16.1 kmh 29.42 in996.3 mb 0.09 in2.3 mm 0.00 in0.0 mm 0.09 in2.3 mm
12:01 AM 46.3°F7.9°C 43.5°F6.4°C 90% 8.0 mph SE12.9 kmh SE 12.0 mph19.3 kmh 29.42 in996.3 mb 0.09 in2.3 mm 0.00 in0.0 mm 0.09 in2.3 mm
12:02 AM 46.3°F7.9°C 43.5°F6.4°C 90% 6.0 mph SE9.7 kmh SE 8.0 mph12.9 kmh 29.42 in996.3 mb 0.09 in2.3 mm 0.00 in0.0 mm 0.09 in2.3 mm
12:03 AM 46.3°F7.9°C 43.5°F6.4°C 90% 7.2 mph SE11.6 kmh SE 11.0 mph17.7 kmh 29.42 in996.3 mb 0.09 in2.3 mm 0.00 in0.0 mm 0.09 in2.3 mm
12:04 AM 46.3°F7.9°C 43.5°F6.4°C 90% 7.5 mph SE12.1 kmh SE 11.0 mph17.7 kmh 29.42 in996.3 mb 0.10 in2.5 mm 0.60 in15.2 mm 0.10 in2.5 mm
12:05 AM 46.2°F7.9°C 43.4°F6.3°C 90% 7.0 mph SE11.3 kmh SE 13.0 mph20.9 kmh 29.42 in996.3 mb 0.10 in2.5 mm 0.00 in0.0 mm 0.10 in2.5 mm
12:06 AM 46.2°F7.9°C 43.4°F6.3°C 90% 10.0 mph SE16.1 kmh SE 13.0 mph20.9 kmh 29.42 in996.3 mb 0.10 in2.5 mm 0.00 in0.0 mm 0.10 in2.5 mm
12:07 AM 46.2°F7.9°C 43.4°F6.3°C 90% 8.0 mph SE12.9 kmh SE 11.0 mph17.7 kmh 29.42 in996.3 mb 0.10 in2.5 mm 0.00 in0.0 mm 0.10 in2.5 mm
12:08 AM 46.1°F7.8°C 43.3°F6.3°C 90% 7.5 mph ESE12.1 kmh ESE 10.0 mph16.1 kmh 29.42 in996.3 mb 0.11 in2.8 mm 0.60 in15.2 mm 0.11 in2.8 mm
12:09 AM 46.1°F7.8°C 43.3°F6.3°C 90% 5.9 mph SE9.5 kmh SE 10.0 mph16.1 kmh 29.42 in996.3 mb 0.11 in2.8 mm 0.00 in0.0 mm 0.11 in2.8 mm
12:10 AM 46.1°F7.8°C 43.3°F6.3°C 90% 7.0 mph ESE11.3 kmh ESE 10.0 mph16.1 kmh 29.42 in996.3 mb 0.11 in2.8 mm 0.00 in0.0 mm 0.11 in2.8 mm
12:11 AM 46.1°F7.8°C 43.3°F6.3°C 90% 8.0 mph ESE12.9 kmh ESE 10.0 mph16.1 kmh 29.42 in996.3 mb 0.12 in3.0 mm 0.60 in15.2 mm 0.12 in3.0 mm
12:12 AM 46.1°F7.8°C 43.3°F6.3°C 90% 7.4 mph SE11.9 kmh SE 9.0 mph14.5 kmh 29.42 in996.3 mb 0.11 in2.8 mm 0.00 in0.0 mm 0.12 in3.0 mm
12:13 AM 46.1°F7.8°C 43.3°F6.3°C 90% 6.0 mph SE9.7 kmh SE 9.0 mph14.5 kmh 29.42 in996.3 mb 0.11 in2.8 mm 0.00 in0.0 mm 0.12 in3.0 mm
12:14 AM 46.1°F7.8°C 43.3°F6.3°C 90% 5.0 mph ESE8.0 kmh ESE 8.0 mph12.9 kmh 29.42 in996.3 mb 0.11 in2.8 mm 0.00 in0.0 mm 0.12 in3.0 mm
12:15 AM 46.1°F7.8°C 43.3°F6.3°C 90% 7.0 mph ESE11.3 kmh ESE 9.0 mph14.5 kmh 29.41 in995.9 mb 0.12 in3.0 mm 0.60 in15.2 mm 0.13 in3.3 mm
12:16 AM 46.1°F7.8°C 43.6°F6.4°C 91% 5.8 mph ESE9.3 kmh ESE 7.0 mph11.3 kmh 29.42 in996.3 mb 0.12 in3.0 mm 0.00 in0.0 mm 0.13 in3.3 mm
12:17 AM 46.1°F7.8°C 43.6°F6.4°C 91% 6.1 mph SE9.8 kmh SE 10.0 mph16.1 kmh 29.41 in995.9 mb 0.11 in2.8 mm 0.00 in0.0 mm 0.13 in3.3 mm
12:18 AM 46.1°F7.8°C 43.6°F6.4°C 91% 5.2 mph SE8.4 kmh SE 10.0 mph16.1 kmh 29.41 in995.9 mb 0.11 in2.8 mm 0.00 in0.0 mm 0.13 in3.3 mm
12:19 AM 46.1°F7.8°C 43.6°F6.4°C 91% 3.4 mph ESE5.5 kmh ESE 8.0 mph12.9 kmh 29.41 in995.9 mb 0.12 in3.0 mm 0.60 in15.2 mm 0.13 in3.3 mm
12:20 AM 46.1°F7.8°C 43.6°F6.4°C 91% 7.8 mph SE12.6 kmh SE 10.0 mph16.1 kmh 29.41 in995.9 mb 0.12 in3.0 mm 0.00 in0.0 mm 0.13 in3.3 mm
12:21 AM 46.1°F7.8°C 43.6°F6.4°C 91% 7.0 mph ESE11.3 kmh ESE 10.0 mph16.1 kmh 29.41 in995.9 mb 0.12 in3.0 mm 0.00 in0.0 mm 0.13 in3.3 mm
12:22 AM 46.0°F7.8°C 43.5°F6.4°C 91% 7.0 mph SE11.3 kmh SE 10.0 mph16.1 kmh 29.41 in995.9 mb 0.11 in2.8 mm 0.00 in0.0 mm 0.13 in3.3 mm
12:23 AM 46.1°F7.8°C 43.6°F6.4°C 91% 4.1 mph SE6.6 kmh SE 5.0 mph8.0 kmh 29.41 in995.9 mb 0.12 in3.0 mm 0.60 in15.2 mm 0.14 in3.6 mm
12:24 AM 46.0°F7.8°C 43.5°F6.4°C 91% 4.8 mph SE7.7 kmh SE 7.0 mph11.3 kmh 29.41 in995.9 mb 0.12 in3.0 mm 0.00 in0.0 mm 0.14 in3.6 mm
12:25 AM 46.0°F7.8°C 43.5°F6.4°C 91% 4.0 mph SE6.4 kmh SE 5.0 mph8.0 kmh 29.41 in995.9 mb 0.12 in3.0 mm 0.00 in0.0 mm 0.14 in3.6 mm
12:26 AM 45.9°F7.7°C 43.4°F6.3°C 91% 5.0 mph SE8.0 kmh SE 7.0 mph11.3 kmh 29.41 in995.9 mb 0.12 in3.0 mm 0.00 in0.0 mm 0.14 in3.6 mm
12:27 AM 45.9°F7.7°C 43.4°F6.3°C 91% 6.0 mph SE9.7 kmh SE 8.0 mph12.9 kmh 29.41 in995.9 mb 0.13 in3.3 mm 0.60 in15.2 mm 0.15 in3.8 mm
12:28 AM 45.9°F7.7°C 43.4°F6.3°C 91% 6.3 mph SE10.1 kmh SE 8.0 mph12.9 kmh 29.41 in995.9 mb 0.13 in3.3 mm 0.00 in0.0 mm 0.15 in3.8 mm
12:29 AM 45.9°F7.7°C 43.4°F6.3°C 91% 4.9 mph SE7.9 kmh SE 8.0 mph12.9 kmh 29.41 in995.9 mb 0.13 in3.3 mm 0.00 in0.0 mm 0.15 in3.8 mm
12:30 AM 45.9°F7.7°C 43.4°F6.3°C 91% 5.0 mph SE8.0 kmh SE 9.0 mph14.5 kmh 29.41 in995.9 mb 0.13 in3.3 mm 0.00 in0.0 mm 0.15 in3.8 mm
12:31 AM 45.9°F7.7°C 43.4°F6.3°C 91% 5.0 mph SE8.0 kmh SE 9.0 mph14.5 kmh 29.41 in995.9 mb 0.13 in3.3 mm 0.00 in0.0 mm 0.15 in3.8 mm
12:32 AM 45.9°F7.7°C 43.4°F6.3°C 91% 7.0 mph SE11.3 kmh SE 9.0 mph14.5 kmh 29.41 in995.9 mb 0.13 in3.3 mm 0.00 in0.0 mm 0.16 in4.1 mm
12:33 AM 45.9°F7.7°C 43.4°F6.3°C 91% 6.1 mph SE9.8 kmh SE 9.0 mph14.5 kmh 29.41 in995.9 mb 0.13 in3.3 mm 0.00 in0.0 mm 0.16 in4.1 mm
12:34 AM 45.9°F7.7°C 43.4°F6.3°C 91% 7.0 mph SE11.3 kmh SE 11.0 mph17.7 kmh 29.41 in995.9 mb 0.13 in3.3 mm 0.00 in0.0 mm 0.16 in4.1 mm
12:35 AM 45.9°F7.7°C 43.4°F6.3°C 91% 8.0 mph ESE12.9 kmh ESE 10.0 mph16.1 kmh 29.41 in995.9 mb 0.13 in3.3 mm 0.00 in0.0 mm 0.16 in4.1 mm
12:36 AM 45.9°F7.7°C 43.4°F6.3°C 91% 4.3 mph SE6.9 kmh SE 5.0 mph8.0 kmh 29.41 in995.9 mb 0.13 in3.3 mm 0.00 in0.0 mm 0.17 in4.3 mm
12:37 AM 45.9°F7.7°C 43.4°F6.3°C 91% 5.3 mph SE8.5 kmh SE 8.0 mph12.9 kmh 29.41 in995.9 mb 0.13 in3.3 mm 0.00 in0.0 mm 0.17 in4.3 mm
12:38 AM 45.9°F7.7°C 43.4°F6.3°C 91% 4.3 mph SE6.9 kmh SE 8.0 mph12.9 kmh 29.41 in995.9 mb 0.13 in3.3 mm 0.00 in0.0 mm 0.17 in4.3 mm
12:39 AM 45.8°F7.7°C 43.3°F6.3°C 91% 6.1 mph SE9.8 kmh SE 7.0 mph11.3 kmh 29.41 in995.9 mb 0.13 in3.3 mm 0.00 in0.0 mm 0.17 in4.3 mm
12:40 AM 45.8°F7.7°C 43.3°F6.3°C 91% 6.0 mph SE9.7 kmh SE 10.0 mph16.1 kmh 29.41 in995.9 mb 0.13 in3.3 mm 0.00 in0.0 mm 0.17 in4.3 mm
12:41 AM 45.8°F7.7°C 43.3°F6.3°C 91% 7.0 mph SE11.3 kmh SE 11.0 mph17.7 kmh 29.41 in995.9 mb 0.13 in3.3 mm 0.00 in0.0 mm 0.17 in4.3 mm
12:42 AM 45.7°F7.6°C 43.2°F6.2°C 91% 7.0 mph SE11.3 kmh SE 9.0 mph14.5 kmh 29.41 in995.9 mb 0.13 in3.3 mm 0.00 in0.0 mm 0.17 in4.3 mm
12:43 AM 45.7°F7.6°C 43.2°F6.2°C 91% 5.0 mph SE8.0 kmh SE 8.0 mph12.9 kmh 29.41 in995.9 mb 0.12 in3.0 mm 0.00 in0.0 mm 0.17 in4.3 mm
12:44 AM 45.7°F7.6°C 43.2°F6.2°C 91% 8.4 mph SE13.5 kmh SE 10.0 mph16.1 kmh 29.41 in995.9 mb 0.12 in3.0 mm 0.00 in0.0 mm 0.17 in4.3 mm
12:45 AM 45.7°F7.6°C 43.2°F6.2°C 91% 8.5 mph SE13.7 kmh SE 11.0 mph17.7 kmh 29.41 in995.9 mb 0.12 in3.0 mm 0.00 in0.0 mm 0.17 in4.3 mm
12:46 AM 45.7°F7.6°C 43.2°F6.2°C 91% 6.5 mph SE10.5 kmh SE 11.0 mph17.7 kmh 29.41 in995.9 mb 0.11 in2.8 mm 0.00 in0.0 mm 0.18 in4.6 mm
12:47 AM 45.7°F7.6°C 43.2°F6.2°C 91% 6.0 mph SE9.7 kmh SE 8.0 mph12.9 kmh 29.41 in995.9 mb 0.12 in3.0 mm 0.60 in15.2 mm 0.18 in4.6 mm
12:48 AM 45.6°F7.6°C 43.1°F6.2°C 91% 8.0 mph SE12.9 kmh SE 11.0 mph17.7 kmh 29.41 in995.9 mb 0.12 in3.0 mm 0.00 in0.0 mm 0.18 in4.6 mm
12:49 AM 45.6°F7.6°C 43.1°F6.2°C 91% 7.7 mph SE12.4 kmh SE 9.0 mph14.5 kmh 29.40 in995.6 mb 0.11 in2.8 mm 0.00 in0.0 mm 0.18 in4.6 mm
12:50 AM 45.6°F7.6°C 43.1°F6.2°C 91% 8.2 mph SE13.2 kmh SE 10.0 mph16.1 kmh 29.41 in995.9 mb 0.11 in2.8 mm 0.00 in0.0 mm 0.18 in4.6 mm
12:51 AM 45.6°F7.6°C 43.1°F6.2°C 91% 5.3 mph SE8.5 kmh SE 10.0 mph16.1 kmh 29.41 in995.9 mb 0.11 in2.8 mm 0.00 in0.0 mm 0.18 in4.6 mm
12:52 AM 45.6°F7.6°C 43.1°F6.2°C 91% 8.3 mph SE13.4 kmh SE 11.0 mph17.7 kmh 29.40 in995.6 mb 0.11 in2.8 mm 0.00 in0.0 mm 0.18 in4.6 mm
12:53 AM 45.7°F7.6°C 43.5°F6.4°C 92% 9.0 mph ESE14.5 kmh ESE 13.0 mph20.9 kmh 29.40 in995.6 mb 0.11 in2.8 mm 0.00 in0.0 mm 0.18 in4.6 mm
12:54 AM 45.7°F7.6°C 43.5°F6.4°C 92% 9.0 mph ESE14.5 kmh ESE 12.0 mph19.3 kmh 29.40 in995.6 mb 0.11 in2.8 mm 0.00 in0.0 mm 0.19 in4.8 mm
12:55 AM 45.7°F7.6°C 43.5°F6.4°C 92% 9.0 mph ESE14.5 kmh ESE 11.0 mph17.7 kmh 29.40 in995.6 mb 0.11 in2.8 mm 0.00 in0.0 mm 0.19 in4.8 mm
12:56 AM 45.7°F7.6°C 43.5°F6.4°C 92% 9.2 mph SE14.8 kmh SE 12.0 mph19.3 kmh 29.40 in995.6 mb 0.11 in2.8 mm 0.00 in0.0 mm 0.19 in4.8 mm
12:57 AM 45.7°F7.6°C 43.5°F6.4°C 92% 9.4 mph SE15.1 kmh SE 13.0 mph20.9 kmh 29.40 in995.6 mb 0.10 in2.5 mm 0.00 in0.0 mm 0.19 in4.8 mm
12:58 AM 45.7°F7.6°C 43.5°F6.4°C 92% 7.7 mph SE12.4 kmh SE 13.0 mph20.9 kmh 29.40 in995.6 mb 0.10 in2.5 mm 0.00 in0.0 mm 0.19 in4.8 mm
12:59 AM 45.7°F7.6°C 43.5°F6.4°C 92% 8.0 mph ESE12.9 kmh ESE 9.0 mph14.5 kmh 29.40 in995.6 mb 0.10 in2.5 mm 0.00 in0.0 mm 0.19 in4.8 mm
01:00 AM 45.7°F7.6°C 43.5°F6.4°C 92% 9.0 mph SE14.5 kmh SE 11.0 mph17.7 kmh 29.40 in995.6 mb 0.10 in2.5 mm 0.00 in0.0 mm 0.19 in4.8 mm
01:01 AM 45.7°F7.6°C 43.5°F6.4°C 92% 9.5 mph ESE15.3 kmh ESE 10.0 mph16.1 kmh 29.40 in995.6 mb 0.09 in2.3 mm 0.00 in0.0 mm 0.19 in4.8 mm
01:02 AM 45.7°F7.6°C 43.5°F6.4°C 92% 9.0 mph ESE14.5 kmh ESE 12.0 mph19.3 kmh 29.39 in995.3 mb 0.09 in2.3 mm 0.00 in0.0 mm 0.19 in4.8 mm
01:03 AM 45.7°F7.6°C 43.5°F6.4°C 92% 9.0 mph ESE14.5 kmh ESE 11.0 mph17.7 kmh 29.39 in995.3 mb 0.10 in2.5 mm 0.60 in15.2 mm 0.20 in5.1 mm
01:04 AM 45.7°F7.6°C 43.5°F6.4°C 92% 4.6 mph ESE7.4 kmh ESE 5.0 mph8.0 kmh 29.39 in995.3 mb 0.09 in2.3 mm 0.00 in0.0 mm 0.20 in5.1 mm
01:05 AM 45.7°F7.6°C 43.5°F6.4°C 92% 5.7 mph ESE9.2 kmh ESE 8.0 mph12.9 kmh 29.39 in995.3 mb 0.09 in2.3 mm 0.00 in0.0 mm 0.20 in5.1 mm
01:06 AM 45.8°F7.7°C 43.6°F6.4°C 92% 6.4 mph SE10.3 kmh SE 8.0 mph12.9 kmh 29.39 in995.3 mb 0.09 in2.3 mm 0.00 in0.0 mm 0.20 in5.1 mm
01:07 AM 45.7°F7.6°C 43.5°F6.4°C 92% 5.2 mph ESE8.4 kmh ESE 9.0 mph14.5 kmh 29.39 in995.3 mb 0.09 in2.3 mm 0.00 in0.0 mm 0.20 in5.1 mm
01:08 AM 45.7°F7.6°C 43.5°F6.4°C 92% 8.6 mph ESE13.8 kmh ESE 11.0 mph17.7 kmh 29.39 in995.3 mb 0.09 in2.3 mm 0.00 in0.0 mm 0.20 in5.1 mm
01:09 AM 45.8°F7.7°C 43.6°F6.4°C 92% 6.5 mph SE10.5 kmh SE 11.0 mph17.7 kmh 29.39 in995.3 mb 0.09 in2.3 mm 0.00 in0.0 mm 0.20 in5.1 mm
01:10 AM 45.8°F7.7°C 43.6°F6.4°C 92% 8.0 mph SE12.9 kmh SE 11.0 mph17.7 kmh 29.39 in995.3 mb 0.09 in2.3 mm 0.00 in0.0 mm 0.20 in5.1 mm
01:11 AM 45.8°F7.7°C 43.6°F6.4°C 92% 5.0 mph ESE8.0 kmh ESE 9.0 mph14.5 kmh 29.39 in995.3 mb 0.08 in2.0 mm 0.00 in0.0 mm 0.20 in5.1 mm
01:12 AM 45.8°F7.7°C 43.6°F6.4°C 92% 5.3 mph ESE8.5 kmh ESE 7.0 mph11.3 kmh 29.39 in995.3 mb 0.08 in2.0 mm 0.00 in0.0 mm 0.20 in5.1 mm
01:13 AM 45.8°F7.7°C 43.6°F6.4°C 92% 4.4 mph ESE7.1 kmh ESE 7.0 mph11.3 kmh 29.39 in995.3 mb 0.08 in2.0 mm 0.00 in0.0 mm 0.20 in5.1 mm
01:14 AM 45.9°F7.7°C 43.7°F6.5°C 92% 7.7 mph SE12.4 kmh SE 11.0 mph17.7 kmh 29.39 in995.3 mb 0.08 in2.0 mm 0.00 in0.0 mm 0.20 in5.1 mm
01:15 AM 45.9°F7.7°C 43.7°F6.5°C 92% 9.0 mph ESE14.5 kmh ESE 11.0 mph17.7 kmh 29.39 in995.3 mb 0.08 in2.0 mm 0.00 in0.0 mm 0.20 in5.1 mm
01:16 AM 45.9°F7.7°C 43.7°F6.5°C 92% 7.0 mph SE11.3 kmh SE 8.0 mph12.9 kmh 29.39 in995.3 mb 0.08 in2.0 mm 0.00 in0.0 mm 0.20 in5.1 mm
01:17 AM 45.9°F7.7°C 43.7°F6.5°C 92% 6.0 mph ESE9.7 kmh ESE 9.0 mph14.5 kmh 29.39 in995.3 mb 0.08 in2.0 mm 0.00 in0.0 mm 0.20 in5.1 mm
01:18 AM 45.9°F7.7°C 43.7°F6.5°C 92% 10.0 mph ESE16.1 kmh ESE 12.0 mph19.3 kmh 29.39 in995.3 mb 0.08 in2.0 mm 0.00 in0.0 mm 0.20 in5.1 mm
01:19 AM 45.9°F7.7°C 43.7°F6.5°C 92% 9.0 mph ESE14.5 kmh ESE 12.0 mph19.3 kmh 29.38 in994.9 mb 0.07 in1.8 mm 0.00 in0.0 mm 0.20 in5.1 mm
01:20 AM 45.9°F7.7°C 43.7°F6.5°C 92% 7.0 mph SE11.3 kmh SE 10.0 mph16.1 kmh 29.39 in995.3 mb 0.08 in2.0 mm 0.60 in15.2 mm 0.21 in5.3 mm
01:21 AM 46.0°F7.8°C 43.8°F6.6°C 92% 8.0 mph ESE12.9 kmh ESE 11.0 mph17.7 kmh 29.39 in995.3 mb 0.08 in2.0 mm 0.00 in0.0 mm 0.21 in5.3 mm
01:22 AM 46.0°F7.8°C 43.8°F6.6°C 92% 7.6 mph ESE12.2 kmh ESE 8.0 mph12.9 kmh 29.39 in995.3 mb 0.08 in2.0 mm 0.00 in0.0 mm 0.21 in5.3 mm
01:23 AM 46.0°F7.8°C 43.8°F6.6°C 92% 7.5 mph SE12.1 kmh SE 9.0 mph14.5 kmh 29.39 in995.3 mb 0.07 in1.8 mm 0.00 in0.0 mm 0.21 in5.3 mm
01:24 AM 46.0°F7.8°C 43.8°F6.6°C 92% 7.8 mph SE12.6 kmh SE 10.0 mph16.1 kmh 29.39 in995.3 mb 0.08 in2.0 mm 0.60 in15.2 mm 0.22 in5.6 mm
01:25 AM 46.0°F7.8°C 43.8°F6.6°C 92% 5.9 mph SE9.5 kmh SE 10.0 mph16.1 kmh 29.39 in995.3 mb 0.08 in2.0 mm 0.00 in0.0 mm 0.22 in5.6 mm
01:26 AM 46.0°F7.8°C 43.8°F6.6°C 92% 7.4 mph SE11.9 kmh SE 11.0 mph17.7 kmh 29.39 in995.3 mb 0.08 in2.0 mm 0.00 in0.0 mm 0.22 in5.6 mm
01:27 AM 46.0°F7.8°C 43.8°F6.6°C 92% 6.2 mph SE10.0 kmh SE 11.0 mph17.7 kmh 29.39 in995.3 mb 0.07 in1.8 mm 0.00 in0.0 mm 0.22 in5.6 mm
01:28 AM 45.9°F7.7°C 43.7°F6.5°C 92% 6.1 mph SE9.8 kmh SE 10.0 mph16.1 kmh 29.39 in995.3 mb 0.07 in1.8 mm 0.00 in0.0 mm 0.22 in5.6 mm
01:29 AM 45.9°F7.7°C 43.7°F6.5°C 92% 8.1 mph SE13.0 kmh SE 10.0 mph16.1 kmh 29.38 in994.9 mb 0.08 in2.0 mm 0.60 in15.2 mm 0.23 in5.8 mm
01:30 AM 45.9°F7.7°C 43.7°F6.5°C 92% 5.6 mph SE9.0 kmh SE 10.0 mph16.1 kmh 29.38 in994.9 mb 0.08 in2.0 mm 0.00 in0.0 mm 0.23 in5.8 mm
01:31 AM 45.9°F7.7°C 43.7°F6.5°C 92% 5.0 mph SE8.0 kmh SE 9.0 mph14.5 kmh 29.38 in994.9 mb 0.08 in2.0 mm 0.00 in0.0 mm 0.23 in5.8 mm
01:32 AM 45.9°F7.7°C 43.7°F6.5°C 92% 5.0 mph SE8.0 kmh SE 8.0 mph12.9 kmh 29.38 in994.9 mb 0.07 in1.8 mm 0.00 in0.0 mm 0.23 in5.8 mm
01:33 AM 45.9°F7.7°C 43.7°F6.5°C 92% 6.0 mph SE9.7 kmh SE 8.0 mph12.9 kmh 29.38 in994.9 mb 0.07 in1.8 mm 0.00 in0.0 mm 0.23 in5.8 mm
01:34 AM 45.9°F7.7°C 43.7°F6.5°C 92% 8.0 mph SE12.9 kmh SE 11.0 mph17.7 kmh 29.38 in994.9 mb 0.07 in1.8 mm 0.00 in0.0 mm 0.23 in5.8 mm
01:35 AM 45.9°F7.7°C 43.7°F6.5°C 92% 8.0 mph SE12.9 kmh SE 11.0 mph17.7 kmh 29.38 in994.9 mb 0.07 in1.8 mm 0.00 in0.0 mm 0.23 in5.8 mm
01:36 AM 45.9°F7.7°C 43.7°F6.5°C 92% 6.0 mph ESE9.7 kmh ESE 9.0 mph14.5 kmh 29.38 in994.9 mb 0.06 in1.5 mm 0.00 in0.0 mm 0.23 in5.8 mm
01:37 AM 45.9°F7.7°C 43.7°F6.5°C 92% 5.0 mph SE8.0 kmh SE 8.0 mph12.9 kmh 29.38 in994.9 mb 0.06 in1.5 mm 0.00 in0.0 mm 0.23 in5.8 mm
01:38 AM 45.9°F7.7°C 43.7°F6.5°C 92% 6.0 mph SE9.7 kmh SE 10.0 mph16.1 kmh 29.38 in994.9 mb 0.07 in1.8 mm 0.60 in15.2 mm 0.24 in6.1 mm
01:39 AM 45.9°F7.7°C 43.7°F6.5°C 92% 8.3 mph SE13.4 kmh SE 11.0 mph17.7 kmh 29.38 in994.9 mb 0.07 in1.8 mm 0.00 in0.0 mm 0.24 in6.1 mm
01:40 AM 45.8°F7.7°C 43.6°F6.4°C 92% 8.1 mph SE13.0 kmh SE 11.0 mph17.7 kmh 29.38 in994.9 mb 0.07 in1.8 mm 0.00 in0.0 mm 0.24 in6.1 mm
01:41 AM 45.8°F7.7°C 43.6°F6.4°C 92% 8.0 mph SE12.9 kmh SE 13.0 mph20.9 kmh 29.38 in994.9 mb 0.06 in1.5 mm 0.00 in0.0 mm 0.24 in6.1 mm
01:42 AM 45.7°F7.6°C 43.5°F6.4°C 92% 7.0 mph SE11.3 kmh SE 9.0 mph14.5 kmh 29.38 in994.9 mb 0.06 in1.5 mm 0.00 in0.0 mm 0.24 in6.1 mm
01:43 AM 45.7°F7.6°C 43.5°F6.4°C 92% 7.3 mph SE11.7 kmh SE 10.0 mph16.1 kmh 29.38 in994.9 mb 0.06 in1.5 mm 0.00 in0.0 mm 0.24 in6.1 mm
01:44 AM 45.7°F7.6°C 43.5°F6.4°C 92% 6.8 mph SE10.9 kmh SE 10.0 mph16.1 kmh 29.38 in994.9 mb 0.06 in1.5 mm 0.00 in0.0 mm 0.24 in6.1 mm
01:45 AM 45.7°F7.6°C 43.5°F6.4°C 92% 4.3 mph SE6.9 kmh SE 9.0 mph14.5 kmh 29.38 in994.9 mb 0.06 in1.5 mm 0.00 in0.0 mm 0.24 in6.1 mm
01:46 AM 45.7°F7.6°C 43.5°F6.4°C 92% 7.5 mph SE12.1 kmh SE 10.0 mph16.1 kmh 29.38 in994.9 mb 0.06 in1.5 mm 0.00 in0.0 mm 0.24 in6.1 mm
01:47 AM 45.7°F7.6°C 43.5°F6.4°C 92% 6.0 mph SE9.7 kmh SE 9.0 mph14.5 kmh 29.38 in994.9 mb 0.06 in1.5 mm 0.00 in0.0 mm 0.24 in6.1 mm
01:48 AM 45.6°F7.6°C 43.4°F6.3°C 92% 7.0 mph SSE11.3 kmh SSE 11.0 mph17.7 kmh 29.38 in994.9 mb 0.06 in1.5 mm 0.00 in0.0 mm 0.24 in6.1 mm
01:49 AM 45.6°F7.6°C 43.4°F6.3°C 92% 9.2 mph SE14.8 kmh SE 11.0 mph17.7 kmh 29.38 in994.9 mb 0.06 in1.5 mm 0.00 in0.0 mm 0.24 in6.1 mm
01:50 AM 45.5°F7.5°C 43.3°F6.3°C 92% 8.5 mph SE13.7 kmh SE 11.0 mph17.7 kmh 29.38 in994.9 mb 0.06 in1.5 mm 0.00 in0.0 mm 0.24 in6.1 mm
01:51 AM 45.5°F7.5°C 43.3°F6.3°C 92% 6.8 mph SE10.9 kmh SE 11.0 mph17.7 kmh 29.38 in994.9 mb 0.06 in1.5 mm 0.00 in0.0 mm 0.24 in6.1 mm
01:52 AM 45.5°F7.5°C 43.3°F6.3°C 92% 8.1 mph SE13.0 kmh SE 13.0 mph20.9 kmh 29.38 in994.9 mb 0.06 in1.5 mm 0.00 in0.0 mm 0.24 in6.1 mm
01:53 AM 45.5°F7.5°C 43.3°F6.3°C 92% 6.8 mph SE10.9 kmh SE 13.0 mph20.9 kmh 29.38 in994.9 mb 0.06 in1.5 mm 0.00 in0.0 mm 0.24 in6.1 mm
01:54 AM 45.5°F7.5°C 43.3°F6.3°C 92% 6.0 mph SE9.7 kmh SE 10.0 mph16.1 kmh 29.38 in994.9 mb 0.05 in1.3 mm 0.00 in0.0 mm 0.24 in6.1 mm
01:55 AM 45.5°F7.5°C 43.3°F6.3°C 92% 9.0 mph SE14.5 kmh SE 12.0 mph19.3 kmh 29.38 in994.9 mb 0.05 in1.3 mm 0.00 in0.0 mm 0.24 in6.1 mm
01:56 AM 45.5°F7.5°C 43.3°F6.3°C 92% 6.0 mph SE9.7 kmh SE 8.0 mph12.9 kmh 29.38 in994.9 mb 0.05 in1.3 mm 0.00 in0.0 mm 0.24 in6.1 mm
01:57 AM 45.4°F7.4°C 43.2°F6.2°C 92% 7.0 mph SSE11.3 kmh SSE 10.0 mph16.1 kmh 29.37 in994.6 mb 0.05 in1.3 mm 0.00 in0.0 mm 0.24 in6.1 mm
01:58 AM 45.4°F7.4°C 43.2°F6.2°C 92% 8.0 mph SE12.9 kmh SE 10.0 mph16.1 kmh 29.38 in994.9 mb 0.05 in1.3 mm 0.00 in0.0 mm 0.24 in6.1 mm
01:59 AM 45.4°F7.4°C 43.2°F6.2°C 92% 6.4 mph SE10.3 kmh SE 10.0 mph16.1 kmh 29.37 in994.6 mb 0.05 in1.3 mm 0.00 in0.0 mm 0.24 in6.1 mm
02:00 AM 45.4°F7.4°C 43.2°F6.2°C 92% 6.8 mph SE10.9 kmh SE 10.0 mph16.1 kmh 29.37 in994.6 mb 0.05 in1.3 mm 0.00 in0.0 mm 0.24 in6.1 mm
02:01 AM 45.4°F7.4°C 43.2°F6.2°C 92% 5.5 mph SE8.9 kmh SE 11.0 mph17.7 kmh 29.37 in994.6 mb 0.05 in1.3 mm 0.00 in0.0 mm 0.24 in6.1 mm
02:02 AM 45.4°F7.4°C 43.2°F6.2°C 92% 6.6 mph SE10.6 kmh SE 11.0 mph17.7 kmh 29.37 in994.6 mb 0.05 in1.3 mm 0.00 in0.0 mm 0.24 in6.1 mm
02:03 AM 45.4°F7.4°C 43.2°F6.2°C 92% 6.0 mph SE9.7 kmh SE 9.0 mph14.5 kmh 29.37 in994.6 mb 0.04 in1.0 mm 0.00 in0.0 mm 0.24 in6.1 mm
02:04 AM 45.4°F7.4°C 43.2°F6.2°C 92% 6.0 mph SE9.7 kmh SE 10.0 mph16.1 kmh 29.37 in994.6 mb 0.04 in1.0 mm 0.00 in0.0 mm 0.24 in6.1 mm
02:05 AM 45.4°F7.4°C 43.2°F6.2°C 92% 6.2 mph SE10.0 kmh SE 10.0 mph16.1 kmh 29.37 in994.6 mb 0.04 in1.0 mm 0.00 in0.0 mm 0.24 in6.1 mm
02:06 AM 45.4°F7.4°C 43.2°F6.2°C 92% 8.7 mph SE14.0 kmh SE 12.0 mph19.3 kmh 29.37 in994.6 mb 0.04 in1.0 mm 0.00 in0.0 mm 0.24 in6.1 mm
02:07 AM 45.4°F7.4°C 43.2°F6.2°C 92% 7.5 mph SE12.1 kmh SE 12.0 mph19.3 kmh 29.37 in994.6 mb 0.04 in1.0 mm 0.00 in0.0 mm 0.24 in6.1 mm
02:08 AM 45.4°F7.4°C 43.2°F6.2°C 92% 7.2 mph SE11.6 kmh SE 10.0 mph16.1 kmh 29.37 in994.6 mb 0.04 in1.0 mm 0.00 in0.0 mm 0.24 in6.1 mm
02:09 AM 45.4°F7.4°C 43.2°F6.2°C 92% 4.8 mph SE7.7 kmh SE 10.0 mph16.1 kmh 29.37 in994.6 mb 0.04 in1.0 mm 0.00 in0.0 mm 0.24 in6.1 mm
02:10 AM 45.4°F7.4°C 43.2°F6.2°C 92% 5.2 mph SE8.4 kmh SE 8.0 mph12.9 kmh 29.37 in994.6 mb 0.04 in1.0 mm 0.00 in0.0 mm 0.24 in6.1 mm
02:11 AM 45.4°F7.4°C 43.2°F6.2°C 92% 6.4 mph SE10.3 kmh SE 9.0 mph14.5 kmh 29.37 in994.6 mb 0.04 in1.0 mm 0.00 in0.0 mm 0.24 in6.1 mm
02:12 AM 45.4°F7.4°C 43.2°F6.2°C 92% 6.7 mph SE10.8 kmh SE 9.0 mph14.5 kmh 29.37 in994.6 mb 0.04 in1.0 mm 0.00 in0.0 mm 0.24 in6.1 mm
02:13 AM 45.4°F7.4°C 43.2°F6.2°C 92% 5.0 mph SE8.0 kmh SE 8.0 mph12.9 kmh 29.37 in994.6 mb 0.04 in1.0 mm 0.00 in0.0 mm 0.24 in6.1 mm
02:14 AM 45.4°F7.4°C 43.2°F6.2°C 92% 5.0 mph SE8.0 kmh SE 8.0 mph12.9 kmh 29.37 in994.6 mb 0.04 in1.0 mm 0.00 in0.0 mm 0.24 in6.1 mm
02:15 AM 45.4°F7.4°C 43.2°F6.2°C 92% 4.7 mph SE7.6 kmh SE 5.0 mph8.0 kmh 29.37 in994.6 mb 0.03 in0.8 mm 0.00 in0.0 mm 0.24 in6.1 mm
02:16 AM 45.4°F7.4°C 43.2°F6.2°C 92% 7.0 mph SE11.3 kmh SE 9.0 mph14.5 kmh 29.37 in994.6 mb 0.03 in0.8 mm 0.00 in0.0 mm 0.24 in6.1 mm
02:17 AM 45.4°F7.4°C 43.2°F6.2°C 92% 8.0 mph SE12.9 kmh SE 10.0 mph16.1 kmh 29.37 in994.6 mb 0.03 in0.8 mm 0.00 in0.0 mm 0.24 in6.1 mm
02:18 AM 45.4°F7.4°C 43.2°F6.2°C 92% 6.0 mph SE9.7 kmh SE 7.0 mph11.3 kmh 29.37 in994.6 mb 0.03 in0.8 mm 0.00 in0.0 mm 0.24 in6.1 mm
02:19 AM 45.4°F7.4°C 43.2°F6.2°C 92% 7.1 mph SE11.4 kmh SE 9.0 mph14.5 kmh 29.37 in994.6 mb 0.03 in0.8 mm 0.00 in0.0 mm 0.24 in6.1 mm
02:20 AM 45.4°F7.4°C 43.2°F6.2°C 92% 7.5 mph SE12.1 kmh SE 11.0 mph17.7 kmh 29.37 in994.6 mb 0.02 in0.5 mm 0.00 in0.0 mm 0.24 in6.1 mm
02:21 AM 45.4°F7.4°C 43.2°F6.2°C 92% 8.0 mph SE12.9 kmh SE 11.0 mph17.7 kmh 29.37 in994.6 mb 0.02 in0.5 mm 0.00 in0.0 mm 0.24 in6.1 mm
02:22 AM 45.4°F7.4°C 43.2°F6.2°C 92% 7.4 mph SE11.9 kmh SE 9.0 mph14.5 kmh 29.37 in994.6 mb 0.02 in0.5 mm 0.00 in0.0 mm 0.24 in6.1 mm
02:23 AM 45.4°F7.4°C 43.2°F6.2°C 92% 6.0 mph SSE9.7 kmh SSE 8.0 mph12.9 kmh 29.37 in994.6 mb 0.02 in0.5 mm 0.00 in0.0 mm 0.24 in6.1 mm
02:24 AM 45.4°F7.4°C 43.2°F6.2°C 92% 6.0 mph SSE9.7 kmh SSE 9.0 mph14.5 kmh 29.37 in994.6 mb 0.02 in0.5 mm 0.00 in0.0 mm 0.24 in6.1 mm
02:25 AM 45.4°F7.4°C 43.2°F6.2°C 92% 5.0 mph SE8.0 kmh SE 8.0 mph12.9 kmh 29.37 in994.6 mb 0.02 in0.5 mm 0.00 in0.0 mm 0.24 in6.1 mm
02:26 AM 45.4°F7.4°C 43.2°F6.2°C 92% 3.6 mph SE5.8 kmh SE 5.0 mph8.0 kmh 29.37 in994.6 mb 0.02 in0.5 mm 0.00 in0.0 mm 0.24 in6.1 mm
02:27 AM 45.5°F7.5°C 43.3°F6.3°C 92% 4.9 mph SSE7.9 kmh SSE 8.0 mph12.9 kmh 29.37 in994.6 mb 0.02 in0.5 mm 0.00 in0.0 mm 0.24 in6.1 mm
02:28 AM 45.5°F7.5°C 43.3°F6.3°C 92% 4.2 mph SSE6.8 kmh SSE 8.0 mph12.9 kmh 29.37 in994.6 mb 0.02 in0.5 mm 0.00 in0.0 mm 0.24 in6.1 mm
02:29 AM 45.5°F7.5°C 43.3°F6.3°C 92% 2.0 mph SSE3.2 kmh SSE 6.0 mph9.7 kmh 29.37 in994.6 mb 0.01 in0.3 mm 0.00 in0.0 mm 0.24 in6.1 mm
02:30 AM 45.4°F7.4°C 43.2°F6.2°C 92% 4.6 mph SSE7.4 kmh SSE 8.0 mph12.9 kmh 29.37 in994.6 mb 0.01 in0.3 mm 0.00 in0.0 mm 0.24 in6.1 mm
02:31 AM 45.4°F7.4°C 43.2°F6.2°C 92% 4.9 mph SSE7.9 kmh SSE 8.0 mph12.9 kmh 29.37 in994.6 mb 0.01 in0.3 mm 0.00 in0.0 mm 0.24 in6.1 mm
02:32 AM 45.4°F7.4°C 43.2°F6.2°C 92% 4.0 mph SE6.4 kmh SE 7.0 mph11.3 kmh 29.37 in994.6 mb 0.01 in0.3 mm 0.00 in0.0 mm 0.24 in6.1 mm
02:33 AM 45.4°F7.4°C 43.2°F6.2°C 92% 6.0 mph SSE9.7 kmh SSE 7.0 mph11.3 kmh 29.37 in994.6 mb 0.01 in0.3 mm 0.00 in0.0 mm 0.24 in6.1 mm
02:34 AM 45.3°F7.4°C 43.1°F6.2°C 92% 4.6 mph SSE7.4 kmh SSE 8.0 mph12.9 kmh 29.37 in994.6 mb 0.01 in0.3 mm 0.00 in0.0 mm 0.24 in6.1 mm
02:35 AM 45.3°F7.4°C 43.1°F6.2°C 92% 5.3 mph SE8.5 kmh SE 8.0 mph12.9 kmh 29.37 in994.6 mb 0.01 in0.3 mm 0.00 in0.0 mm 0.24 in6.1 mm
02:36 AM 45.3°F7.4°C 43.1°F6.2°C 92% 6.7 mph SE10.8 kmh SE 10.0 mph16.1 kmh 29.37 in994.6 mb 0.01 in0.3 mm 0.00 in0.0 mm 0.24 in6.1 mm
02:37 AM 45.2°F7.3°C 43.0°F6.1°C 92% 7.1 mph SE11.4 kmh SE 10.0 mph16.1 kmh 29.37 in994.6 mb 0.01 in0.3 mm 0.00 in0.0 mm 0.24 in6.1 mm
02:38 AM 45.3°F7.4°C 43.1°F6.2°C 92% 9.5 mph SE15.3 kmh SE 12.0 mph19.3 kmh 29.36 in994.2 mb 0.00 in0.0 mm 0.00 in0.0 mm 0.24 in6.1 mm
02:39 AM 45.3°F7.4°C 43.1°F6.2°C 92% 6.4 mph SE10.3 kmh SE 12.0 mph19.3 kmh 29.36 in994.2 mb 0.00 in0.0 mm 0.00 in0.0 mm 0.24 in6.1 mm
02:40 AM 45.3°F7.4°C 43.1°F6.2°C 92% 8.9 mph SE14.3 kmh SE 13.0 mph20.9 kmh 29.36 in994.2 mb 0.00 in0.0 mm 0.00 in0.0 mm 0.24 in6.1 mm
02:41 AM 45.3°F7.4°C 43.1°F6.2°C 92% 6.0 mph SE9.7 kmh SE 9.0 mph14.5 kmh 29.36 in994.2 mb 0.00 in0.0 mm 0.00 in0.0 mm 0.24 in6.1 mm
02:42 AM 45.3°F7.4°C 43.1°F6.2°C 92% 6.0 mph SSE9.7 kmh SSE 10.0 mph16.1 kmh 29.36 in994.2 mb 0.00 in0.0 mm 0.00 in0.0 mm 0.24 in6.1 mm
02:43 AM 45.4°F7.4°C 43.2°F6.2°C 92% 6.1 mph SSE9.8 kmh SSE 9.0 mph14.5 kmh 29.36 in994.2 mb 0.00 in0.0 mm 0.00 in0.0 mm 0.24 in6.1 mm
02:44 AM 45.4°F7.4°C 43.2°F6.2°C 92% 5.3 mph SSE8.5 kmh SSE 9.0 mph14.5 kmh 29.36 in994.2 mb 0.00 in0.0 mm 0.00 in0.0 mm 0.24 in6.1 mm
02:45 AM 45.4°F7.4°C 43.2°F6.2°C 92% 6.0 mph SSE9.7 kmh SSE 10.0 mph16.1 kmh 29.36 in994.2 mb 0.00 in0.0 mm 0.00 in0.0 mm 0.24 in6.1 mm
02:46 AM 45.4°F7.4°C 43.2°F6.2°C 92% 5.0 mph SSE8.0 kmh SSE 8.0 mph12.9 kmh 29.36 in994.2 mb 0.00 in0.0 mm 0.00 in0.0 mm 0.24 in6.1 mm
02:47 AM 45.4°F7.4°C 43.2°F6.2°C 92% 9.0 mph SSE14.5 kmh SSE 11.0 mph17.7 kmh 29.36 in994.2 mb 0.00 in0.0 mm 0.00 in0.0 mm 0.24 in6.1 mm
02:48 AM 45.5°F7.5°C 43.3°F6.3°C 92% 6.0 mph SE9.7 kmh SE 9.0 mph14.5 kmh 29.36 in994.2 mb 0.00 in0.0 mm 0.00 in0.0 mm 0.24 in6.1 mm
02:49 AM 45.5°F7.5°C 43.3°F6.3°C 92% 8.0 mph SE12.9 kmh SE 10.0 mph16.1 kmh 29.36 in994.2 mb 0.00 in0.0 mm 0.00 in0.0 mm 0.24 in6.1 mm
02:50 AM 45.6°F7.6°C 43.4°F6.3°C 92% 6.0 mph SE9.7 kmh SE 8.0 mph12.9 kmh 29.36 in994.2 mb 0.00 in0.0 mm 0.00 in0.0 mm 0.24 in6.1 mm
02:51 AM 45.5°F7.5°C 43.3°F6.3°C 92% 7.8 mph SE12.6 kmh SE 11.0 mph17.7 kmh 29.36 in994.2 mb 0.00 in0.0 mm 0.00 in0.0 mm 0.24 in6.1 mm
02:52 AM 45.6°F7.6°C 43.4°F6.3°C 92% 6.0 mph SE9.7 kmh SE 11.0 mph17.7 kmh 29.36 in994.2 mb 0.00 in0.0 mm 0.00 in0.0 mm 0.24 in6.1 mm
02:53 AM 45.6°F7.6°C 43.4°F6.3°C 92% 6.8 mph SE10.9 kmh SE 9.0 mph14.5 kmh 29.36 in994.2 mb 0.00 in0.0 mm 0.00 in0.0 mm 0.24 in6.1 mm
02:54 AM 45.6°F7.6°C 43.4°F6.3°C 92% 5.0 mph SE8.0 kmh SE 8.0 mph12.9 kmh 29.36 in994.2 mb 0.00 in0.0 mm 0.00 in0.0 mm 0.24 in6.1 mm
02:55 AM 45.5°F7.5°C 43.3°F6.3°C 92% 7.0 mph SSE11.3 kmh SSE 10.0 mph16.1 kmh 29.36 in994.2 mb 0.00 in0.0 mm 0.00 in0.0 mm 0.24 in6.1 mm
02:56 AM 45.6°F7.6°C 43.4°F6.3°C 92% 4.3 mph SE6.9 kmh SE 6.0 mph9.7 kmh 29.36 in994.2 mb 0.00 in0.0 mm 0.00 in0.0 mm 0.24 in6.1 mm
02:57 AM 45.6°F7.6°C 43.4°F6.3°C 92% 6.0 mph SE9.7 kmh SE 9.0 mph14.5 kmh 29.36 in994.2 mb 0.00 in0.0 mm 0.00 in0.0 mm 0.24 in6.1 mm
02:58 AM 45.6°F7.6°C 43.4°F6.3°C 92% 5.0 mph SSE8.0 kmh SSE 7.0 mph11.3 kmh 29.36 in994.2 mb 0.00 in0.0 mm 0.00 in0.0 mm 0.24 in6.1 mm
02:59 AM 45.6°F7.6°C 43.4°F6.3°C 92% 5.4 mph SSE8.7 kmh SSE 7.0 mph11.3 kmh 29.36 in994.2 mb 0.00 in0.0 mm 0.00 in0.0 mm 0.24 in6.1 mm
03:00 AM 45.5°F7.5°C 43.3°F6.3°C 92% 7.0 mph SSE11.3 kmh SSE 10.0 mph16.1 kmh 29.36 in994.2 mb 0.00 in0.0 mm 0.00 in0.0 mm 0.24 in6.1 mm
03:01 AM 45.6°F7.6°C 43.4°F6.3°C 92% 8.0 mph SSE12.9 kmh SSE 10.0 mph16.1 kmh 29.36 in994.2 mb 0.00 in0.0 mm 0.00 in0.0 mm 0.24 in6.1 mm
03:02 AM 45.6°F7.6°C 43.4°F6.3°C 92% 6.0 mph SSE9.7 kmh SSE 8.0 mph12.9 kmh 29.36 in994.2 mb 0.00 in0.0 mm 0.00 in0.0 mm 0.24 in6.1 mm
03:03 AM 45.6°F7.6°C 43.4°F6.3°C 92% 7.3 mph SSE11.7 kmh SSE 10.0 mph16.1 kmh 29.36 in994.2 mb 0.00 in0.0 mm 0.00 in0.0 mm 0.24 in6.1 mm
03:04 AM 45.6°F7.6°C 43.4°F6.3°C 92% 7.5 mph SSE12.1 kmh SSE 12.0 mph19.3 kmh 29.36 in994.2 mb 0.00 in0.0 mm 0.00 in0.0 mm 0.24 in6.1 mm
03:05 AM 45.6°F7.6°C 43.4°F6.3°C 92% 6.2 mph SSE10.0 kmh SSE 12.0 mph19.3 kmh 29.36 in994.2 mb 0.00 in0.0 mm 0.00 in0.0 mm 0.24 in6.1 mm
03:06 AM 45.6°F7.6°C 43.4°F6.3°C 92% 6.2 mph SSE10.0 kmh SSE 10.0 mph16.1 kmh 29.36 in994.2 mb 0.00 in0.0 mm 0.00 in0.0 mm 0.24 in6.1 mm
03:07 AM 45.6°F7.6°C 43.4°F6.3°C 92% 5.0 mph SSE8.0 kmh SSE 10.0 mph16.1 kmh 29.36 in994.2 mb 0.00 in0.0 mm 0.00 in0.0 mm 0.24 in6.1 mm
03:08 AM 45.6°F7.6°C 43.4°F6.3°C 92% 8.0 mph SSE12.9 kmh SSE 11.0 mph17.7 kmh 29.36 in994.2 mb 0.00 in0.0 mm 0.00 in0.0 mm 0.24 in6.1 mm
03:09 AM 45.7°F7.6°C 43.5°F6.4°C 92% 7.6 mph SSE12.2 kmh SSE 10.0 mph16.1 kmh 29.36 in994.2 mb 0.00 in0.0 mm 0.00 in0.0 mm 0.24 in6.1 mm
03:10 AM 45.6°F7.6°C 43.4°F6.3°C 92% 7.0 mph SE11.3 kmh SE 10.0 mph16.1 kmh 29.36 in994.2 mb 0.00 in0.0 mm 0.00 in0.0 mm 0.24 in6.1 mm
03:11 AM 45.7°F7.6°C 43.5°F6.4°C 92% 6.8 mph SSE10.9 kmh SSE 12.0 mph19.3 kmh 29.36 in994.2 mb 0.00 in0.0 mm 0.00 in0.0 mm 0.24 in6.1 mm
03:12 AM 45.7°F7.6°C 43.5°F6.4°C 92% 6.8 mph SSE10.9 kmh SSE 12.0 mph19.3 kmh 29.36 in994.2 mb 0.00 in0.0 mm 0.00 in0.0 mm 0.24 in6.1 mm
03:13 AM 45.7°F7.6°C 43.5°F6.4°C 92% 6.2 mph SSE10.0 kmh SSE 9.0 mph14.5 kmh 29.36 in994.2 mb 0.00 in0.0 mm 0.00 in0.0 mm 0.24 in6.1 mm
03:14 AM 45.8°F7.7°C 43.6°F6.4°C 92% 6.5 mph SSE10.5 kmh SSE 9.0 mph14.5 kmh 29.36 in994.2 mb 0.00 in0.0 mm 0.00 in0.0 mm 0.24 in6.1 mm
03:15 AM 45.7°F7.6°C 43.5°F6.4°C 92% 4.8 mph SSE7.7 kmh SSE 9.0 mph14.5 kmh 29.36 in994.2 mb 0.00 in0.0 mm 0.00 in0.0 mm 0.24 in6.1 mm
03:16 AM 45.8°F7.7°C 43.6°F6.4°C 92% 5.5 mph SSE8.9 kmh SSE 8.0 mph12.9 kmh 29.36 in994.2 mb 0.00 in0.0 mm 0.00 in0.0 mm 0.24 in6.1 mm
03:17 AM 45.8°F7.7°C 43.6°F6.4°C 92% 5.0 mph SSE8.0 kmh SSE 8.0 mph12.9 kmh 29.36 in994.2 mb 0.00 in0.0 mm 0.00 in0.0 mm 0.24 in6.1 mm
03:18 AM 45.8°F7.7°C 43.6°F6.4°C 92% 5.1 mph SSE8.2 kmh SSE 8.0 mph12.9 kmh 29.36 in994.2 mb 0.00 in0.0 mm 0.00 in0.0 mm 0.24 in6.1 mm
03:19 AM 45.8°F7.7°C 43.6°F6.4°C 92% 6.3 mph SSE10.1 kmh SSE 8.0 mph12.9 kmh 29.36 in994.2 mb 0.00 in0.0 mm 0.00 in0.0 mm 0.24 in6.1 mm
03:20 AM 45.8°F7.7°C 43.6°F6.4°C 92% 4.6 mph SSE7.4 kmh SSE 8.0 mph12.9 kmh 29.36 in994.2 mb 0.00 in0.0 mm 0.00 in0.0 mm 0.24 in6.1 mm
03:21 AM 45.9°F7.7°C 43.7°F6.5°C 92% 7.7 mph SSE12.4 kmh SSE 11.0 mph17.7 kmh 29.36 in994.2 mb 0.00 in0.0 mm 0.00 in0.0 mm 0.24 in6.1 mm
03:22 AM 45.9°F7.7°C 43.7°F6.5°C 92% 6.9 mph SSE11.1 kmh SSE 11.0 mph17.7 kmh 29.36 in994.2 mb 0.00 in0.0 mm 0.00 in0.0 mm 0.24 in6.1 mm
03:23 AM 45.9°F7.7°C 43.7°F6.5°C 92% 5.1 mph SSE8.2 kmh SSE 9.0 mph14.5 kmh 29.36 in994.2 mb 0.00 in0.0 mm 0.00 in0.0 mm 0.24 in6.1 mm
03:24 AM 45.9°F7.7°C 43.7°F6.5°C 92% 6.6 mph S10.6 kmh S 9.0 mph14.5 kmh 29.36 in994.2 mb 0.00 in0.0 mm 0.00 in0.0 mm 0.24 in6.1 mm
03:25 AM 45.9°F7.7°C 43.7°F6.5°C 92% 4.2 mph S6.8 kmh S 9.0 mph14.5 kmh 29.36 in994.2 mb 0.00 in0.0 mm 0.00 in0.0 mm 0.24 in6.1 mm
03:26 AM 45.9°F7.7°C 43.7°F6.5°C 92% 7.0 mph SSE11.3 kmh SSE 9.0 mph14.5 kmh 29.36 in994.2 mb 0.01 in0.3 mm 0.60 in15.2 mm 0.24 in6.1 mm
03:27 AM 45.9°F7.7°C 43.7°F6.5°C 92% 6.0 mph SSE9.7 kmh SSE 11.0 mph17.7 kmh 29.36 in994.2 mb 0.01 in0.3 mm 0.00 in0.0 mm 0.24 in6.1 mm
03:28 AM 45.9°F7.7°C 43.7°F6.5°C 92% 6.7 mph S10.8 kmh S 9.0 mph14.5 kmh 29.36 in994.2 mb 0.01 in0.3 mm 0.00 in0.0 mm 0.24 in6.1 mm
03:29 AM 45.9°F7.7°C 43.7°F6.5°C 92% 7.0 mph S11.3 kmh S 9.0 mph14.5 kmh 29.36 in994.2 mb 0.01 in0.3 mm 0.00 in0.0 mm 0.24 in6.1 mm
03:30 AM 45.9°F7.7°C 43.7°F6.5°C 92% 7.6 mph S12.2 kmh S 11.0 mph17.7 kmh 29.36 in994.2 mb 0.01 in0.3 mm 0.00 in0.0 mm 0.24 in6.1 mm
03:31 AM 45.9°F7.7°C 43.7°F6.5°C 92% 6.2 mph S10.0 kmh S 11.0 mph17.7 kmh 29.36 in994.2 mb 0.01 in0.3 mm 0.00 in0.0 mm 0.24 in6.1 mm
03:32 AM 45.9°F7.7°C 43.7°F6.5°C 92% 5.5 mph S8.9 kmh S 9.0 mph14.5 kmh 29.36 in994.2 mb 0.01 in0.3 mm 0.00 in0.0 mm 0.24 in6.1 mm
03:33 AM 45.9°F7.7°C 43.7°F6.5°C 92% 5.5 mph SSE8.9 kmh SSE 9.0 mph14.5 kmh 29.36 in994.2 mb 0.01 in0.3 mm 0.00 in0.0 mm 0.24 in6.1 mm
03:34 AM 45.9°F7.7°C 43.7°F6.5°C 92% 6.1 mph S9.8 kmh S 9.0 mph14.5 kmh 29.35 in993.9 mb 0.01 in0.3 mm 0.00 in0.0 mm 0.24 in6.1 mm
03:35 AM 45.9°F7.7°C 43.7°F6.5°C 92% 6.0 mph S9.7 kmh S 10.0 mph16.1 kmh 29.36 in994.2 mb 0.01 in0.3 mm 0.00 in0.0 mm 0.24 in6.1 mm
03:36 AM 45.9°F7.7°C 43.7°F6.5°C 92% 7.0 mph SSE11.3 kmh SSE 11.0 mph17.7 kmh 29.36 in994.2 mb 0.01 in0.3 mm 0.00 in0.0 mm 0.24 in6.1 mm
03:37 AM 45.9°F7.7°C 43.7°F6.5°C 92% 7.0 mph S11.3 kmh S 11.0 mph17.7 kmh 29.36 in994.2 mb 0.01 in0.3 mm 0.00 in0.0 mm 0.24 in6.1 mm
03:38 AM 45.9°F7.7°C 43.7°F6.5°C 92% 5.7 mph S9.2 kmh S 11.0 mph17.7 kmh 29.36 in994.2 mb 0.01 in0.3 mm 0.00 in0.0 mm 0.24 in6.1 mm
03:39 AM 45.9°F7.7°C 43.7°F6.5°C 92% 6.2 mph S10.0 kmh S 10.0 mph16.1 kmh 29.36 in994.2 mb 0.01 in0.3 mm 0.00 in0.0 mm 0.24 in6.1 mm
03:40 AM 45.9°F7.7°C 43.7°F6.5°C 92% 5.4 mph S8.7 kmh S 8.0 mph12.9 kmh 29.36 in994.2 mb 0.01 in0.3 mm 0.00 in0.0 mm 0.24 in6.1 mm
03:41 AM 45.9°F7.7°C 43.7°F6.5°C 92% 7.0 mph S11.3 kmh S 9.0 mph14.5 kmh 29.36 in994.2 mb 0.01 in0.3 mm 0.00 in0.0 mm 0.24 in6.1 mm
03:42 AM 45.9°F7.7°C 43.7°F6.5°C 92% 5.0 mph S8.0 kmh S 8.0 mph12.9 kmh 29.36 in994.2 mb 0.01 in0.3 mm 0.00 in0.0 mm 0.24 in6.1 mm
03:43 AM 45.8°F7.7°C 43.6°F6.4°C 92% 6.0 mph S9.7 kmh S 10.0 mph16.1 kmh 29.36 in994.2 mb 0.01 in0.3 mm 0.00 in0.0 mm 0.24 in6.1 mm
03:44 AM 45.9°F7.7°C 43.7°F6.5°C 92% 6.0 mph SSW9.7 kmh SSW 8.0 mph12.9 kmh 29.36 in994.2 mb 0.01 in0.3 mm 0.00 in0.0 mm 0.24 in6.1 mm
03:45 AM 45.9°F7.7°C 43.7°F6.5°C 92% 4.3 mph S6.9 kmh S 5.0 mph8.0 kmh 29.36 in994.2 mb 0.01 in0.3 mm 0.00 in0.0 mm 0.24 in6.1 mm
03:46 AM 45.9°F7.7°C 43.7°F6.5°C 92% 3.8 mph SSW6.1 kmh SSW 5.0 mph8.0 kmh 29.36 in994.2 mb 0.01 in0.3 mm 0.00 in0.0 mm 0.24 in6.1 mm
03:47 AM 45.8°F7.7°C 43.6°F6.4°C 92% 6.2 mph SSW10.0 kmh SSW 9.0 mph14.5 kmh 29.36 in994.2 mb 0.01 in0.3 mm 0.00 in0.0 mm 0.24 in6.1 mm
03:48 AM 45.8°F7.7°C 43.6°F6.4°C 92% 7.6 mph SSW12.2 kmh SSW 15.0 mph24.1 kmh 29.36 in994.2 mb 0.01 in0.3 mm 0.00 in0.0 mm 0.24 in6.1 mm
03:49 AM 45.9°F7.7°C 43.7°F6.5°C 92% 13.2 mph SSW21.2 kmh SSW 20.0 mph32.2 kmh 29.36 in994.2 mb 0.01 in0.3 mm 0.00 in0.0 mm 0.24 in6.1 mm
03:50 AM 45.8°F7.7°C 43.6°F6.4°C 92% 20.0 mph SSW32.2 kmh SSW 26.0 mph41.8 kmh 29.36 in994.2 mb 0.02 in0.5 mm 0.60 in15.2 mm 0.25 in6.4 mm
03:51 AM 45.5°F7.5°C 43.3°F6.3°C 92% 20.0 mph W32.2 kmh W 26.0 mph41.8 kmh 29.36 in994.2 mb 0.02 in0.5 mm 0.00 in0.0 mm 0.25 in6.4 mm
03:52 AM 45.0°F7.2°C 42.5°F5.8°C 91% 18.6 mph W29.9 kmh W 20.0 mph32.2 kmh 29.36 in994.2 mb 0.02 in0.5 mm 0.00 in0.0 mm 0.25 in6.4 mm
03:53 AM 44.8°F7.1°C 42.3°F5.7°C 91% 16.6 mph WSW26.7 kmh WSW 20.0 mph32.2 kmh 29.36 in994.2 mb 0.02 in0.5 mm 0.00 in0.0 mm 0.25 in6.4 mm
03:54 AM 44.7°F7.1°C 42.2°F5.7°C 91% 16.5 mph W26.6 kmh W 18.0 mph29.0 kmh 29.36 in994.2 mb 0.02 in0.5 mm 0.00 in0.0 mm 0.25 in6.4 mm
03:55 AM 44.6°F7.0°C 42.1°F5.6°C 91% 14.5 mph WSW23.3 kmh WSW 18.0 mph29.0 kmh 29.36 in994.2 mb 0.02 in0.5 mm 0.00 in0.0 mm 0.25 in6.4 mm
03:56 AM 44.5°F6.9°C 42.0°F5.6°C 91% 15.6 mph W25.1 kmh W 18.0 mph29.0 kmh 29.36 in994.2 mb 0.02 in0.5 mm 0.00 in0.0 mm 0.25 in6.4 mm
03:57 AM 44.5°F6.9°C 42.0°F5.6°C 91% 16.0 mph WSW25.7 kmh WSW 18.0 mph29.0 kmh 29.36 in994.2 mb 0.02 in0.5 mm 0.00 in0.0 mm 0.25 in6.4 mm
03:58 AM 44.6°F7.0°C 42.1°F5.6°C 91% 15.5 mph WSW24.9 kmh WSW 19.0 mph30.6 kmh 29.36 in994.2 mb 0.02 in0.5 mm 0.00 in0.0 mm 0.25 in6.4 mm
03:59 AM 44.5°F6.9°C 42.0°F5.6°C 91% 14.1 mph WSW22.7 kmh WSW 19.0 mph30.6 kmh 29.36 in994.2 mb 0.02 in0.5 mm 0.00 in0.0 mm 0.25 in6.4 mm
04:00 AM 44.5°F6.9°C 42.0°F5.6°C 91% 16.1 mph W25.9 kmh W 18.0 mph29.0 kmh 29.36 in994.2 mb 0.02 in0.5 mm 0.00 in0.0 mm 0.25 in6.4 mm
04:01 AM 44.5°F6.9°C 42.0°F5.6°C 91% 13.4 mph WSW21.6 kmh WSW 18.0 mph29.0 kmh 29.36 in994.2 mb 0.02 in0.5 mm 0.00 in0.0 mm 0.25 in6.4 mm
04:02 AM 44.5°F6.9°C 42.0°F5.6°C 91% 14.6 mph W23.5 kmh W 17.0 mph27.4 kmh 29.36 in994.2 mb 0.02 in0.5 mm 0.00 in0.0 mm 0.25 in6.4 mm
04:03 AM 44.5°F6.9°C 41.8°F5.4°C 90% 15.8 mph WSW25.4 kmh WSW 18.0 mph29.0 kmh 29.36 in994.2 mb 0.02 in0.5 mm 0.00 in0.0 mm 0.25 in6.4 mm
04:04 AM 44.5°F6.9°C 41.8°F5.4°C 90% 14.0 mph WSW22.5 kmh WSW 18.0 mph29.0 kmh 29.36 in994.2 mb 0.02 in0.5 mm 0.00 in0.0 mm 0.25 in6.4 mm
04:05 AM 44.5°F6.9°C 41.8°F5.4°C 90% 14.0 mph W22.5 kmh W 16.0 mph25.7 kmh 29.37 in994.6 mb 0.02 in0.5 mm 0.00 in0.0 mm 0.25 in6.4 mm
04:06 AM 44.4°F6.9°C 41.7°F5.4°C 90% 13.0 mph W20.9 kmh W 16.0 mph25.7 kmh 29.37 in994.6 mb 0.02 in0.5 mm 0.00 in0.0 mm 0.25 in6.4 mm
04:07 AM 44.3°F6.8°C 41.6°F5.3°C 90% 12.5 mph WSW20.1 kmh WSW 13.0 mph20.9 kmh 29.37 in994.6 mb 0.02 in0.5 mm 0.00 in0.0 mm 0.25 in6.4 mm
04:08 AM 44.3°F6.8°C 41.6°F5.3°C 90% 12.0 mph WSW19.3 kmh WSW 13.0 mph20.9 kmh 29.37 in994.6 mb 0.02 in0.5 mm 0.00 in0.0 mm 0.25 in6.4 mm
04:09 AM 44.2°F6.8°C 41.5°F5.3°C 90% 11.9 mph WSW19.2 kmh WSW 13.0 mph20.9 kmh 29.37 in994.6 mb 0.02 in0.5 mm 0.00 in0.0 mm 0.25 in6.4 mm
04:10 AM 44.2°F6.8°C 41.5°F5.3°C 90% 12.0 mph WSW19.3 kmh WSW 14.0 mph22.5 kmh 29.37 in994.6 mb 0.02 in0.5 mm 0.00 in0.0 mm 0.25 in6.4 mm
04:11 AM 44.2°F6.8°C 41.5°F5.3°C 90% 11.0 mph WSW17.7 kmh WSW 13.0 mph20.9 kmh 29.37 in994.6 mb 0.02 in0.5 mm 0.00 in0.0 mm 0.25 in6.4 mm
04:12 AM 44.1°F6.7°C 41.4°F5.2°C 90% 11.0 mph WSW17.7 kmh WSW 13.0 mph20.9 kmh 29.37 in994.6 mb 0.02 in0.5 mm 0.00 in0.0 mm 0.25 in6.4 mm
04:13 AM 44.1°F6.7°C 41.4°F5.2°C 90% 13.0 mph WSW20.9 kmh WSW 15.0 mph24.1 kmh 29.37 in994.6 mb 0.02 in0.5 mm 0.00 in0.0 mm 0.25 in6.4 mm
04:14 AM 44.1°F6.7°C 41.4°F5.2°C 90% 12.5 mph WSW20.1 kmh WSW 14.0 mph22.5 kmh 29.37 in994.6 mb 0.02 in0.5 mm 0.00 in0.0 mm 0.25 in6.4 mm
04:15 AM 44.1°F6.7°C 41.4°F5.2°C 90% 12.5 mph WSW20.1 kmh WSW 14.0 mph22.5 kmh 29.37 in994.6 mb 0.02 in0.5 mm 0.00 in0.0 mm 0.25 in6.4 mm
04:16 AM 44.1°F6.7°C 41.4°F5.2°C 90% 12.7 mph WSW20.4 kmh WSW 14.0 mph22.5 kmh 29.37 in994.6 mb 0.02 in0.5 mm 0.00 in0.0 mm 0.25 in6.4 mm
04:17 AM 44.1°F6.7°C 41.4°F5.2°C 90% 11.8 mph WSW19.0 kmh WSW 14.0 mph22.5 kmh 29.37 in994.6 mb 0.02 in0.5 mm 0.00 in0.0 mm 0.25 in6.4 mm
04:18 AM 44.1°F6.7°C 41.4°F5.2°C 90% 11.9 mph WSW19.2 kmh WSW 13.0 mph20.9 kmh 29.37 in994.6 mb 0.02 in0.5 mm 0.00 in0.0 mm 0.25 in6.4 mm
04:19 AM 44.1°F6.7°C 41.4°F5.2°C 90% 11.0 mph WSW17.7 kmh WSW 13.0 mph20.9 kmh 29.37 in994.6 mb 0.02 in0.5 mm 0.00 in0.0 mm 0.25 in6.4 mm
04:20 AM 44.0°F6.7°C 41.3°F5.2°C 90% 11.0 mph WSW17.7 kmh WSW 13.0 mph20.9 kmh 29.37 in994.6 mb 0.02 in0.5 mm 0.00 in0.0 mm 0.25 in6.4 mm
04:21 AM 44.0°F6.7°C 41.3°F5.2°C 90% 11.0 mph WSW17.7 kmh WSW 13.0 mph20.9 kmh 29.37 in994.6 mb 0.02 in0.5 mm 0.00 in0.0 mm 0.25 in6.4 mm
04:22 AM 44.0°F6.7°C 41.3°F5.2°C 90% 12.4 mph WSW20.0 kmh WSW 14.0 mph22.5 kmh 29.37 in994.6 mb 0.02 in0.5 mm 0.00 in0.0 mm 0.25 in6.4 mm
04:23 AM 44.0°F6.7°C 41.3°F5.2°C 90% 13.0 mph WSW20.9 kmh WSW 15.0 mph24.1 kmh 29.37 in994.6 mb 0.02 in0.5 mm 0.00 in0.0 mm 0.25 in6.4 mm
04:24 AM 44.0°F6.7°C 41.3°F5.2°C 90% 11.7 mph WSW18.8 kmh WSW 15.0 mph24.1 kmh 29.37 in994.6 mb 0.02 in0.5 mm 0.00 in0.0 mm 0.25 in6.4 mm
04:25 AM 44.0°F6.7°C 41.3°F5.2°C 90% 12.3 mph WSW19.8 kmh WSW 14.0 mph22.5 kmh 29.37 in994.6 mb 0.02 in0.5 mm 0.00 in0.0 mm 0.25 in6.4 mm
04:26 AM 44.1°F6.7°C 41.4°F5.2°C 90% 11.6 mph WSW18.7 kmh WSW 14.0 mph22.5 kmh 29.37 in994.6 mb 0.01 in0.3 mm 0.00 in0.0 mm 0.25 in6.4 mm
04:27 AM 44.1°F6.7°C 41.4°F5.2°C 90% 11.0 mph WSW17.7 kmh WSW 12.0 mph19.3 kmh 29.37 in994.6 mb 0.01 in0.3 mm 0.00 in0.0 mm 0.25 in6.4 mm
04:28 AM 44.0°F6.7°C 41.3°F5.2°C 90% 11.0 mph WSW17.7 kmh WSW 14.0 mph22.5 kmh 29.37 in994.6 mb 0.01 in0.3 mm 0.00 in0.0 mm 0.25 in6.4 mm
04:29 AM 44.0°F6.7°C 41.3°F5.2°C 90% 11.0 mph WSW17.7 kmh WSW 11.0 mph17.7 kmh 29.37 in994.6 mb 0.01 in0.3 mm 0.00 in0.0 mm 0.25 in6.4 mm
04:30 AM 44.0°F6.7°C 41.3°F5.2°C 90% 12.6 mph WSW20.3 kmh WSW 15.0 mph24.1 kmh 29.37 in994.6 mb 0.01 in0.3 mm 0.00 in0.0 mm 0.25 in6.4 mm
04:31 AM 44.0°F6.7°C 41.3°F5.2°C 90% 11.4 mph WSW18.3 kmh WSW 15.0 mph24.1 kmh 29.37 in994.6 mb 0.01 in0.3 mm 0.00 in0.0 mm 0.25 in6.4 mm
04:32 AM 44.0°F6.7°C 41.3°F5.2°C 90% 11.5 mph WSW18.5 kmh WSW 12.0 mph19.3 kmh 29.37 in994.6 mb 0.01 in0.3 mm 0.00 in0.0 mm 0.25 in6.4 mm
04:33 AM 44.0°F6.7°C 41.3°F5.2°C 90% 13.2 mph WSW21.2 kmh WSW 15.0 mph24.1 kmh 29.37 in994.6 mb 0.01 in0.3 mm 0.00 in0.0 mm 0.25 in6.4 mm
04:34 AM 44.0°F6.7°C 41.3°F5.2°C 90% 13.0 mph WSW20.9 kmh WSW 15.0 mph24.1 kmh 29.37 in994.6 mb 0.01 in0.3 mm 0.00 in0.0 mm 0.25 in6.4 mm
04:35 AM 44.0°F6.7°C 41.3°F5.2°C 90% 11.1 mph WSW17.9 kmh WSW 14.0 mph22.5 kmh 29.37 in994.6 mb 0.01 in0.3 mm 0.00 in0.0 mm 0.25 in6.4 mm
04:36 AM 43.9°F6.6°C 40.9°F4.9°C 89% 11.9 mph WSW19.2 kmh WSW 13.0 mph20.9 kmh 29.37 in994.6 mb 0.01 in0.3 mm 0.00 in0.0 mm 0.25 in6.4 mm
04:37 AM 43.9°F6.6°C 41.2°F5.1°C 90% 11.0 mph WSW17.7 kmh WSW 12.0 mph19.3 kmh 29.37 in994.6 mb 0.01 in0.3 mm 0.00 in0.0 mm 0.25 in6.4 mm
04:38 AM 43.9°F6.6°C 41.2°F5.1°C 90% 11.0 mph WSW17.7 kmh WSW 13.0 mph20.9 kmh 29.37 in994.6 mb 0.01 in0.3 mm 0.00 in0.0 mm 0.25 in6.4 mm
04:39 AM 43.9°F6.6°C 40.9°F4.9°C 89% 12.4 mph SW20.0 kmh SW 13.0 mph20.9 kmh 29.37 in994.6 mb 0.01 in0.3 mm 0.00 in0.0 mm 0.25 in6.4 mm
04:40 AM 43.9°F6.6°C 40.9°F4.9°C 89% 11.8 mph WSW19.0 kmh WSW 13.0 mph20.9 kmh 29.37 in994.6 mb 0.01 in0.3 mm 0.00 in0.0 mm 0.25 in6.4 mm
04:41 AM 44.0°F6.7°C 41.3°F5.2°C 90% 12.0 mph SW19.3 kmh SW 13.0 mph20.9 kmh 29.37 in994.6 mb 0.01 in0.3 mm 0.00 in0.0 mm 0.25 in6.4 mm
04:42 AM 44.0°F6.7°C 41.3°F5.2°C 90% 11.7 mph SW18.8 kmh SW 13.0 mph20.9 kmh 29.37 in994.6 mb 0.01 in0.3 mm 0.00 in0.0 mm 0.25 in6.4 mm
04:43 AM 43.9°F6.6°C 41.2°F5.1°C 90% 11.1 mph SW17.9 kmh SW 13.0 mph20.9 kmh 29.37 in994.6 mb 0.01 in0.3 mm 0.00 in0.0 mm 0.25 in6.4 mm
04:44 AM 43.9°F6.6°C 41.2°F5.1°C 90% 10.8 mph WSW17.4 kmh WSW 12.0 mph19.3 kmh 29.37 in994.6 mb 0.01 in0.3 mm 0.00 in0.0 mm 0.25 in6.4 mm
04:45 AM 43.9°F6.6°C 41.2°F5.1°C 90% 11.4 mph SW18.3 kmh SW 14.0 mph22.5 kmh 29.37 in994.6 mb 0.01 in0.3 mm 0.00 in0.0 mm 0.25 in6.4 mm
04:46 AM 43.9°F6.6°C 41.2°F5.1°C 90% 11.0 mph WSW17.7 kmh WSW 13.0 mph20.9 kmh 29.37 in994.6 mb 0.01 in0.3 mm 0.00 in0.0 mm 0.25 in6.4 mm
04:47 AM 43.9°F6.6°C 41.2°F5.1°C 90% 11.0 mph WSW17.7 kmh WSW 13.0 mph20.9 kmh 29.37 in994.6 mb 0.01 in0.3 mm 0.00 in0.0 mm 0.25 in6.4 mm
04:48 AM 43.9°F6.6°C 41.2°F5.1°C 90% 11.5 mph SW18.5 kmh SW 12.0 mph19.3 kmh 29.37 in994.6 mb 0.01 in0.3 mm 0.00 in0.0 mm 0.25 in6.4 mm
04:49 AM 43.9°F6.6°C 41.2°F5.1°C 90% 9.9 mph WSW15.9 kmh WSW 12.0 mph19.3 kmh 29.37 in994.6 mb 0.01 in0.3 mm 0.00 in0.0 mm 0.25 in6.4 mm
04:50 AM 43.9°F6.6°C 41.2°F5.1°C 90% 10.7 mph WSW17.2 kmh WSW 12.0 mph19.3 kmh 29.37 in994.6 mb 0.00 in0.0 mm 0.00 in0.0 mm 0.25 in6.4 mm
04:51 AM 43.8°F6.6°C 41.1°F5.1°C 90% 11.1 mph WSW17.9 kmh WSW 13.0 mph20.9 kmh 29.37 in994.6 mb 0.00 in0.0 mm 0.00 in0.0 mm 0.25 in6.4 mm
04:52 AM 43.8°F6.6°C 41.1°F5.1°C 90% 11.3 mph WSW18.2 kmh WSW 13.0 mph20.9 kmh 29.37 in994.6 mb 0.00 in0.0 mm 0.00 in0.0 mm 0.25 in6.4 mm
04:53 AM 43.8°F6.6°C 41.1°F5.1°C 90% 10.4 mph WSW16.7 kmh WSW 12.0 mph19.3 kmh 29.37 in994.6 mb 0.00 in0.0 mm 0.00 in0.0 mm 0.25 in6.4 mm
04:54 AM 43.8°F6.6°C 41.1°F5.1°C 90% 11.0 mph WSW17.7 kmh WSW 13.0 mph20.9 kmh 29.38 in994.9 mb 0.00 in0.0 mm 0.00 in0.0 mm 0.25 in6.4 mm
04:55 AM 43.8°F6.6°C 41.1°F5.1°C 90% 10.0 mph WSW16.1 kmh WSW 12.0 mph19.3 kmh 29.37 in994.6 mb 0.00 in0.0 mm 0.00 in0.0 mm 0.25 in6.4 mm
04:56 AM 43.8°F6.6°C 41.1°F5.1°C 90% 11.0 mph SW17.7 kmh SW 13.0 mph20.9 kmh 29.38 in994.9 mb 0.00 in0.0 mm 0.00 in0.0 mm 0.25 in6.4 mm
04:57 AM 43.7°F6.5°C 41.0°F5.0°C 90% 10.0 mph SW16.1 kmh SW 11.0 mph17.7 kmh 29.37 in994.6 mb 0.00 in0.0 mm 0.00 in0.0 mm 0.25 in6.4 mm
04:58 AM 43.8°F6.6°C 41.1°F5.1°C 90% 10.0 mph WSW16.1 kmh WSW 11.0 mph17.7 kmh 29.37 in994.6 mb 0.00 in0.0 mm 0.00 in0.0 mm 0.25 in6.4 mm
04:59 AM 43.8°F6.6°C 41.1°F5.1°C 90% 10.7 mph WSW17.2 kmh WSW 13.0 mph20.9 kmh 29.37 in994.6 mb 0.00 in0.0 mm 0.00 in0.0 mm 0.25 in6.4 mm
05:00 AM 43.8°F6.6°C 41.1°F5.1°C 90% 11.0 mph WSW17.7 kmh WSW 13.0 mph20.9 kmh 29.37 in994.6 mb 0.00 in0.0 mm 0.00 in0.0 mm 0.25 in6.4 mm
05:01 AM 43.8°F6.6°C 41.1°F5.1°C 90% 11.1 mph WSW17.9 kmh WSW 13.0 mph20.9 kmh 29.37 in994.6 mb 0.00 in0.0 mm 0.00 in0.0 mm 0.25 in6.4 mm
05:02 AM 43.8°F6.6°C 41.1°F5.1°C 90% 10.0 mph WSW16.1 kmh WSW 12.0 mph19.3 kmh 29.37 in994.6 mb 0.00 in0.0 mm 0.00 in0.0 mm 0.25 in6.4 mm
05:03 AM 43.8°F6.6°C 41.1°F5.1°C 90% 11.0 mph WSW17.7 kmh WSW 13.0 mph20.9 kmh 29.37 in994.6 mb 0.00 in0.0 mm 0.00 in0.0 mm 0.25 in6.4 mm
05:04 AM 43.8°F6.6°C 41.1°F5.1°C 90% 12.0 mph WSW19.3 kmh WSW 13.0 mph20.9 kmh 29.37 in994.6 mb 0.00 in0.0 mm 0.00 in0.0 mm 0.25 in6.4 mm
05:05 AM 43.9°F6.6°C 41.2°F5.1°C 90% 10.9 mph WSW17.5 kmh WSW 13.0 mph20.9 kmh 29.37 in994.6 mb 0.00 in0.0 mm 0.00 in0.0 mm 0.25 in6.4 mm
05:06 AM 43.9°F6.6°C 41.2°F5.1°C 90% 11.2 mph WSW18.0 kmh WSW 13.0 mph20.9 kmh 29.38 in994.9 mb 0.00 in0.0 mm 0.00 in0.0 mm 0.25 in6.4 mm
05:07 AM 43.9°F6.6°C 41.2°F5.1°C 90% 11.0 mph WSW17.7 kmh WSW 13.0 mph20.9 kmh 29.38 in994.9 mb 0.00 in0.0 mm 0.00 in0.0 mm 0.25 in6.4 mm
05:08 AM 43.8°F6.6°C 41.1°F5.1°C 90% 10.0 mph SW16.1 kmh SW 12.0 mph19.3 kmh 29.38 in994.9 mb 0.00 in0.0 mm 0.00 in0.0 mm 0.25 in6.4 mm
05:09 AM 43.8°F6.6°C 41.1°F5.1°C 90% 10.2 mph SW16.4 kmh SW 11.0 mph17.7 kmh 29.38 in994.9 mb 0.00 in0.0 mm 0.00 in0.0 mm 0.25 in6.4 mm
05:10 AM 43.8°F6.6°C 41.1°F5.1°C 90% 9.5 mph SW15.3 kmh SW 11.0 mph17.7 kmh 29.38 in994.9 mb 0.00 in0.0 mm 0.00 in0.0 mm 0.25 in6.4 mm
05:11 AM 43.8°F6.6°C 41.1°F5.1°C 90% 10.0 mph SW16.1 kmh SW 11.0 mph17.7 kmh 29.38 in994.9 mb 0.00 in0.0 mm 0.00 in0.0 mm 0.25 in6.4 mm
05:12 AM 43.9°F6.6°C 41.2°F5.1°C 90% 10.0 mph SW16.1 kmh SW 11.0 mph17.7 kmh 29.38 in994.9 mb 0.00 in0.0 mm 0.00 in0.0 mm 0.25 in6.4 mm
05:13 AM 43.9°F6.6°C 41.2°F5.1°C 90% 10.0 mph SW16.1 kmh SW 12.0 mph19.3 kmh 29.38 in994.9 mb 0.00 in0.0 mm 0.00 in0.0 mm 0.25 in6.4 mm
05:14 AM 44.0°F6.7°C 41.3°F5.2°C 90% 8.5 mph SW13.7 kmh SW 12.0 mph19.3 kmh 29.38 in994.9 mb 0.00 in0.0 mm 0.00 in0.0 mm 0.25 in6.4 mm
05:15 AM 44.0°F6.7°C 41.3°F5.2°C 90% 9.0 mph SW14.5 kmh SW 12.0 mph19.3 kmh 29.38 in994.9 mb 0.00 in0.0 mm 0.00 in0.0 mm 0.25 in6.4 mm
05:16 AM 44.1°F6.7°C 41.4°F5.2°C 90% 7.2 mph SW11.6 kmh SW 10.0 mph16.1 kmh 29.38 in994.9 mb 0.00 in0.0 mm 0.00 in0.0 mm 0.25 in6.4 mm
05:17 AM 44.1°F6.7°C 41.4°F5.2°C 90% 6.4 mph SW10.3 kmh SW 9.0 mph14.5 kmh 29.38 in994.9 mb 0.00 in0.0 mm 0.00 in0.0 mm 0.25 in6.4 mm
05:18 AM 44.2°F6.8°C 41.5°F5.3°C 90% 8.4 mph SW13.5 kmh SW 12.0 mph19.3 kmh 29.38 in994.9 mb 0.00 in0.0 mm 0.00 in0.0 mm 0.25 in6.4 mm
05:19 AM 44.2°F6.8°C 41.5°F5.3°C 90% 6.8 mph SW10.9 kmh SW 12.0 mph19.3 kmh 29.38 in994.9 mb 0.00 in0.0 mm 0.00 in0.0 mm 0.25 in6.4 mm
05:20 AM 44.2°F6.8°C 41.5°F5.3°C 90% 7.5 mph SW12.1 kmh SW 11.0 mph17.7 kmh 29.38 in994.9 mb 0.00 in0.0 mm 0.00 in0.0 mm 0.25 in6.4 mm
05:21 AM 44.3°F6.8°C 41.6°F5.3°C 90% 7.5 mph SW12.1 kmh SW 11.0 mph17.7 kmh 29.38 in994.9 mb 0.00 in0.0 mm 0.00 in0.0 mm 0.25 in6.4 mm
05:22 AM 44.3°F6.8°C 41.6°F5.3°C 90% 8.6 mph SW13.8 kmh SW 10.0 mph16.1 kmh 29.38 in994.9 mb 0.00 in0.0 mm 0.00 in0.0 mm 0.25 in6.4 mm
05:23 AM 44.3°F6.8°C 41.6°F5.3°C 90% 6.2 mph SW10.0 kmh SW 10.0 mph16.1 kmh 29.38 in994.9 mb 0.00 in0.0 mm 0.00 in0.0 mm 0.25 in6.4 mm
05:24 AM 44.4°F6.9°C 41.7°F5.4°C 90% 6.8 mph SW10.9 kmh SW 10.0 mph16.1 kmh 29.38 in994.9 mb 0.00 in0.0 mm 0.00 in0.0 mm 0.25 in6.4 mm
05:25 AM 44.3°F6.8°C 41.6°F5.3°C 90% 6.3 mph SW10.1 kmh SW 10.0 mph16.1 kmh 29.38 in994.9 mb 0.00 in0.0 mm 0.00 in0.0 mm 0.25 in6.4 mm
05:26 AM 44.3°F6.8°C 41.6°F5.3°C 90% 6.7 mph SW10.8 kmh SW 9.0 mph14.5 kmh 29.38 in994.9 mb 0.00 in0.0 mm 0.00 in0.0 mm 0.25 in6.4 mm
05:27 AM 44.3°F6.8°C 41.6°F5.3°C 90% 5.9 mph SW9.5 kmh SW 9.0 mph14.5 kmh 29.38 in994.9 mb 0.00 in0.0 mm 0.00 in0.0 mm 0.25 in6.4 mm
05:28 AM 44.2°F6.8°C 41.5°F5.3°C 90% 7.0 mph SW11.3 kmh SW 9.0 mph14.5 kmh 29.38 in994.9 mb 0.00 in0.0 mm 0.00 in0.0 mm 0.25 in6.4 mm
05:29 AM 44.2°F6.8°C 41.5°F5.3°C 90% 7.0 mph SW11.3 kmh SW 9.0 mph14.5 kmh 29.38 in994.9 mb 0.00 in0.0 mm 0.00 in0.0 mm 0.25 in6.4 mm
05:30 AM 44.2°F6.8°C 41.5°F5.3°C 90% 5.2 mph SW8.4 kmh SW 6.0 mph9.7 kmh 29.38 in994.9 mb 0.00 in0.0 mm 0.00 in0.0 mm 0.25 in6.4 mm
05:31 AM 44.2°F6.8°C 41.5°F5.3°C 90% 5.5 mph SW8.9 kmh SW 7.0 mph11.3 kmh 29.38 in994.9 mb 0.00 in0.0 mm 0.00 in0.0 mm 0.25 in6.4 mm
05:32 AM 44.2°F6.8°C 41.5°F5.3°C 90% 5.7 mph SW9.2 kmh SW 7.0 mph11.3 kmh 29.38 in994.9 mb 0.00 in0.0 mm 0.00 in0.0 mm 0.25 in6.4 mm
05:33 AM 44.2°F6.8°C 41.5°F5.3°C 90% 5.6 mph SW9.0 kmh SW 7.0 mph11.3 kmh 29.38 in994.9 mb 0.00 in0.0 mm 0.00 in0.0 mm 0.25 in6.4 mm
05:34 AM 44.2°F6.8°C 41.5°F5.3°C 90% 6.3 mph SW10.1 kmh SW 9.0 mph14.5 kmh 29.38 in994.9 mb 0.00 in0.0 mm 0.00 in0.0 mm 0.25 in6.4 mm
05:35 AM 44.1°F6.7°C 41.4°F5.2°C 90% 6.2 mph SW10.0 kmh SW 9.0 mph14.5 kmh 29.38 in994.9 mb 0.00 in0.0 mm 0.00 in0.0 mm 0.25 in6.4 mm
05:36 AM 44.2°F6.8°C 41.5°F5.3°C 90% 6.5 mph SW10.5 kmh SW 8.0 mph12.9 kmh 29.38 in994.9 mb 0.00 in0.0 mm 0.00 in0.0 mm 0.25 in6.4 mm
05:37 AM 44.2°F6.8°C 41.5°F5.3°C 90% 5.6 mph SW9.0 kmh SW 8.0 mph12.9 kmh 29.38 in994.9 mb 0.00 in0.0 mm 0.00 in0.0 mm 0.25 in6.4 mm
05:38 AM 44.2°F6.8°C 41.5°F5.3°C 90% 6.3 mph SW10.1 kmh SW 8.0 mph12.9 kmh 29.38 in994.9 mb 0.00 in0.0 mm 0.00 in0.0 mm 0.25 in6.4 mm
05:39 AM 44.1°F6.7°C 41.4°F5.2°C 90% 7.2 mph SSW11.6 kmh SSW 9.0 mph14.5 kmh 29.38 in994.9 mb 0.00 in0.0 mm 0.00 in0.0 mm 0.25 in6.4 mm
05:40 AM 44.2°F6.8°C 41.5°F5.3°C 90% 8.2 mph SW13.2 kmh SW 10.0 mph16.1 kmh 29.38 in994.9 mb 0.00 in0.0 mm 0.00 in0.0 mm 0.25 in6.4 mm
05:41 AM 44.1°F6.7°C 41.4°F5.2°C 90% 8.0 mph SSW12.9 kmh SSW 10.0 mph16.1 kmh 29.39 in995.3 mb 0.00 in0.0 mm 0.00 in0.0 mm 0.25 in6.4 mm
05:42 AM 44.2°F6.8°C 41.5°F5.3°C 90% 7.0 mph SSW11.3 kmh SSW 9.0 mph14.5 kmh 29.39 in995.3 mb 0.00 in0.0 mm 0.00 in0.0 mm 0.25 in6.4 mm
05:43 AM 44.1°F6.7°C 41.4°F5.2°C 90% 7.9 mph S12.7 kmh S 11.0 mph17.7 kmh 29.39 in995.3 mb 0.00 in0.0 mm 0.00 in0.0 mm 0.25 in6.4 mm
05:44 AM 44.1°F6.7°C 41.4°F5.2°C 90% 7.6 mph SW12.2 kmh SW 11.0 mph17.7 kmh 29.39 in995.3 mb 0.00 in0.0 mm 0.00 in0.0 mm 0.25 in6.4 mm
05:45 AM 44.0°F6.7°C 41.3°F5.2°C 90% 7.0 mph SSW11.3 kmh SSW 11.0 mph17.7 kmh 29.39 in995.3 mb 0.00 in0.0 mm 0.00 in0.0 mm 0.25 in6.4 mm
05:46 AM 44.0°F6.7°C 41.3°F5.2°C 90% 8.1 mph SSW13.0 kmh SSW 11.0 mph17.7 kmh 29.39 in995.3 mb 0.00 in0.0 mm 0.00 in0.0 mm 0.25 in6.4 mm
05:47 AM 44.0°F6.7°C 41.3°F5.2°C 90% 7.2 mph SW11.6 kmh SW 10.0 mph16.1 kmh 29.39 in995.3 mb 0.00 in0.0 mm 0.00 in0.0 mm 0.25 in6.4 mm
05:48 AM 43.9°F6.6°C 41.2°F5.1°C 90% 8.5 mph SW13.7 kmh SW 12.0 mph19.3 kmh 29.39 in995.3 mb 0.00 in0.0 mm 0.00 in0.0 mm 0.25 in6.4 mm
05:49 AM 43.9°F6.6°C 41.2°F5.1°C 90% 8.2 mph SW13.2 kmh SW 12.0 mph19.3 kmh 29.39 in995.3 mb 0.00 in0.0 mm 0.00 in0.0 mm 0.25 in6.4 mm
05:50 AM 43.9°F6.6°C 41.2°F5.1°C 90% 8.1 mph SW13.0 kmh SW 11.0 mph17.7 kmh 29.39 in995.3 mb 0.00 in0.0 mm 0.00 in0.0 mm 0.25 in6.4 mm
05:51 AM 43.9°F6.6°C 41.2°F5.1°C 90% 11.3 mph SW18.2 kmh SW 14.0 mph22.5 kmh 29.39 in995.3 mb 0.00 in0.0 mm 0.00 in0.0 mm 0.25 in6.4 mm
05:52 AM 43.9°F6.6°C 41.2°F5.1°C 90% 9.3 mph SW15.0 kmh SW 14.0 mph22.5 kmh 29.39 in995.3 mb 0.00 in0.0 mm 0.00 in0.0 mm 0.25 in6.4 mm
05:53 AM 43.9°F6.6°C 41.2°F5.1°C 90% 9.0 mph SW14.5 kmh SW 12.0 mph19.3 kmh 29.39 in995.3 mb 0.00 in0.0 mm 0.00 in0.0 mm 0.25 in6.4 mm
05:54 AM 43.9°F6.6°C 41.2°F5.1°C 90% 9.0 mph SW14.5 kmh SW 14.0 mph22.5 kmh 29.39 in995.3 mb 0.00 in0.0 mm 0.00 in0.0 mm 0.25 in6.4 mm
05:55 AM 43.8°F6.6°C 41.1°F5.1°C 90% 7.2 mph SW11.6 kmh SW 9.0 mph14.5 kmh 29.39 in995.3 mb 0.00 in0.0 mm 0.00 in0.0 mm 0.25 in6.4 mm
05:56 AM 43.8°F6.6°C 41.1°F5.1°C 90% 7.9 mph SW12.7 kmh SW 10.0 mph16.1 kmh 29.39 in995.3 mb 0.00 in0.0 mm 0.00 in0.0 mm 0.25 in6.4 mm
05:57 AM 43.8°F6.6°C 41.1°F5.1°C 90% 6.4 mph SW10.3 kmh SW 10.0 mph16.1 kmh 29.39 in995.3 mb 0.00 in0.0 mm 0.00 in0.0 mm 0.25 in6.4 mm
05:58 AM 43.8°F6.6°C 41.1°F5.1°C 90% 5.3 mph SW8.5 kmh SW 9.0 mph14.5 kmh 29.39 in995.3 mb 0.00 in0.0 mm 0.00 in0.0 mm 0.25 in6.4 mm
05:59 AM 43.8°F6.6°C 41.1°F5.1°C 90% 5.9 mph SW9.5 kmh SW 7.0 mph11.3 kmh 29.39 in995.3 mb 0.00 in0.0 mm 0.00 in0.0 mm 0.25 in6.4 mm
06:00 AM 43.7°F6.5°C 41.0°F5.0°C 90% 5.2 mph SW8.4 kmh SW 7.0 mph11.3 kmh 29.39 in995.3 mb 0.00 in0.0 mm 0.00 in0.0 mm 0.25 in6.4 mm
06:01 AM 43.8°F6.6°C 41.1°F5.1°C 90% 5.8 mph SW9.3 kmh SW 7.0 mph11.3 kmh 29.39 in995.3 mb 0.00 in0.0 mm 0.00 in0.0 mm 0.25 in6.4 mm
06:02 AM 43.7°F6.5°C 41.0°F5.0°C 90% 7.3 mph SSW11.7 kmh SSW 10.0 mph16.1 kmh 29.39 in995.3 mb 0.00 in0.0 mm 0.00 in0.0 mm 0.25 in6.4 mm
06:03 AM 43.7°F6.5°C 41.0°F5.0°C 90% 5.7 mph SW9.2 kmh SW 10.0 mph16.1 kmh 29.39 in995.3 mb 0.00 in0.0 mm 0.00 in0.0 mm 0.25 in6.4 mm
06:04 AM 43.6°F6.4°C 40.9°F4.9°C 90% 6.5 mph SW10.5 kmh SW 9.0 mph14.5 kmh 29.39 in995.3 mb 0.00 in0.0 mm 0.00 in0.0 mm 0.25 in6.4 mm
06:05 AM 43.6°F6.4°C 40.9°F4.9°C 90% 7.7 mph SSW12.4 kmh SSW 10.0 mph16.1 kmh 29.39 in995.3 mb 0.00 in0.0 mm 0.00 in0.0 mm 0.25 in6.4 mm
06:06 AM 43.6°F6.4°C 40.9°F4.9°C 90% 7.1 mph SW11.4 kmh SW 10.0 mph16.1 kmh 29.39 in995.3 mb 0.00 in0.0 mm 0.00 in0.0 mm 0.25 in6.4 mm
06:07 AM 43.6°F6.4°C 40.9°F4.9°C 90% 5.5 mph SSW8.9 kmh SSW 9.0 mph14.5 kmh 29.39 in995.3 mb 0.00 in0.0 mm 0.00 in0.0 mm 0.25 in6.4 mm
06:08 AM 43.6°F6.4°C 40.9°F4.9°C 90% 7.6 mph SW12.2 kmh SW 10.0 mph16.1 kmh 29.39 in995.3 mb 0.00 in0.0 mm 0.00 in0.0 mm 0.25 in6.4 mm
06:09 AM 43.6°F6.4°C 40.9°F4.9°C 90% 7.5 mph SSW12.1 kmh SSW 10.0 mph16.1 kmh 29.39 in995.3 mb 0.00 in0.0 mm 0.00 in0.0 mm 0.25 in6.4 mm
06:10 AM 43.6°F6.4°C 40.9°F4.9°C 90% 5.5 mph SSW8.9 kmh SSW 9.0 mph14.5 kmh 29.39 in995.3 mb 0.00 in0.0 mm 0.00 in0.0 mm 0.25 in6.4 mm
06:11 AM 43.6°F6.4°C 40.9°F4.9°C 90% 5.9 mph SSW9.5 kmh SSW 7.0 mph11.3 kmh 29.39 in995.3 mb 0.00 in0.0 mm 0.00 in0.0 mm 0.25 in6.4 mm
06:12 AM 43.6°F6.4°C 40.9°F4.9°C 90% 6.0 mph SSW9.7 kmh SSW 8.0 mph12.9 kmh 29.39 in995.3 mb 0.00 in0.0 mm 0.00 in0.0 mm 0.25 in6.4 mm
06:13 AM 43.5°F6.4°C 40.8°F4.9°C 90% 6.1 mph SSW9.8 kmh SSW 8.0 mph12.9 kmh 29.39 in995.3 mb 0.00 in0.0 mm 0.00 in0.0 mm 0.25 in6.4 mm
06:14 AM 43.4°F6.3°C 40.7°F4.8°C 90% 6.7 mph SW10.8 kmh SW 9.0 mph14.5 kmh 29.39 in995.3 mb 0.00 in0.0 mm 0.00 in0.0 mm 0.25 in6.4 mm
06:15 AM 43.4°F6.3°C 40.7°F4.8°C 90% 8.3 mph SSW13.4 kmh SSW 10.0 mph16.1 kmh 29.39 in995.3 mb 0.00 in0.0 mm 0.00 in0.0 mm 0.25 in6.4 mm
06:16 AM 43.4°F6.3°C 40.7°F4.8°C 90% 6.7 mph SSW10.8 kmh SSW 10.0 mph16.1 kmh 29.39 in995.3 mb 0.00 in0.0 mm 0.00 in0.0 mm 0.25 in6.4 mm
06:17 AM 43.5°F6.4°C 40.8°F4.9°C 90% 7.4 mph SSW11.9 kmh SSW 10.0 mph16.1 kmh 29.39 in995.3 mb 0.00 in0.0 mm 0.00 in0.0 mm 0.25 in6.4 mm
06:18 AM 43.5°F6.4°C 40.8°F4.9°C 90% 7.0 mph SSW11.3 kmh SSW 10.0 mph16.1 kmh 29.39 in995.3 mb 0.00 in0.0 mm 0.00 in0.0 mm 0.25 in6.4 mm
06:19 AM 43.4°F6.3°C 40.7°F4.8°C 90% 5.0 mph SSW8.0 kmh SSW 7.0 mph11.3 kmh 29.39 in995.3 mb 0.00 in0.0 mm 0.00 in0.0 mm 0.25 in6.4 mm
06:20 AM 43.5°F6.4°C 40.8°F4.9°C 90% 6.4 mph SSW10.3 kmh SSW 7.0 mph11.3 kmh 29.39 in995.3 mb 0.00 in0.0 mm 0.00 in0.0 mm 0.25 in6.4 mm
06:21 AM 43.4°F6.3°C 40.7°F4.8°C 90% 5.9 mph SSW9.5 kmh SSW 8.0 mph12.9 kmh 29.39 in995.3 mb 0.00 in0.0 mm 0.00 in0.0 mm 0.25 in6.4 mm
06:22 AM 43.4°F6.3°C 40.7°F4.8°C 90% 6.9 mph SSW11.1 kmh SSW 10.0 mph16.1 kmh 29.39 in995.3 mb 0.00 in0.0 mm 0.00 in0.0 mm 0.25 in6.4 mm
06:23 AM 43.4°F6.3°C 40.7°F4.8°C 90% 6.6 mph SSW10.6 kmh SSW 10.0 mph16.1 kmh 29.39 in995.3 mb 0.00 in0.0 mm 0.00 in0.0 mm 0.25 in6.4 mm
06:24 AM 43.4°F6.3°C 40.7°F4.8°C 90% 5.8 mph SSW9.3 kmh SSW 9.0 mph14.5 kmh 29.39 in995.3 mb 0.00 in0.0 mm 0.00 in0.0 mm 0.25 in6.4 mm
06:25 AM 43.4°F6.3°C 40.7°F4.8°C 90% 5.5 mph SSW8.9 kmh SSW 8.0 mph12.9 kmh 29.39 in995.3 mb 0.00 in0.0 mm 0.00 in0.0 mm 0.25 in6.4 mm
06:26 AM 43.4°F6.3°C 40.7°F4.8°C 90% 5.2 mph S8.4 kmh S 8.0 mph12.9 kmh 29.39 in995.3 mb 0.00 in0.0 mm 0.00 in0.0 mm 0.25 in6.4 mm
06:27 AM 43.4°F6.3°C 40.7°F4.8°C 90% 6.2 mph SSW10.0 kmh SSW 9.0 mph14.5 kmh 29.39 in995.3 mb 0.00 in0.0 mm 0.00 in0.0 mm 0.25 in6.4 mm
06:28 AM 43.4°F6.3°C 40.7°F4.8°C 90% 6.0 mph SSW9.7 kmh SSW 8.0 mph12.9 kmh 29.39 in995.3 mb 0.00 in0.0 mm 0.00 in0.0 mm 0.25 in6.4 mm
06:29 AM 43.3°F6.3°C 40.6°F4.8°C 90% 5.0 mph S8.0 kmh S 7.0 mph11.3 kmh 29.39 in995.3 mb 0.00 in0.0 mm 0.00 in0.0 mm 0.25 in6.4 mm
06:30 AM 43.4°F6.3°C 40.7°F4.8°C 90% 6.0 mph SSW9.7 kmh SSW 9.0 mph14.5 kmh 29.39 in995.3 mb 0.00 in0.0 mm 0.00 in0.0 mm 0.25 in6.4 mm
06:31 AM 43.4°F6.3°C 40.7°F4.8°C 90% 4.4 mph SSW7.1 kmh SSW 6.0 mph9.7 kmh 29.39 in995.3 mb 0.00 in0.0 mm 0.00 in0.0 mm 0.25 in6.4 mm
06:32 AM 43.4°F6.3°C 40.7°F4.8°C 90% 5.4 mph SSW8.7 kmh SSW 8.0 mph12.9 kmh 29.39 in995.3 mb 0.00 in0.0 mm 0.00 in0.0 mm 0.25 in6.4 mm
06:33 AM 43.4°F6.3°C 40.7°F4.8°C 90% 5.9 mph S9.5 kmh S 10.0 mph16.1 kmh 29.39 in995.3 mb 0.00 in0.0 mm 0.00 in0.0 mm 0.25 in6.4 mm
06:34 AM 43.4°F6.3°C 40.7°F4.8°C 90% 5.8 mph S9.3 kmh S 10.0 mph16.1 kmh 29.39 in995.3 mb 0.00 in0.0 mm 0.00 in0.0 mm 0.25 in6.4 mm
06:35 AM 43.4°F6.3°C 40.7°F4.8°C 90% 5.9 mph S9.5 kmh S 7.0 mph11.3 kmh 29.39 in995.3 mb 0.00 in0.0 mm 0.00 in0.0 mm 0.25 in6.4 mm
06:36 AM 43.4°F6.3°C 40.7°F4.8°C 90% 6.1 mph S9.8 kmh S 8.0 mph12.9 kmh 29.39 in995.3 mb 0.00 in0.0 mm 0.00 in0.0 mm 0.25 in6.4 mm
06:37 AM 43.4°F6.3°C 40.7°F4.8°C 90% 5.0 mph S8.0 kmh S 8.0 mph12.9 kmh 29.39 in995.3 mb 0.00 in0.0 mm 0.00 in0.0 mm 0.25 in6.4 mm
06:38 AM 43.4°F6.3°C 40.7°F4.8°C 90% 4.0 mph SSW6.4 kmh SSW 7.0 mph11.3 kmh 29.39 in995.3 mb 0.00 in0.0 mm 0.00 in0.0 mm 0.25 in6.4 mm
06:39 AM 43.3°F6.3°C 40.6°F4.8°C 90% 6.0 mph S9.7 kmh S 9.0 mph14.5 kmh 29.39 in995.3 mb 0.00 in0.0 mm 0.00 in0.0 mm 0.25 in6.4 mm
06:40 AM 43.4°F6.3°C 40.7°F4.8°C 90% 5.0 mph S8.0 kmh S 8.0 mph12.9 kmh 29.39 in995.3 mb 0.00 in0.0 mm 0.00 in0.0 mm 0.25 in6.4 mm
06:41 AM 43.4°F6.3°C 41.0°F5.0°C 91% 4.0 mph S6.4 kmh S 6.0 mph9.7 kmh 29.39 in995.3 mb 0.00 in0.0 mm 0.00 in0.0 mm 0.25 in6.4 mm
06:42 AM 43.4°F6.3°C 41.0°F5.0°C 91% 3.1 mph SSW5.0 kmh SSW 4.0 mph6.4 kmh 29.39 in995.3 mb 0.00 in0.0 mm 0.00 in0.0 mm 0.25 in6.4 mm
06:43 AM 43.4°F6.3°C 41.0°F5.0°C 91% 4.5 mph S7.2 kmh S 7.0 mph11.3 kmh 29.39 in995.3 mb 0.00 in0.0 mm 0.00 in0.0 mm 0.25 in6.4 mm
06:44 AM 43.3°F6.3°C 40.9°F4.9°C 91% 3.6 mph SSW5.8 kmh SSW 7.0 mph11.3 kmh 29.39 in995.3 mb 0.00 in0.0 mm 0.00 in0.0 mm 0.25 in6.4 mm
06:45 AM 43.3°F6.3°C 40.9°F4.9°C 91% 4.3 mph S6.9 kmh S 6.0 mph9.7 kmh 29.39 in995.3 mb 0.00 in0.0 mm 0.00 in0.0 mm 0.25 in6.4 mm
06:46 AM 43.3°F6.3°C 40.9°F4.9°C 91% 4.4 mph S7.1 kmh S 6.0 mph9.7 kmh 29.39 in995.3 mb 0.00 in0.0 mm 0.00 in0.0 mm 0.25 in6.4 mm
06:47 AM 43.3°F6.3°C 40.9°F4.9°C 91% 4.4 mph S7.1 kmh S 6.0 mph9.7 kmh 29.39 in995.3 mb 0.00 in0.0 mm 0.00 in0.0 mm 0.25 in6.4 mm
06:48 AM 43.4°F6.3°C 41.0°F5.0°C 91% 6.1 mph S9.8 kmh S 8.0 mph12.9 kmh 29.39 in995.3 mb 0.00 in0.0 mm 0.00 in0.0 mm 0.25 in6.4 mm
06:49 AM 43.4°F6.3°C 41.0°F5.0°C 91% 4.9 mph S7.9 kmh S 8.0 mph12.9 kmh 29.39 in995.3 mb 0.00 in0.0 mm 0.00 in0.0 mm 0.25 in6.4 mm
06:50 AM 43.3°F6.3°C 40.9°F4.9°C 91% 5.6 mph S9.0 kmh S 8.0 mph12.9 kmh 29.39 in995.3 mb 0.00 in0.0 mm 0.00 in0.0 mm 0.25 in6.4 mm
06:51 AM 43.3°F6.3°C 40.9°F4.9°C 91% 5.0 mph SSW8.0 kmh SSW 6.0 mph9.7 kmh 29.39 in995.3 mb 0.00 in0.0 mm 0.00 in0.0 mm 0.25 in6.4 mm
06:52 AM 43.3°F6.3°C 40.9°F4.9°C 91% 5.0 mph SSW8.0 kmh SSW 6.0 mph9.7 kmh 29.39 in995.3 mb 0.00 in0.0 mm 0.00 in0.0 mm 0.25 in6.4 mm
06:53 AM 43.3°F6.3°C 40.9°F4.9°C 91% 4.6 mph S7.4 kmh S 6.0 mph9.7 kmh 29.39 in995.3 mb 0.00 in0.0 mm 0.00 in0.0 mm 0.25 in6.4 mm
06:54 AM 43.3°F6.3°C 40.9°F4.9°C 91% 4.7 mph SSW7.6 kmh SSW 6.0 mph9.7 kmh 29.39 in995.3 mb 0.00 in0.0 mm 0.00 in0.0 mm 0.25 in6.4 mm
06:55 AM 43.3°F6.3°C 40.9°F4.9°C 91% 4.9 mph SSW7.9 kmh SSW 7.0 mph11.3 kmh 29.39 in995.3 mb 0.00 in0.0 mm 0.00 in0.0 mm 0.25 in6.4 mm
06:56 AM 43.4°F6.3°C 41.0°F5.0°C 91% 4.8 mph SSW7.7 kmh SSW 7.0 mph11.3 kmh 29.39 in995.3 mb 0.00 in0.0 mm 0.00 in0.0 mm 0.25 in6.4 mm
06:57 AM 43.4°F6.3°C 41.0°F5.0°C 91% 3.8 mph SSW6.1 kmh SSW 7.0 mph11.3 kmh 29.39 in995.3 mb 0.00 in0.0 mm 0.00 in0.0 mm 0.25 in6.4 mm
06:58 AM 43.3°F6.3°C 40.9°F4.9°C 91% 4.2 mph SSW6.8 kmh SSW 6.0 mph9.7 kmh 29.39 in995.3 mb 0.00 in0.0 mm 0.00 in0.0 mm 0.25 in6.4 mm
06:59 AM 43.4°F6.3°C 41.0°F5.0°C 91% 4.0 mph SSW6.4 kmh SSW 6.0 mph9.7 kmh 29.39 in995.3 mb 0.00 in0.0 mm 0.00 in0.0 mm 0.25 in6.4 mm
07:00 AM 43.4°F6.3°C 41.0°F5.0°C 91% 4.0 mph SSW6.4 kmh SSW 6.0 mph9.7 kmh 29.39 in995.3 mb 0.00 in0.0 mm 0.00 in0.0 mm 0.25 in6.4 mm
07:01 AM 43.4°F6.3°C 41.0°F5.0°C 91% 2.6 mph SW4.2 kmh SW 3.0 mph4.8 kmh 29.39 in995.3 mb 0.00 in0.0 mm 0.00 in0.0 mm 0.25 in6.4 mm
07:02 AM 43.4°F6.3°C 41.0°F5.0°C 91% 5.0 mph SW8.0 kmh SW 8.0 mph12.9 kmh 29.39 in995.3 mb 0.00 in0.0 mm 0.00 in0.0 mm 0.25 in6.4 mm
07:03 AM 43.4°F6.3°C 41.0°F5.0°C 91% 4.6 mph SW7.4 kmh SW 8.0 mph12.9 kmh 29.39 in995.3 mb 0.00 in0.0 mm 0.00 in0.0 mm 0.25 in6.4 mm
07:04 AM 43.4°F6.3°C 41.0°F5.0°C 91% 4.1 mph SSW6.6 kmh SSW 6.0 mph9.7 kmh 29.39 in995.3 mb 0.00 in0.0 mm 0.00 in0.0 mm 0.25 in6.4 mm
07:05 AM 43.4°F6.3°C 41.0°F5.0°C 91% 4.3 mph SSW6.9 kmh SSW 6.0 mph9.7 kmh 29.39 in995.3 mb 0.00 in0.0 mm 0.00 in0.0 mm 0.25 in6.4 mm
07:06 AM 43.4°F6.3°C 41.0°F5.0°C 91% 5.0 mph SSW8.0 kmh SSW 8.0 mph12.9 kmh 29.39 in995.3 mb 0.00 in0.0 mm 0.00 in0.0 mm 0.25 in6.4 mm
07:07 AM 43.4°F6.3°C 40.7°F4.8°C 90% 6.0 mph SSW9.7 kmh SSW 8.0 mph12.9 kmh 29.39 in995.3 mb 0.00 in0.0 mm 0.00 in0.0 mm 0.25 in6.4 mm
07:08 AM 43.4°F6.3°C 41.0°F5.0°C 91% 5.0 mph SW8.0 kmh SW 5.0 mph8.0 kmh 29.39 in995.3 mb 0.00 in0.0 mm 0.00 in0.0 mm 0.25 in6.4 mm
07:09 AM 43.5°F6.4°C 41.0°F5.0°C 91% 5.0 mph SW8.0 kmh SW 6.0 mph9.7 kmh 29.39 in995.3 mb 0.00 in0.0 mm 0.00 in0.0 mm 0.25 in6.4 mm
07:10 AM 43.5°F6.4°C 40.8°F4.9°C 90% 5.0 mph SSW8.0 kmh SSW 8.0 mph12.9 kmh 29.39 in995.3 mb 0.00 in0.0 mm 0.00 in0.0 mm 0.25 in6.4 mm
07:11 AM 43.5°F6.4°C 40.8°F4.9°C 90% 4.4 mph SW7.1 kmh SW 5.0 mph8.0 kmh 29.39 in995.3 mb 0.00 in0.0 mm 0.00 in0.0 mm 0.25 in6.4 mm
07:12 AM 43.6°F6.4°C 40.9°F4.9°C 90% 6.0 mph SW9.7 kmh SW 8.0 mph12.9 kmh 29.39 in995.3 mb 0.00 in0.0 mm 0.00 in0.0 mm 0.25 in6.4 mm
07:13 AM 43.6°F6.4°C 40.9°F4.9°C 90% 6.4 mph SSW10.3 kmh SSW 8.0 mph12.9 kmh 29.39 in995.3 mb 0.00 in0.0 mm 0.00 in0.0 mm 0.25 in6.4 mm
07:14 AM 43.6°F6.4°C 40.9°F4.9°C 90% 7.1 mph SW11.4 kmh SW 9.0 mph14.5 kmh 29.39 in995.3 mb 0.00 in0.0 mm 0.00 in0.0 mm 0.25 in6.4 mm
07:15 AM 43.6°F6.4°C 40.9°F4.9°C 90% 6.5 mph SW10.5 kmh SW 9.0 mph14.5 kmh 29.39 in995.3 mb 0.00 in0.0 mm 0.00 in0.0 mm 0.25 in6.4 mm
07:16 AM 43.7°F6.5°C 41.0°F5.0°C 90% 5.8 mph SW9.3 kmh SW 8.0 mph12.9 kmh 29.39 in995.3 mb 0.00 in0.0 mm 0.00 in0.0 mm 0.25 in6.4 mm
07:17 AM 43.7°F6.5°C 41.0°F5.0°C 90% 5.7 mph SW9.2 kmh SW 8.0 mph12.9 kmh 29.39 in995.3 mb 0.00 in0.0 mm 0.00 in0.0 mm 0.25 in6.4 mm
07:18 AM 43.8°F6.6°C 41.1°F5.1°C 90% 5.0 mph SSW8.0 kmh SSW 7.0 mph11.3 kmh 29.39 in995.3 mb 0.00 in0.0 mm 0.00 in0.0 mm 0.25 in6.4 mm
07:19 AM 43.8°F6.6°C 41.1°F5.1°C 90% 6.7 mph SW10.8 kmh SW 9.0 mph14.5 kmh 29.39 in995.3 mb 0.00 in0.0 mm 0.00 in0.0 mm 0.25 in6.4 mm
07:20 AM 43.9°F6.6°C 41.2°F5.1°C 90% 6.1 mph SSW9.8 kmh SSW 9.0 mph14.5 kmh 29.39 in995.3 mb 0.00 in0.0 mm 0.00 in0.0 mm 0.25 in6.4 mm
07:21 AM 43.9°F6.6°C 41.2°F5.1°C 90% 5.3 mph SW8.5 kmh SW 8.0 mph12.9 kmh 29.39 in995.3 mb 0.00 in0.0 mm 0.00 in0.0 mm 0.25 in6.4 mm
07:22 AM 43.9°F6.6°C 41.2°F5.1°C 90% 6.2 mph SW10.0 kmh SW 8.0 mph12.9 kmh 29.39 in995.3 mb 0.00 in0.0 mm 0.00 in0.0 mm 0.25 in6.4 mm
07:23 AM 43.9°F6.6°C 41.2°F5.1°C 90% 5.5 mph SW8.9 kmh SW 8.0 mph12.9 kmh 29.39 in995.3 mb 0.00 in0.0 mm 0.00 in0.0 mm 0.25 in6.4 mm
07:24 AM 43.9°F6.6°C 41.2°F5.1°C 90% 5.9 mph SSW9.5 kmh SSW 7.0 mph11.3 kmh 29.39 in995.3 mb 0.00 in0.0 mm 0.00 in0.0 mm 0.25 in6.4 mm
07:25 AM 43.9°F6.6°C 41.2°F5.1°C 90% 5.2 mph SSW8.4 kmh SSW 7.0 mph11.3 kmh 29.39 in995.3 mb 0.00 in0.0 mm 0.00 in0.0 mm 0.25 in6.4 mm
07:26 AM 43.9°F6.6°C 41.2°F5.1°C 90% 5.1 mph SSW8.2 kmh SSW 8.0 mph12.9 kmh 29.39 in995.3 mb 0.00 in0.0 mm 0.00 in0.0 mm 0.25 in6.4 mm
07:27 AM 44.0°F6.7°C 41.3°F5.2°C 90% 4.6 mph SSW7.4 kmh SSW 8.0 mph12.9 kmh 29.39 in995.3 mb 0.00 in0.0 mm 0.00 in0.0 mm 0.25 in6.4 mm
07:28 AM 44.0°F6.7°C 41.3°F5.2°C 90% 4.4 mph S7.1 kmh S 7.0 mph11.3 kmh 29.40 in995.6 mb 0.00 in0.0 mm 0.00 in0.0 mm 0.25 in6.4 mm
07:29 AM 44.0°F6.7°C 41.3°F5.2°C 90% 5.0 mph SSW8.0 kmh SSW 6.0 mph9.7 kmh 29.39 in995.3 mb 0.00 in0.0 mm 0.00 in0.0 mm 0.25 in6.4 mm
07:30 AM 44.0°F6.7°C 41.3°F5.2°C 90% 5.0 mph SSW8.0 kmh SSW 6.0 mph9.7 kmh 29.40 in995.6 mb 0.00 in0.0 mm 0.00 in0.0 mm 0.25 in6.4 mm
07:31 AM 44.1°F6.7°C 41.4°F5.2°C 90% 6.8 mph S10.9 kmh S 9.0 mph14.5 kmh 29.40 in995.6 mb 0.00 in0.0 mm 0.00 in0.0 mm 0.25 in6.4 mm
07:32 AM 44.1°F6.7°C 41.4°F5.2°C 90% 7.4 mph SSW11.9 kmh SSW 9.0 mph14.5 kmh 29.40 in995.6 mb 0.00 in0.0 mm 0.00 in0.0 mm 0.25 in6.4 mm
07:33 AM 44.1°F6.7°C 41.4°F5.2°C 90% 7.5 mph SSW12.1 kmh SSW 9.0 mph14.5 kmh 29.40 in995.6 mb 0.00 in0.0 mm 0.00 in0.0 mm 0.25 in6.4 mm
07:34 AM 44.1°F6.7°C 41.4°F5.2°C 90% 6.8 mph S10.9 kmh S 11.0 mph17.7 kmh 29.40 in995.6 mb 0.00 in0.0 mm 0.00 in0.0 mm 0.25 in6.4 mm
07:35 AM 44.2°F6.8°C 41.5°F5.3°C 90% 6.8 mph SSW10.9 kmh SSW 11.0 mph17.7 kmh 29.40 in995.6 mb 0.00 in0.0 mm 0.00 in0.0 mm 0.25 in6.4 mm
07:36 AM 44.1°F6.7°C 41.4°F5.2°C 90% 7.9 mph SSW12.7 kmh SSW 12.0 mph19.3 kmh 29.40 in995.6 mb 0.00 in0.0 mm 0.00 in0.0 mm 0.25 in6.4 mm
07:37 AM 44.2°F6.8°C 41.2°F5.1°C 89% 7.8 mph SSW12.6 kmh SSW 12.0 mph19.3 kmh 29.40 in995.6 mb 0.00 in0.0 mm 0.00 in0.0 mm 0.25 in6.4 mm
07:38 AM 44.2°F6.8°C 41.2°F5.1°C 89% 7.6 mph SW12.2 kmh SW 10.0 mph16.1 kmh 29.40 in995.6 mb 0.00 in0.0 mm 0.00 in0.0 mm 0.25 in6.4 mm
07:39 AM 44.2°F6.8°C 41.2°F5.1°C 89% 8.5 mph SSW13.7 kmh SSW 11.0 mph17.7 kmh 29.40 in995.6 mb 0.00 in0.0 mm 0.00 in0.0 mm 0.25 in6.4 mm
07:40 AM 44.2°F6.8°C 41.2°F5.1°C 89% 7.8 mph SSW12.6 kmh SSW 11.0 mph17.7 kmh 29.40 in995.6 mb 0.00 in0.0 mm 0.00 in0.0 mm 0.25 in6.4 mm
07:41 AM 44.3°F6.8°C 41.3°F5.2°C 89% 5.4 mph SSW8.7 kmh SSW 11.0 mph17.7 kmh 29.40 in995.6 mb 0.00 in0.0 mm 0.00 in0.0 mm 0.25 in6.4 mm
07:42 AM 44.3°F6.8°C 41.3°F5.2°C 89% 7.4 mph SSW11.9 kmh SSW 12.0 mph19.3 kmh 29.40 in995.6 mb 0.00 in0.0 mm 0.00 in0.0 mm 0.25 in6.4 mm
07:43 AM 44.3°F6.8°C 41.3°F5.2°C 89% 7.6 mph SSW12.2 kmh SSW 12.0 mph19.3 kmh 29.40 in995.6 mb 0.00 in0.0 mm 0.00 in0.0 mm 0.25 in6.4 mm
07:44 AM 44.3°F6.8°C 41.3°F5.2°C 89% 6.6 mph SSW10.6 kmh SSW 10.0 mph16.1 kmh 29.40 in995.6 mb 0.00 in0.0 mm 0.00 in0.0 mm 0.25 in6.4 mm
07:45 AM 44.3°F6.8°C 41.3°F5.2°C 89% 6.4 mph SSW10.3 kmh SSW 10.0 mph16.1 kmh 29.40 in995.6 mb 0.00 in0.0 mm 0.00 in0.0 mm 0.25 in6.4 mm
07:46 AM 44.3°F6.8°C 41.3°F5.2°C 89% 5.3 mph S8.5 kmh S 10.0 mph16.1 kmh 29.40 in995.6 mb 0.00 in0.0 mm 0.00 in0.0 mm 0.25 in6.4 mm
07:47 AM 44.4°F6.9°C 41.4°F5.2°C 89% 6.0 mph SSW9.7 kmh SSW 8.0 mph12.9 kmh 29.40 in995.6 mb 0.00 in0.0 mm 0.00 in0.0 mm 0.25 in6.4 mm
07:48 AM 44.4°F6.9°C 41.4°F5.2°C 89% 5.3 mph SSW8.5 kmh SSW 8.0 mph12.9 kmh 29.40 in995.6 mb 0.00 in0.0 mm 0.00 in0.0 mm 0.25 in6.4 mm
07:49 AM 44.4°F6.9°C 41.4°F5.2°C 89% 6.4 mph SSW10.3 kmh SSW 8.0 mph12.9 kmh 29.40 in995.6 mb 0.00 in0.0 mm 0.00 in0.0 mm 0.25 in6.4 mm
07:50 AM 44.4°F6.9°C 41.4°F5.2°C 89% 5.7 mph SSW9.2 kmh SSW 8.0 mph12.9 kmh 29.40 in995.6 mb 0.00 in0.0 mm 0.00 in0.0 mm 0.25 in6.4 mm
07:51 AM 44.4°F6.9°C 41.4°F5.2°C 89% 5.3 mph S8.5 kmh S 9.0 mph14.5 kmh 29.40 in995.6 mb 0.00 in0.0 mm 0.00 in0.0 mm 0.25 in6.4 mm
07:52 AM 44.4°F6.9°C 41.4°F5.2°C 89% 8.7 mph SSW14.0 kmh SSW 10.0 mph16.1 kmh 29.40 in995.6 mb 0.00 in0.0 mm 0.00 in0.0 mm 0.25 in6.4 mm
07:53 AM 44.4°F6.9°C 41.4°F5.2°C 89% 5.6 mph SSW9.0 kmh SSW 10.0 mph16.1 kmh 29.40 in995.6 mb 0.00 in0.0 mm 0.00 in0.0 mm 0.25 in6.4 mm
07:54 AM 44.5°F6.9°C 41.5°F5.3°C 89% 8.2 mph SSW13.2 kmh SSW 10.0 mph16.1 kmh 29.40 in995.6 mb 0.00 in0.0 mm 0.00 in0.0 mm 0.25 in6.4 mm
07:55 AM 44.5°F6.9°C 41.5°F5.3°C 89% 6.7 mph SSW10.8 kmh SSW 10.0 mph16.1 kmh 29.40 in995.6 mb 0.00 in0.0 mm 0.00 in0.0 mm 0.25 in6.4 mm
07:56 AM 44.5°F6.9°C 41.5°F5.3°C 89% 6.6 mph S10.6 kmh S 9.0 mph14.5 kmh 29.40 in995.6 mb 0.00 in0.0 mm 0.00 in0.0 mm 0.25 in6.4 mm
07:57 AM 44.5°F6.9°C 41.5°F5.3°C 89% 6.1 mph SW9.8 kmh SW 9.0 mph14.5 kmh 29.40 in995.6 mb 0.00 in0.0 mm 0.00 in0.0 mm 0.25 in6.4 mm
07:58 AM 44.5°F6.9°C 41.5°F5.3°C 89% 8.2 mph SSW13.2 kmh SSW 10.0 mph16.1 kmh 29.40 in995.6 mb 0.00 in0.0 mm 0.00 in0.0 mm 0.25 in6.4 mm
07:59 AM 44.5°F6.9°C 41.5°F5.3°C 89% 8.5 mph SSW13.7 kmh SSW 12.0 mph19.3 kmh 29.40 in995.6 mb 0.00 in0.0 mm 0.00 in0.0 mm 0.25 in6.4 mm
08:00 AM 44.6°F7.0°C 41.6°F5.3°C 89% 7.7 mph SSW12.4 kmh SSW 12.0 mph19.3 kmh 29.40 in995.6 mb 0.00 in0.0 mm 0.00 in0.0 mm 0.25 in6.4 mm
08:01 AM 44.6°F7.0°C 41.6°F5.3°C 89% 6.3 mph SSW10.1 kmh SSW 10.0 mph16.1 kmh 29.40 in995.6 mb 0.00 in0.0 mm 0.00 in0.0 mm 0.25 in6.4 mm
08:02 AM 44.6°F7.0°C 41.6°F5.3°C 89% 5.6 mph SSW9.0 kmh SSW 8.0 mph12.9 kmh 29.40 in995.6 mb 0.00 in0.0 mm 0.00 in0.0 mm 0.25 in6.4 mm
08:03 AM 44.6°F7.0°C 41.6°F5.3°C 89% 6.4 mph SSW10.3 kmh SSW 10.0 mph16.1 kmh 29.40 in995.6 mb 0.00 in0.0 mm 0.00 in0.0 mm 0.25 in6.4 mm
08:04 AM 44.7°F7.1°C 41.7°F5.4°C 89% 6.3 mph SSW10.1 kmh SSW 10.0 mph16.1 kmh 29.40 in995.6 mb 0.00 in0.0 mm 0.00 in0.0 mm 0.25 in6.4 mm
08:05 AM 44.7°F7.1°C 41.7°F5.4°C 89% 7.0 mph SSW11.3 kmh SSW 9.0 mph14.5 kmh 29.40 in995.6 mb 0.00 in0.0 mm 0.00 in0.0 mm 0.25 in6.4 mm
08:06 AM 44.7°F7.1°C 41.7°F5.4°C 89% 7.0 mph SW11.3 kmh SW 9.0 mph14.5 kmh 29.40 in995.6 mb 0.00 in0.0 mm 0.00 in0.0 mm 0.25 in6.4 mm
08:07 AM 44.7°F7.1°C 41.7°F5.4°C 89% 5.0 mph SSW8.0 kmh SSW 7.0 mph11.3 kmh 29.40 in995.6 mb 0.00 in0.0 mm 0.00 in0.0 mm 0.25 in6.4 mm
08:08 AM 44.7°F7.1°C 41.7°F5.4°C 89% 6.0 mph SSW9.7 kmh SSW 7.0 mph11.3 kmh 29.40 in995.6 mb 0.00 in0.0 mm 0.00 in0.0 mm 0.25 in6.4 mm
08:09 AM 44.8°F7.1°C 41.8°F5.4°C 89% 4.7 mph S7.6 kmh S 6.0 mph9.7 kmh 29.40 in995.6 mb 0.00 in0.0 mm 0.00 in0.0 mm 0.25 in6.4 mm
08:10 AM 44.7°F7.1°C 41.7°F5.4°C 89% 5.4 mph SSW8.7 kmh SSW 8.0 mph12.9 kmh 29.40 in995.6 mb 0.00 in0.0 mm 0.00 in0.0 mm 0.25 in6.4 mm
08:11 AM 44.8°F7.1°C 41.8°F5.4°C 89% 6.4 mph SSW10.3 kmh SSW 9.0 mph14.5 kmh 29.40 in995.6 mb 0.00 in0.0 mm 0.00 in0.0 mm 0.25 in6.4 mm
08:12 AM 44.8°F7.1°C 41.8°F5.4°C 89% 6.0 mph SSW9.7 kmh SSW 9.0 mph14.5 kmh 29.40 in995.6 mb 0.00 in0.0 mm 0.00 in0.0 mm 0.25 in6.4 mm
08:13 AM 44.8°F7.1°C 41.8°F5.4°C 89% 8.1 mph SSW13.0 kmh SSW 9.0 mph14.5 kmh 29.40 in995.6 mb 0.00 in0.0 mm 0.00 in0.0 mm 0.25 in6.4 mm
08:14 AM 44.8°F7.1°C 41.8°F5.4°C 89% 6.0 mph SSW9.7 kmh SSW 8.0 mph12.9 kmh 29.40 in995.6 mb 0.00 in0.0 mm 0.00 in0.0 mm 0.25 in6.4 mm
08:15 AM 44.8°F7.1°C 41.8°F5.4°C 89% 7.0 mph SSW11.3 kmh SSW 9.0 mph14.5 kmh 29.40 in995.6 mb 0.00 in0.0 mm 0.00 in0.0 mm 0.25 in6.4 mm
08:16 AM 44.8°F7.1°C 41.8°F5.4°C 89% 5.1 mph SSW8.2 kmh SSW 6.0 mph9.7 kmh 29.40 in995.6 mb 0.00 in0.0 mm 0.00 in0.0 mm 0.25 in6.4 mm
08:17 AM 44.8°F7.1°C 41.8°F5.4°C 89% 6.1 mph SSW9.8 kmh SSW 7.0 mph11.3 kmh 29.40 in995.6 mb 0.00 in0.0 mm 0.00 in0.0 mm 0.25 in6.4 mm
08:18 AM 44.9°F7.2°C 41.9°F5.5°C 89% 6.4 mph SW10.3 kmh SW 9.0 mph14.5 kmh 29.40 in995.6 mb 0.00 in0.0 mm 0.00 in0.0 mm 0.25 in6.4 mm
08:19 AM 44.9°F7.2°C 41.9°F5.5°C 89% 7.7 mph SSW12.4 kmh SSW 10.0 mph16.1 kmh 29.40 in995.6 mb 0.00 in0.0 mm 0.00 in0.0 mm 0.25 in6.4 mm
08:20 AM 44.9°F7.2°C 41.9°F5.5°C 89% 5.1 mph SSW8.2 kmh SSW 10.0 mph16.1 kmh 29.40 in995.6 mb 0.00 in0.0 mm 0.00 in0.0 mm 0.25 in6.4 mm
08:21 AM 44.8°F7.1°C 41.8°F5.4°C 89% 7.2 mph SSW11.6 kmh SSW 9.0 mph14.5 kmh 29.40 in995.6 mb 0.00 in0.0 mm 0.00 in0.0 mm 0.25 in6.4 mm
08:22 AM 44.8°F7.1°C 41.8°F5.4°C 89% 5.5 mph SW8.9 kmh SW 9.0 mph14.5 kmh 29.40 in995.6 mb 0.00 in0.0 mm 0.00 in0.0 mm 0.25 in6.4 mm
08:23 AM 44.8°F7.1°C 41.8°F5.4°C 89% 4.2 mph SW6.8 kmh SW 7.0 mph11.3 kmh 29.40 in995.6 mb 0.00 in0.0 mm 0.00 in0.0 mm 0.25 in6.4 mm
08:24 AM 44.9°F7.2°C 41.9°F5.5°C 89% 4.7 mph SSW7.6 kmh SSW 6.0 mph9.7 kmh 29.40 in995.6 mb 0.00 in0.0 mm 0.00 in0.0 mm 0.25 in6.4 mm
08:25 AM 44.9°F7.2°C 41.9°F5.5°C 89% 4.5 mph SSW7.2 kmh SSW 6.0 mph9.7 kmh 29.40 in995.6 mb 0.00 in0.0 mm 0.00 in0.0 mm 0.25 in6.4 mm
08:26 AM 44.8°F7.1°C 41.8°F5.4°C 89% 4.3 mph S6.9 kmh S 6.0 mph9.7 kmh 29.40 in995.6 mb 0.00 in0.0 mm 0.00 in0.0 mm 0.25 in6.4 mm
08:27 AM 44.8°F7.1°C 41.8°F5.4°C 89% 5.7 mph SW9.2 kmh SW 9.0 mph14.5 kmh 29.40 in995.6 mb 0.00 in0.0 mm 0.00 in0.0 mm 0.25 in6.4 mm
08:28 AM 44.8°F7.1°C 41.8°F5.4°C 89% 6.4 mph SSW10.3 kmh SSW 9.0 mph14.5 kmh 29.40 in995.6 mb 0.00 in0.0 mm 0.00 in0.0 mm 0.25 in6.4 mm
08:29 AM 44.8°F7.1°C 41.8°F5.4°C 89% 4.8 mph SSW7.7 kmh SSW 8.0 mph12.9 kmh 29.40 in995.6 mb 0.00 in0.0 mm 0.00 in0.0 mm 0.25 in6.4 mm
08:30 AM 44.9°F7.2°C 41.9°F5.5°C 89% 6.2 mph SW10.0 kmh SW 9.0 mph14.5 kmh 29.40 in995.6 mb 0.00 in0.0 mm 0.00 in0.0 mm 0.25 in6.4 mm
08:31 AM 44.9°F7.2°C 41.9°F5.5°C 89% 7.2 mph SSW11.6 kmh SSW 10.0 mph16.1 kmh 29.40 in995.6 mb 0.00 in0.0 mm 0.00 in0.0 mm 0.25 in6.4 mm
08:32 AM 44.9°F7.2°C 41.9°F5.5°C 89% 7.9 mph SW12.7 kmh SW 10.0 mph16.1 kmh 29.40 in995.6 mb 0.00 in0.0 mm 0.00 in0.0 mm 0.25 in6.4 mm
08:33 AM 44.9°F7.2°C 41.9°F5.5°C 89% 3.8 mph SSW6.1 kmh SSW 10.0 mph16.1 kmh 29.40 in995.6 mb 0.00 in0.0 mm 0.00 in0.0 mm 0.25 in6.4 mm
08:34 AM 45.0°F7.2°C 42.0°F5.6°C 89% 6.0 mph SW9.7 kmh SW 8.0 mph12.9 kmh 29.40 in995.6 mb 0.00 in0.0 mm 0.00 in0.0 mm 0.25 in6.4 mm
08:35 AM 44.9°F7.2°C 41.9°F5.5°C 89% 6.0 mph S9.7 kmh S 7.0 mph11.3 kmh 29.40 in995.6 mb 0.00 in0.0 mm 0.00 in0.0 mm 0.25 in6.4 mm
08:36 AM 45.0°F7.2°C 42.0°F5.6°C 89% 6.8 mph S10.9 kmh S 8.0 mph12.9 kmh 29.40 in995.6 mb 0.00 in0.0 mm 0.00 in0.0 mm 0.25 in6.4 mm
08:37 AM 45.0°F7.2°C 42.0°F5.6°C 89% 5.3 mph S8.5 kmh S 8.0 mph12.9 kmh 29.40 in995.6 mb 0.00 in0.0 mm 0.00 in0.0 mm 0.25 in6.4 mm
08:38 AM 45.0°F7.2°C 42.0°F5.6°C 89% 9.8 mph SSW15.8 kmh SSW 11.0 mph17.7 kmh 29.40 in995.6 mb 0.00 in0.0 mm 0.00 in0.0 mm 0.25 in6.4 mm
08:39 AM 45.0°F7.2°C 42.0°F5.6°C 89% 7.9 mph SSW12.7 kmh SSW 11.0 mph17.7 kmh 29.41 in995.9 mb 0.00 in0.0 mm 0.00 in0.0 mm 0.25 in6.4 mm
08:40 AM 45.1°F7.3°C 42.1°F5.6°C 89% 5.4 mph SSW8.7 kmh SSW 11.0 mph17.7 kmh 29.41 in995.9 mb 0.00 in0.0 mm 0.00 in0.0 mm 0.25 in6.4 mm
08:41 AM 45.1°F7.3°C 42.1°F5.6°C 89% 6.7 mph S10.8 kmh S 9.0 mph14.5 kmh 29.41 in995.9 mb 0.00 in0.0 mm 0.00 in0.0 mm 0.25 in6.4 mm
08:42 AM 45.1°F7.3°C 42.1°F5.6°C 89% 7.1 mph S11.4 kmh S 9.0 mph14.5 kmh 29.41 in995.9 mb 0.00 in0.0 mm 0.00 in0.0 mm 0.25 in6.4 mm
08:43 AM 45.2°F7.3°C 42.2°F5.7°C 89% 6.2 mph SSW10.0 kmh SSW 9.0 mph14.5 kmh 29.41 in995.9 mb 0.00 in0.0 mm 0.00 in0.0 mm 0.25 in6.4 mm
08:44 AM 45.2°F7.3°C 42.2°F5.7°C 89% 8.4 mph SSW13.5 kmh SSW 12.0 mph19.3 kmh 29.41 in995.9 mb 0.00 in0.0 mm 0.00 in0.0 mm 0.25 in6.4 mm
08:45 AM 45.1°F7.3°C 42.1°F5.6°C 89% 7.6 mph SSW12.2 kmh SSW 12.0 mph19.3 kmh 29.41 in995.9 mb 0.00 in0.0 mm 0.00 in0.0 mm 0.25 in6.4 mm
08:46 AM 45.1°F7.3°C 42.1°F5.6°C 89% 6.2 mph S10.0 kmh S 10.0 mph16.1 kmh 29.41 in995.9 mb 0.00 in0.0 mm 0.00 in0.0 mm 0.25 in6.4 mm
08:47 AM 45.1°F7.3°C 42.1°F5.6°C 89% 10.5 mph S16.9 kmh S 13.0 mph20.9 kmh 29.41 in995.9 mb 0.00 in0.0 mm 0.00 in0.0 mm 0.25 in6.4 mm
08:48 AM 45.1°F7.3°C 42.1°F5.6°C 89% 9.4 mph S15.1 kmh S 13.0 mph20.9 kmh 29.41 in995.9 mb 0.00 in0.0 mm 0.00 in0.0 mm 0.25 in6.4 mm
08:49 AM 45.1°F7.3°C 42.1°F5.6°C 89% 8.2 mph S13.2 kmh S 12.0 mph19.3 kmh 29.41 in995.9 mb 0.00 in0.0 mm 0.00 in0.0 mm 0.25 in6.4 mm
08:50 AM 45.1°F7.3°C 42.1°F5.6°C 89% 9.3 mph S15.0 kmh S 13.0 mph20.9 kmh 29.41 in995.9 mb 0.00 in0.0 mm 0.00 in0.0 mm 0.25 in6.4 mm
08:51 AM 45.2°F7.3°C 42.2°F5.7°C 89% 8.2 mph SSW13.2 kmh SSW 13.0 mph20.9 kmh 29.41 in995.9 mb 0.00 in0.0 mm 0.00 in0.0 mm 0.25 in6.4 mm
08:52 AM 45.2°F7.3°C 42.2°F5.7°C 89% 7.3 mph S11.7 kmh S 10.0 mph16.1 kmh 29.41 in995.9 mb 0.00 in0.0 mm 0.00 in0.0 mm 0.25 in6.4 mm
08:53 AM 45.2°F7.3°C 42.2°F5.7°C 89% 8.5 mph SSW13.7 kmh SSW 12.0 mph19.3 kmh 29.41 in995.9 mb 0.00 in0.0 mm 0.00 in0.0 mm 0.25 in6.4 mm
08:54 AM 45.1°F7.3°C 42.1°F5.6°C 89% 8.6 mph SSW13.8 kmh SSW 12.0 mph19.3 kmh 29.41 in995.9 mb 0.00 in0.0 mm 0.00 in0.0 mm 0.25 in6.4 mm
08:55 AM 45.2°F7.3°C 42.2°F5.7°C 89% 6.5 mph SSW10.5 kmh SSW 11.0 mph17.7 kmh 29.41 in995.9 mb 0.00 in0.0 mm 0.00 in0.0 mm 0.25 in6.4 mm
08:56 AM 45.2°F7.3°C 42.2°F5.7°C 89% 7.2 mph SSW11.6 kmh SSW 9.0 mph14.5 kmh 29.41 in995.9 mb 0.00 in0.0 mm 0.00 in0.0 mm 0.25 in6.4 mm
08:57 AM 45.2°F7.3°C 42.2°F5.7°C 89% 7.5 mph S12.1 kmh S 9.0 mph14.5 kmh 29.41 in995.9 mb 0.00 in0.0 mm 0.00 in0.0 mm 0.25 in6.4 mm
08:58 AM 45.2°F7.3°C 42.2°F5.7°C 89% 8.5 mph SSW13.7 kmh SSW 10.0 mph16.1 kmh 29.41 in995.9 mb 0.00 in0.0 mm 0.00 in0.0 mm 0.25 in6.4 mm
08:59 AM 45.2°F7.3°C 42.2°F5.7°C 89% 6.8 mph SSW10.9 kmh SSW 10.0 mph16.1 kmh 29.41 in995.9 mb 0.00 in0.0 mm 0.00 in0.0 mm 0.25 in6.4 mm
09:00 AM 45.1°F7.3°C 42.1°F5.6°C 89% 8.3 mph SSW13.4 kmh SSW 11.0 mph17.7 kmh 29.41 in995.9 mb 0.00 in0.0 mm 0.00 in0.0 mm 0.25 in6.4 mm
09:01 AM 45.1°F7.3°C 42.1°F5.6°C 89% 7.5 mph S12.1 kmh S 11.0 mph17.7 kmh 29.41 in995.9 mb 0.00 in0.0 mm 0.00 in0.0 mm 0.25 in6.4 mm
09:02 AM 45.1°F7.3°C 42.1°F5.6°C 89% 6.1 mph S9.8 kmh S 10.0 mph16.1 kmh 29.41 in995.9 mb 0.00 in0.0 mm 0.00 in0.0 mm 0.25 in6.4 mm
09:03 AM 45.1°F7.3°C 42.1°F5.6°C 89% 7.5 mph SSW12.1 kmh SSW 9.0 mph14.5 kmh 29.41 in995.9 mb 0.00 in0.0 mm 0.00 in0.0 mm 0.25 in6.4 mm
09:04 AM 45.1°F7.3°C 42.1°F5.6°C 89% 6.7 mph SSW10.8 kmh SSW 11.0 mph17.7 kmh 29.41 in995.9 mb 0.00 in0.0 mm 0.00 in0.0 mm 0.25 in6.4 mm
09:05 AM 45.1°F7.3°C 42.1°F5.6°C 89% 5.0 mph SSW8.0 kmh SSW 7.0 mph11.3 kmh 29.41 in995.9 mb 0.00 in0.0 mm 0.00 in0.0 mm 0.25 in6.4 mm
09:06 AM 45.1°F7.3°C 42.1°F5.6°C 89% 5.0 mph SSW8.0 kmh SSW 9.0 mph14.5 kmh 29.41 in995.9 mb 0.00 in0.0 mm 0.00 in0.0 mm 0.25 in6.4 mm
09:07 AM 45.1°F7.3°C 42.1°F5.6°C 89% 8.4 mph S13.5 kmh S 10.0 mph16.1 kmh 29.41 in995.9 mb 0.00 in0.0 mm 0.00 in0.0 mm 0.25 in6.4 mm
09:08 AM 45.1°F7.3°C 42.1°F5.6°C 89% 6.2 mph S10.0 kmh S 10.0 mph16.1 kmh 29.41 in995.9 mb 0.00 in0.0 mm 0.00 in0.0 mm 0.25 in6.4 mm
09:09 AM 45.2°F7.3°C 42.2°F5.7°C 89% 6.7 mph S10.8 kmh S 11.0 mph17.7 kmh 29.41 in995.9 mb 0.00 in0.0 mm 0.00 in0.0 mm 0.25 in6.4 mm
09:10 AM 45.1°F7.3°C 42.1°F5.6°C 89% 8.5 mph S13.7 kmh S 12.0 mph19.3 kmh 29.41 in995.9 mb 0.00 in0.0 mm 0.00 in0.0 mm 0.25 in6.4 mm
09:11 AM 45.1°F7.3°C 42.1°F5.6°C 89% 6.0 mph SSW9.7 kmh SSW 12.0 mph19.3 kmh 29.41 in995.9 mb 0.00 in0.0 mm 0.00 in0.0 mm 0.25 in6.4 mm
09:12 AM 45.1°F7.3°C 42.1°F5.6°C 89% 6.0 mph SSW9.7 kmh SSW 8.0 mph12.9 kmh 29.41 in995.9 mb 0.00 in0.0 mm 0.00 in0.0 mm 0.25 in6.4 mm
09:13 AM 45.0°F7.2°C 42.0°F5.6°C 89% 4.0 mph SSW6.4 kmh SSW 6.0 mph9.7 kmh 29.41 in995.9 mb 0.00 in0.0 mm 0.00 in0.0 mm 0.25 in6.4 mm
09:14 AM 45.1°F7.3°C 42.1°F5.6°C 89% 5.7 mph S9.2 kmh S 6.0 mph9.7 kmh 29.41 in995.9 mb 0.00 in0.0 mm 0.00 in0.0 mm 0.25 in6.4 mm
09:15 AM 45.1°F7.3°C 42.1°F5.6°C 89% 5.5 mph S8.9 kmh S 8.0 mph12.9 kmh 29.41 in995.9 mb 0.00 in0.0 mm 0.00 in0.0 mm 0.25 in6.4 mm
09:16 AM 45.1°F7.3°C 42.1°F5.6°C 89% 6.5 mph S10.5 kmh S 9.0 mph14.5 kmh 29.41 in995.9 mb 0.00 in0.0 mm 0.00 in0.0 mm 0.25 in6.4 mm
09:17 AM 45.1°F7.3°C 42.1°F5.6°C 89% 6.7 mph S10.8 kmh S 9.0 mph14.5 kmh 29.41 in995.9 mb 0.00 in0.0 mm 0.00 in0.0 mm 0.25 in6.4 mm
09:18 AM 45.1°F7.3°C 42.1°F5.6°C 89% 5.9 mph S9.5 kmh S 8.0 mph12.9 kmh 29.41 in995.9 mb 0.00 in0.0 mm 0.00 in0.0 mm 0.25 in6.4 mm
09:19 AM 45.0°F7.2°C 42.0°F5.6°C 89% 4.7 mph SSW7.6 kmh SSW 8.0 mph12.9 kmh 29.41 in995.9 mb 0.00 in0.0 mm 0.00 in0.0 mm 0.25 in6.4 mm
09:20 AM 45.0°F7.2°C 42.0°F5.6°C 89% 4.0 mph SSW6.4 kmh SSW 7.0 mph11.3 kmh 29.41 in995.9 mb 0.00 in0.0 mm 0.00 in0.0 mm 0.25 in6.4 mm
09:21 AM 45.0°F7.2°C 42.0°F5.6°C 89% 4.0 mph SSE6.4 kmh SSE 7.0 mph11.3 kmh 29.41 in995.9 mb 0.00 in0.0 mm 0.00 in0.0 mm 0.25 in6.4 mm
09:22 AM 45.0°F7.2°C 42.0°F5.6°C 89% 5.1 mph S8.2 kmh S 6.0 mph9.7 kmh 29.41 in995.9 mb 0.00 in0.0 mm 0.00 in0.0 mm 0.25 in6.4 mm
09:23 AM 45.0°F7.2°C 42.0°F5.6°C 89% 5.6 mph S9.0 kmh S 8.0 mph12.9 kmh 29.41 in995.9 mb 0.00 in0.0 mm 0.00 in0.0 mm 0.25 in6.4 mm
09:24 AM 44.9°F7.2°C 41.9°F5.5°C 89% 5.0 mph S8.0 kmh S 7.0 mph11.3 kmh 29.41 in995.9 mb 0.00 in0.0 mm 0.00 in0.0 mm 0.25 in6.4 mm
09:25 AM 44.9°F7.2°C 41.9°F5.5°C 89% 6.0 mph S9.7 kmh S 9.0 mph14.5 kmh 29.41 in995.9 mb 0.00 in0.0 mm 0.00 in0.0 mm 0.25 in6.4 mm
09:26 AM 44.9°F7.2°C 41.9°F5.5°C 89% 5.0 mph S8.0 kmh S 7.0 mph11.3 kmh 29.42 in996.3 mb 0.00 in0.0 mm 0.00 in0.0 mm 0.25 in6.4 mm
09:27 AM 44.9°F7.2°C 42.1°F5.6°C 90% 4.7 mph SSW7.6 kmh SSW 6.0 mph9.7 kmh 29.42 in996.3 mb 0.00 in0.0 mm 0.00 in0.0 mm 0.25 in6.4 mm
09:28 AM 44.9°F7.2°C 42.1°F5.6°C 90% 6.0 mph S9.7 kmh S 9.0 mph14.5 kmh 29.42 in996.3 mb 0.00 in0.0 mm 0.00 in0.0 mm 0.25 in6.4 mm
09:29 AM 44.9°F7.2°C 42.1°F5.6°C 90% 4.0 mph SSW6.4 kmh SSW 6.0 mph9.7 kmh 29.42 in996.3 mb 0.00 in0.0 mm 0.00 in0.0 mm 0.25 in6.4 mm
09:30 AM 44.9°F7.2°C 42.1°F5.6°C 90% 3.9 mph S6.3 kmh S 4.0 mph6.4 kmh 29.42 in996.3 mb 0.00 in0.0 mm 0.00 in0.0 mm 0.25 in6.4 mm
09:31 AM 44.9°F7.2°C 42.1°F5.6°C 90% 4.1 mph S6.6 kmh S 5.0 mph8.0 kmh 29.42 in996.3 mb 0.00 in0.0 mm 0.00 in0.0 mm 0.25 in6.4 mm
09:32 AM 44.9°F7.2°C 42.1°F5.6°C 90% 4.4 mph S7.1 kmh S 6.0 mph9.7 kmh 29.42 in996.3 mb 0.00 in0.0 mm 0.00 in0.0 mm 0.25 in6.4 mm
09:33 AM 44.9°F7.2°C 42.1°F5.6°C 90% 3.5 mph S5.6 kmh S 6.0 mph9.7 kmh 29.41 in995.9 mb 0.00 in0.0 mm 0.00 in0.0 mm 0.25 in6.4 mm
09:34 AM 44.9°F7.2°C 42.1°F5.6°C 90% 3.4 mph S5.5 kmh S 5.0 mph8.0 kmh 29.42 in996.3 mb 0.00 in0.0 mm 0.00 in0.0 mm 0.25 in6.4 mm
09:35 AM 45.0°F7.2°C 42.2°F5.7°C 90% 4.1 mph S6.6 kmh S 7.0 mph11.3 kmh 29.42 in996.3 mb 0.00 in0.0 mm 0.00 in0.0 mm 0.25 in6.4 mm
09:36 AM 44.9°F7.2°C 42.1°F5.6°C 90% 3.9 mph S6.3 kmh S 7.0 mph11.3 kmh 29.42 in996.3 mb 0.00 in0.0 mm 0.00 in0.0 mm 0.25 in6.4 mm
09:37 AM 44.9°F7.2°C 42.1°F5.6°C 90% 5.6 mph SSW9.0 kmh SSW 7.0 mph11.3 kmh 29.42 in996.3 mb 0.00 in0.0 mm 0.00 in0.0 mm 0.25 in6.4 mm
09:38 AM 45.0°F7.2°C 42.2°F5.7°C 90% 4.7 mph S7.6 kmh S 7.0 mph11.3 kmh 29.42 in996.3 mb 0.00 in0.0 mm 0.00 in0.0 mm 0.25 in6.4 mm
09:39 AM 45.0°F7.2°C 42.2°F5.7°C 90% 6.2 mph SSW10.0 kmh SSW 8.0 mph12.9 kmh 29.42 in996.3 mb 0.00 in0.0 mm 0.00 in0.0 mm 0.25 in6.4 mm
09:40 AM 44.9°F7.2°C 42.1°F5.6°C 90% 6.9 mph SSW11.1 kmh SSW 10.0 mph16.1 kmh 29.42 in996.3 mb 0.00 in0.0 mm 0.00 in0.0 mm 0.25 in6.4 mm
09:41 AM 45.0°F7.2°C 42.2°F5.7°C 90% 6.7 mph SSW10.8 kmh SSW 10.0 mph16.1 kmh 29.42 in996.3 mb 0.00 in0.0 mm 0.00 in0.0 mm 0.25 in6.4 mm
09:42 AM 44.9°F7.2°C 42.1°F5.6°C 90% 6.3 mph S10.1 kmh S 9.0 mph14.5 kmh 29.42 in996.3 mb 0.00 in0.0 mm 0.00 in0.0 mm 0.25 in6.4 mm
09:43 AM 44.9°F7.2°C 42.1°F5.6°C 90% 5.0 mph SSW8.0 kmh SSW 7.0 mph11.3 kmh 29.42 in996.3 mb 0.00 in0.0 mm 0.00 in0.0 mm 0.25 in6.4 mm
09:44 AM 44.9°F7.2°C 42.1°F5.6°C 90% 4.6 mph S7.4 kmh S 7.0 mph11.3 kmh 29.42 in996.3 mb 0.00 in0.0 mm 0.00 in0.0 mm 0.25 in6.4 mm
09:45 AM 45.0°F7.2°C 42.2°F5.7°C 90% 4.7 mph SSW7.6 kmh SSW 6.0 mph9.7 kmh 29.42 in996.3 mb 0.00 in0.0 mm 0.00 in0.0 mm 0.25 in6.4 mm
09:46 AM 45.0°F7.2°C 42.2°F5.7°C 90% 5.2 mph SSW8.4 kmh SSW 7.0 mph11.3 kmh 29.42 in996.3 mb 0.00 in0.0 mm 0.00 in0.0 mm 0.25 in6.4 mm
09:47 AM 45.0°F7.2°C 42.2°F5.7°C 90% 5.0 mph SSW8.0 kmh SSW 5.0 mph8.0 kmh 29.42 in996.3 mb 0.00 in0.0 mm 0.00 in0.0 mm 0.25 in6.4 mm
09:48 AM 45.0°F7.2°C 42.2°F5.7°C 90% 4.0 mph SSW6.4 kmh SSW 6.0 mph9.7 kmh 29.42 in996.3 mb 0.00 in0.0 mm 0.00 in0.0 mm 0.25 in6.4 mm
09:49 AM 45.1°F7.3°C 42.3°F5.7°C 90% 4.5 mph S7.2 kmh S 6.0 mph9.7 kmh 29.42 in996.3 mb 0.00 in0.0 mm 0.00 in0.0 mm 0.25 in6.4 mm
09:50 AM 45.1°F7.3°C 42.3°F5.7°C 90% 3.0 mph S4.8 kmh S 6.0 mph9.7 kmh 29.42 in996.3 mb 0.00 in0.0 mm 0.00 in0.0 mm 0.25 in6.4 mm
09:51 AM 45.1°F7.3°C 42.3°F5.7°C 90% 5.2 mph S8.4 kmh S 8.0 mph12.9 kmh 29.42 in996.3 mb 0.00 in0.0 mm 0.00 in0.0 mm 0.25 in6.4 mm
09:52 AM 45.2°F7.3°C 42.4°F5.8°C 90% 5.1 mph S8.2 kmh S 8.0 mph12.9 kmh 29.42 in996.3 mb 0.00 in0.0 mm 0.00 in0.0 mm 0.25 in6.4 mm
09:53 AM 45.2°F7.3°C 42.4°F5.8°C 90% 5.0 mph S8.0 kmh S 6.0 mph9.7 kmh 29.42 in996.3 mb 0.00 in0.0 mm 0.00 in0.0 mm 0.25 in6.4 mm
09:54 AM 45.2°F7.3°C 42.4°F5.8°C 90% 4.0 mph S6.4 kmh S 5.0 mph8.0 kmh 29.42 in996.3 mb 0.00 in0.0 mm 0.00 in0.0 mm 0.25 in6.4 mm
09:55 AM 45.2°F7.3°C 42.4°F5.8°C 90% 5.0 mph SSW8.0 kmh SSW 6.0 mph9.7 kmh 29.42 in996.3 mb 0.00 in0.0 mm 0.00 in0.0 mm 0.25 in6.4 mm
09:56 AM 45.3°F7.4°C 42.5°F5.8°C 90% 5.3 mph S8.5 kmh S 8.0 mph12.9 kmh 29.42 in996.3 mb 0.00 in0.0 mm 0.00 in0.0 mm 0.25 in6.4 mm
09:57 AM 45.3°F7.4°C 42.5°F5.8°C 90% 5.0 mph S8.0 kmh S 7.0 mph11.3 kmh 29.42 in996.3 mb 0.00 in0.0 mm 0.00 in0.0 mm 0.25 in6.4 mm
09:58 AM 45.3°F7.4°C 42.5°F5.8°C 90% 6.0 mph S9.7 kmh S 9.0 mph14.5 kmh 29.42 in996.3 mb 0.00 in0.0 mm 0.00 in0.0 mm 0.25 in6.4 mm
09:59 AM 45.3°F7.4°C 42.5°F5.8°C 90% 5.3 mph S8.5 kmh S 8.0 mph12.9 kmh 29.42 in996.3 mb 0.00 in0.0 mm 0.00 in0.0 mm 0.25 in6.4 mm
10:00 AM 45.4°F7.4°C 42.6°F5.9°C 90% 5.1 mph S8.2 kmh S 8.0 mph12.9 kmh 29.42 in996.3 mb 0.00 in0.0 mm 0.00 in0.0 mm 0.25 in6.4 mm
10:01 AM 45.3°F7.4°C 42.5°F5.8°C 90% 5.7 mph S9.2 kmh S 8.0 mph12.9 kmh 29.42 in996.3 mb 0.00 in0.0 mm 0.00 in0.0 mm 0.25 in6.4 mm
10:02 AM 45.4°F7.4°C 42.6°F5.9°C 90% 4.3 mph S6.9 kmh S 8.0 mph12.9 kmh 29.42 in996.3 mb 0.00 in0.0 mm 0.00 in0.0 mm 0.25 in6.4 mm
10:03 AM 45.4°F7.4°C 42.6°F5.9°C 90% 5.3 mph S8.5 kmh S 6.0 mph9.7 kmh 29.42 in996.3 mb 0.00 in0.0 mm 0.00 in0.0 mm 0.25 in6.4 mm
10:04 AM 45.5°F7.5°C 42.7°F5.9°C 90% 5.5 mph SSW8.9 kmh SSW 7.0 mph11.3 kmh 29.42 in996.3 mb 0.00 in0.0 mm 0.00 in0.0 mm 0.25 in6.4 mm
10:05 AM 45.5°F7.5°C 42.7°F5.9°C 90% 4.3 mph S6.9 kmh S 7.0 mph11.3 kmh 29.42 in996.3 mb 0.00 in0.0 mm 0.00 in0.0 mm 0.25 in6.4 mm
10:06 AM 45.4°F7.4°C 42.6°F5.9°C 90% 6.2 mph S10.0 kmh S 8.0 mph12.9 kmh 29.42 in996.3 mb 0.00 in0.0 mm 0.00 in0.0 mm 0.25 in6.4 mm
10:07 AM 45.5°F7.5°C 42.7°F5.9°C 90% 6.0 mph SSW9.7 kmh SSW 8.0 mph12.9 kmh 29.42 in996.3 mb 0.00 in0.0 mm 0.00 in0.0 mm 0.25 in6.4 mm
10:08 AM 45.4°F7.4°C 42.6°F5.9°C 90% 7.0 mph S11.3 kmh S 8.0 mph12.9 kmh 29.42 in996.3 mb 0.00 in0.0 mm 0.00 in0.0 mm 0.25 in6.4 mm
10:09 AM 45.5°F7.5°C 42.7°F5.9°C 90% 5.2 mph SSW8.4 kmh SSW 6.0 mph9.7 kmh 29.42 in996.3 mb 0.00 in0.0 mm 0.00 in0.0 mm 0.25 in6.4 mm
10:10 AM 45.4°F7.4°C 42.6°F5.9°C 90% 5.4 mph SSW8.7 kmh SSW 8.0 mph12.9 kmh 29.42 in996.3 mb 0.00 in0.0 mm 0.00 in0.0 mm 0.25 in6.4 mm
10:11 AM 45.5°F7.5°C 42.7°F5.9°C 90% 7.0 mph SSW11.3 kmh SSW 9.0 mph14.5 kmh 29.42 in996.3 mb 0.00 in0.0 mm 0.00 in0.0 mm 0.25 in6.4 mm
10:12 AM 45.5°F7.5°C 42.7°F5.9°C 90% 6.0 mph SSW9.7 kmh SSW 9.0 mph14.5 kmh 29.42 in996.3 mb 0.00 in0.0 mm 0.00 in0.0 mm 0.25 in6.4 mm
10:13 AM 45.5°F7.5°C 42.7°F5.9°C 90% 5.0 mph SSW8.0 kmh SSW 7.0 mph11.3 kmh 29.42 in996.3 mb 0.00 in0.0 mm 0.00 in0.0 mm 0.25 in6.4 mm
10:14 AM 45.5°F7.5°C 42.7°F5.9°C 90% 4.5 mph SSW7.2 kmh SSW 8.0 mph12.9 kmh 29.42 in996.3 mb 0.00 in0.0 mm 0.00 in0.0 mm 0.25 in6.4 mm
10:15 AM 45.5°F7.5°C 42.7°F5.9°C 90% 6.3 mph S10.1 kmh S 10.0 mph16.1 kmh 29.42 in996.3 mb 0.00 in0.0 mm 0.00 in0.0 mm 0.25 in6.4 mm
10:16 AM 45.5°F7.5°C 42.7°F5.9°C 90% 6.2 mph SSW10.0 kmh SSW 10.0 mph16.1 kmh 29.42 in996.3 mb 0.00 in0.0 mm 0.00 in0.0 mm 0.25 in6.4 mm
10:17 AM 45.5°F7.5°C 42.7°F5.9°C 90% 4.1 mph S6.6 kmh S 8.0 mph12.9 kmh 29.42 in996.3 mb 0.00 in0.0 mm 0.00 in0.0 mm 0.25 in6.4 mm
10:18 AM 45.5°F7.5°C 42.7°F5.9°C 90% 4.3 mph S6.9 kmh S 6.0 mph9.7 kmh 29.42 in996.3 mb 0.01 in0.3 mm 0.60 in15.2 mm 0.26 in6.6 mm
10:19 AM 45.5°F7.5°C 42.7°F5.9°C 90% 3.5 mph SSW5.6 kmh SSW 5.0 mph8.0 kmh 29.42 in996.3 mb 0.01 in0.3 mm 0.00 in0.0 mm 0.26 in6.6 mm
10:20 AM 45.5°F7.5°C 42.7°F5.9°C 90% 4.0 mph SSW6.4 kmh SSW 6.0 mph9.7 kmh 29.42 in996.3 mb 0.01 in0.3 mm 0.00 in0.0 mm 0.26 in6.6 mm
10:21 AM 45.5°F7.5°C 42.7°F5.9°C 90% 3.0 mph SSW4.8 kmh SSW 4.0 mph6.4 kmh 29.42 in996.3 mb 0.01 in0.3 mm 0.00 in0.0 mm 0.26 in6.6 mm
10:22 AM 45.5°F7.5°C 42.7°F5.9°C 90% 4.0 mph S6.4 kmh S 6.0 mph9.7 kmh 29.42 in996.3 mb 0.01 in0.3 mm 0.00 in0.0 mm 0.26 in6.6 mm
10:23 AM 45.5°F7.5°C 42.7°F5.9°C 90% 3.4 mph SSW5.5 kmh SSW 4.0 mph6.4 kmh 29.42 in996.3 mb 0.01 in0.3 mm 0.00 in0.0 mm 0.26 in6.6 mm
10:24 AM 45.5°F7.5°C 42.7°F5.9°C 90% 3.2 mph SSW5.1 kmh SSW 4.0 mph6.4 kmh 29.42 in996.3 mb 0.02 in0.5 mm 0.60 in15.2 mm 0.27 in6.9 mm
10:25 AM 45.5°F7.5°C 42.7°F5.9°C 90% 2.9 mph SSW4.7 kmh SSW 4.0 mph6.4 kmh 29.42 in996.3 mb 0.02 in0.5 mm 0.00 in0.0 mm 0.27 in6.9 mm
10:26 AM 45.5°F7.5°C 42.7°F5.9°C 90% 3.0 mph SSW4.8 kmh SSW 4.0 mph6.4 kmh 29.42 in996.3 mb 0.02 in0.5 mm 0.00 in0.0 mm 0.27 in6.9 mm
10:27 AM 45.5°F7.5°C 42.7°F5.9°C 90% 4.0 mph SSW6.4 kmh SSW 6.0 mph9.7 kmh 29.42 in996.3 mb 0.02 in0.5 mm 0.00 in0.0 mm 0.27 in6.9 mm
10:28 AM 45.5°F7.5°C 42.7°F5.9°C 90% 4.0 mph SW6.4 kmh SW 4.0 mph6.4 kmh 29.42 in996.3 mb 0.02 in0.5 mm 0.00 in0.0 mm 0.27 in6.9 mm
10:29 AM 45.4°F7.4°C 42.6°F5.9°C 90% 2.9 mph SW4.7 kmh SW 4.0 mph6.4 kmh 29.42 in996.3 mb 0.02 in0.5 mm 0.00 in0.0 mm 0.28 in7.1 mm
10:30 AM 45.5°F7.5°C 42.7°F5.9°C 90% 2.8 mph S4.5 kmh S 4.0 mph6.4 kmh 29.42 in996.3 mb 0.02 in0.5 mm 0.00 in0.0 mm 0.28 in7.1 mm
10:31 AM 45.5°F7.5°C 42.7°F5.9°C 90% 4.0 mph S6.4 kmh S 5.0 mph8.0 kmh 29.42 in996.3 mb 0.02 in0.5 mm 0.00 in0.0 mm 0.28 in7.1 mm
10:32 AM 45.5°F7.5°C 42.7°F5.9°C 90% 3.5 mph S5.6 kmh S 5.0 mph8.0 kmh 29.42 in996.3 mb 0.02 in0.5 mm 0.00 in0.0 mm 0.28 in7.1 mm
10:33 AM 45.4°F7.4°C 42.6°F5.9°C 90% 2.7 mph S4.3 kmh S 4.0 mph6.4 kmh 29.42 in996.3 mb 0.02 in0.5 mm 0.00 in0.0 mm 0.28 in7.1 mm
10:34 AM 45.5°F7.5°C 42.7°F5.9°C 90% 3.5 mph SSW5.6 kmh SSW 5.0 mph8.0 kmh 29.42 in996.3 mb 0.02 in0.5 mm 0.00 in0.0 mm 0.28 in7.1 mm
10:35 AM 45.5°F7.5°C 42.7°F5.9°C 90% 4.8 mph S7.7 kmh S 6.0 mph9.7 kmh 29.42 in996.3 mb 0.02 in0.5 mm 0.00 in0.0 mm 0.28 in7.1 mm
10:36 AM 45.5°F7.5°C 42.7°F5.9°C 90% 4.2 mph S6.8 kmh S 6.0 mph9.7 kmh 29.42 in996.3 mb 0.02 in0.5 mm 0.00 in0.0 mm 0.28 in7.1 mm
10:37 AM 45.5°F7.5°C 42.7°F5.9°C 90% 5.6 mph S9.0 kmh S 8.0 mph12.9 kmh 29.42 in996.3 mb 0.02 in0.5 mm 0.00 in0.0 mm 0.28 in7.1 mm
10:38 AM 45.4°F7.4°C 42.6°F5.9°C 90% 4.4 mph S7.1 kmh S 8.0 mph12.9 kmh 29.42 in996.3 mb 0.02 in0.5 mm 0.00 in0.0 mm 0.28 in7.1 mm
10:39 AM 45.4°F7.4°C 42.6°F5.9°C 90% 3.3 mph S5.3 kmh S 7.0 mph11.3 kmh 29.43 in996.6 mb 0.02 in0.5 mm 0.00 in0.0 mm 0.28 in7.1 mm
10:40 AM 45.5°F7.5°C 42.7°F5.9°C 90% 4.9 mph S7.9 kmh S 7.0 mph11.3 kmh 29.42 in996.3 mb 0.02 in0.5 mm 0.00 in0.0 mm 0.28 in7.1 mm
10:41 AM 45.5°F7.5°C 42.7°F5.9°C 90% 3.7 mph S6.0 kmh S 7.0 mph11.3 kmh 29.42 in996.3 mb 0.02 in0.5 mm 0.00 in0.0 mm 0.28 in7.1 mm
10:42 AM 45.5°F7.5°C 43.0°F6.1°C 91% 4.0 mph S6.4 kmh S 5.0 mph8.0 kmh 29.42 in996.3 mb 0.02 in0.5 mm 0.00 in0.0 mm 0.28 in7.1 mm
10:43 AM 45.5°F7.5°C 43.0°F6.1°C 91% 3.0 mph S4.8 kmh S 5.0 mph8.0 kmh 29.42 in996.3 mb 0.02 in0.5 mm 0.00 in0.0 mm 0.28 in7.1 mm
10:44 AM 45.5°F7.5°C 43.0°F6.1°C 91% 3.1 mph S5.0 kmh S 4.0 mph6.4 kmh 29.42 in996.3 mb 0.02 in0.5 mm 0.00 in0.0 mm 0.28 in7.1 mm
10:45 AM 45.5°F7.5°C 43.0°F6.1°C 91% 5.0 mph S8.0 kmh S 7.0 mph11.3 kmh 29.42 in996.3 mb 0.02 in0.5 mm 0.00 in0.0 mm 0.28 in7.1 mm
10:46 AM 45.5°F7.5°C 43.0°F6.1°C 91% 5.0 mph S8.0 kmh S 6.0 mph9.7 kmh 29.42 in996.3 mb 0.02 in0.5 mm 0.00 in0.0 mm 0.28 in7.1 mm
10:47 AM 45.5°F7.5°C 43.0°F6.1°C 91% 2.5 mph S4.0 kmh S 4.0 mph6.4 kmh 29.43 in996.6 mb 0.02 in0.5 mm 0.00 in0.0 mm 0.28 in7.1 mm
10:48 AM 45.6°F7.6°C 43.1°F6.2°C 91% 3.5 mph S5.6 kmh S 7.0 mph11.3 kmh 29.42 in996.3 mb 0.02 in0.5 mm 0.00 in0.0 mm 0.28 in7.1 mm
10:49 AM 45.6°F7.6°C 43.1°F6.2°C 91% 5.5 mph S8.9 kmh S 7.0 mph11.3 kmh 29.42 in996.3 mb 0.03 in0.8 mm 0.60 in15.2 mm 0.28 in7.1 mm
10:50 AM 45.6°F7.6°C 43.1°F6.2°C 91% 4.7 mph S7.6 kmh S 6.0 mph9.7 kmh 29.42 in996.3 mb 0.03 in0.8 mm 0.00 in0.0 mm 0.28 in7.1 mm
10:51 AM 45.6°F7.6°C 43.1°F6.2°C 91% 4.0 mph SSW6.4 kmh SSW 5.0 mph8.0 kmh 29.42 in996.3 mb 0.03 in0.8 mm 0.00 in0.0 mm 0.28 in7.1 mm
10:52 AM 45.7°F7.6°C 43.2°F6.2°C 91% 4.0 mph SSE6.4 kmh SSE 6.0 mph9.7 kmh 29.43 in996.6 mb 0.03 in0.8 mm 0.00 in0.0 mm 0.28 in7.1 mm
10:53 AM 45.7°F7.6°C 43.2°F6.2°C 91% 3.4 mph S5.5 kmh S 4.0 mph6.4 kmh 29.42 in996.3 mb 0.04 in1.0 mm 0.60 in15.2 mm 0.29 in7.4 mm
10:54 AM 45.7°F7.6°C 43.2°F6.2°C 91% 4.8 mph S7.7 kmh S 7.0 mph11.3 kmh 29.42 in996.3 mb 0.04 in1.0 mm 0.00 in0.0 mm 0.29 in7.4 mm
10:55 AM 45.7°F7.6°C 43.2°F6.2°C 91% 4.5 mph S7.2 kmh S 7.0 mph11.3 kmh 29.43 in996.6 mb 0.04 in1.0 mm 0.00 in0.0 mm 0.29 in7.4 mm
10:56 AM 45.7°F7.6°C 43.2°F6.2°C 91% 3.9 mph S6.3 kmh S 6.0 mph9.7 kmh 29.43 in996.6 mb 0.04 in1.0 mm 0.00 in0.0 mm 0.29 in7.4 mm
10:57 AM 45.7°F7.6°C 43.2°F6.2°C 91% 3.9 mph S6.3 kmh S 6.0 mph9.7 kmh 29.42 in996.3 mb 0.04 in1.0 mm 0.00 in0.0 mm 0.29 in7.4 mm
10:58 AM 45.7°F7.6°C 43.2°F6.2°C 91% 5.7 mph S9.2 kmh S 7.0 mph11.3 kmh 29.43 in996.6 mb 0.04 in1.0 mm 0.00 in0.0 mm 0.29 in7.4 mm
10:59 AM 45.8°F7.7°C 43.3°F6.3°C 91% 4.5 mph S7.2 kmh S 7.0 mph11.3 kmh 29.43 in996.6 mb 0.04 in1.0 mm 0.00 in0.0 mm 0.29 in7.4 mm
11:00 AM 45.7°F7.6°C 43.2°F6.2°C 91% 4.1 mph S6.6 kmh S 7.0 mph11.3 kmh 29.43 in996.6 mb 0.04 in1.0 mm 0.00 in0.0 mm 0.29 in7.4 mm
11:01 AM 45.7°F7.6°C 43.2°F6.2°C 91% 4.0 mph SSE6.4 kmh SSE 5.0 mph8.0 kmh 29.43 in996.6 mb 0.04 in1.0 mm 0.00 in0.0 mm 0.29 in7.4 mm
11:02 AM 45.7°F7.6°C 43.2°F6.2°C 91% 3.0 mph SSE4.8 kmh SSE 4.0 mph6.4 kmh 29.43 in996.6 mb 0.04 in1.0 mm 0.00 in0.0 mm 0.29 in7.4 mm
11:03 AM 45.8°F7.7°C 43.3°F6.3°C 91% 4.8 mph S7.7 kmh S 6.0 mph9.7 kmh 29.42 in996.3 mb 0.05 in1.3 mm 0.60 in15.2 mm 0.30 in7.6 mm
11:04 AM 45.7°F7.6°C 43.2°F6.2°C 91% 3.6 mph S5.8 kmh S 6.0 mph9.7 kmh 29.43 in996.6 mb 0.05 in1.3 mm 0.00 in0.0 mm 0.30 in7.6 mm
11:05 AM 45.8°F7.7°C 43.3°F6.3°C 91% 3.6 mph S5.8 kmh S 6.0 mph9.7 kmh 29.43 in996.6 mb 0.05 in1.3 mm 0.00 in0.0 mm 0.30 in7.6 mm
11:06 AM 45.8°F7.7°C 43.3°F6.3°C 91% 4.3 mph SSE6.9 kmh SSE 6.0 mph9.7 kmh 29.43 in996.6 mb 0.05 in1.3 mm 0.00 in0.0 mm 0.30 in7.6 mm
11:07 AM 45.8°F7.7°C 43.3°F6.3°C 91% 3.7 mph S6.0 kmh S 6.0 mph9.7 kmh 29.43 in996.6 mb 0.05 in1.3 mm 0.00 in0.0 mm 0.30 in7.6 mm
11:08 AM 45.8°F7.7°C 43.3°F6.3°C 91% 3.3 mph S5.3 kmh S 6.0 mph9.7 kmh 29.43 in996.6 mb 0.05 in1.3 mm 0.00 in0.0 mm 0.30 in7.6 mm
11:09 AM 45.9°F7.7°C 43.4°F6.3°C 91% 4.3 mph SSE6.9 kmh SSE 6.0 mph9.7 kmh 29.42 in996.3 mb 0.05 in1.3 mm 0.00 in0.0 mm 0.30 in7.6 mm
11:10 AM 45.8°F7.7°C 43.3°F6.3°C 91% 2.9 mph SSE4.7 kmh SSE 6.0 mph9.7 kmh 29.43 in996.6 mb 0.06 in1.5 mm 0.60 in15.2 mm 0.31 in7.9 mm
11:11 AM 45.9°F7.7°C 43.4°F6.3°C 91% 2.8 mph SSE4.5 kmh SSE 5.0 mph8.0 kmh 29.43 in996.6 mb 0.06 in1.5 mm 0.00 in0.0 mm 0.31 in7.9 mm
11:12 AM 45.9°F7.7°C 43.4°F6.3°C 91% 3.1 mph SSE5.0 kmh SSE 6.0 mph9.7 kmh 29.43 in996.6 mb 0.06 in1.5 mm 0.00 in0.0 mm 0.31 in7.9 mm
11:13 AM 45.9°F7.7°C 43.4°F6.3°C 91% 5.0 mph SSE8.0 kmh SSE 8.0 mph12.9 kmh 29.43 in996.6 mb 0.06 in1.5 mm 0.00 in0.0 mm 0.31 in7.9 mm
11:14 AM 45.9°F7.7°C 43.4°F6.3°C 91% 6.0 mph SSE9.7 kmh SSE 8.0 mph12.9 kmh 29.43 in996.6 mb 0.06 in1.5 mm 0.00 in0.0 mm 0.31 in7.9 mm
11:15 AM 45.9°F7.7°C 43.4°F6.3°C 91% 4.5 mph SSE7.2 kmh SSE 6.0 mph9.7 kmh 29.43 in996.6 mb 0.06 in1.5 mm 0.00 in0.0 mm 0.31 in7.9 mm
11:16 AM 45.9°F7.7°C 43.4°F6.3°C 91% 4.1 mph SSE6.6 kmh SSE 6.0 mph9.7 kmh 29.43 in996.6 mb 0.06 in1.5 mm 0.00 in0.0 mm 0.31 in7.9 mm
11:17 AM 45.9°F7.7°C 43.4°F6.3°C 91% 3.5 mph SE5.6 kmh SE 5.0 mph8.0 kmh 29.43 in996.6 mb 0.06 in1.5 mm 0.00 in0.0 mm 0.31 in7.9 mm
11:18 AM 45.9°F7.7°C 43.4°F6.3°C 91% 4.3 mph SE6.9 kmh SE 6.0 mph9.7 kmh 29.43 in996.6 mb 0.05 in1.3 mm 0.00 in0.0 mm 0.31 in7.9 mm
11:19 AM 45.9°F7.7°C 43.4°F6.3°C 91% 5.6 mph SE9.0 kmh SE 8.0 mph12.9 kmh 29.43 in996.6 mb 0.05 in1.3 mm 0.00 in0.0 mm 0.31 in7.9 mm
11:20 AM 45.9°F7.7°C 43.4°F6.3°C 91% 4.8 mph SSE7.7 kmh SSE 8.0 mph12.9 kmh 29.43 in996.6 mb 0.05 in1.3 mm 0.00 in0.0 mm 0.31 in7.9 mm
11:21 AM 45.9°F7.7°C 43.4°F6.3°C 91% 4.9 mph SSE7.9 kmh SSE 8.0 mph12.9 kmh 29.43 in996.6 mb 0.05 in1.3 mm 0.00 in0.0 mm 0.31 in7.9 mm
11:22 AM 45.9°F7.7°C 43.4°F6.3°C 91% 5.3 mph SSE8.5 kmh SSE 7.0 mph11.3 kmh 29.43 in996.6 mb 0.06 in1.5 mm 0.60 in15.2 mm 0.31 in7.9 mm
11:23 AM 46.0°F7.8°C 43.5°F6.4°C 91% 5.0 mph SSE8.0 kmh SSE 7.0 mph11.3 kmh 29.43 in996.6 mb 0.06 in1.5 mm 0.00 in0.0 mm 0.31 in7.9 mm
11:24 AM 46.0°F7.8°C 43.5°F6.4°C 91% 5.0 mph SSE8.0 kmh SSE 6.0 mph9.7 kmh 29.43 in996.6 mb 0.05 in1.3 mm 0.00 in0.0 mm 0.31 in7.9 mm
11:25 AM 46.0°F7.8°C 43.5°F6.4°C 91% 2.5 mph SSE4.0 kmh SSE 3.0 mph4.8 kmh 29.43 in996.6 mb 0.05 in1.3 mm 0.00 in0.0 mm 0.31 in7.9 mm
11:26 AM 46.0°F7.8°C 43.5°F6.4°C 91% 3.3 mph SE5.3 kmh SE 4.0 mph6.4 kmh 29.43 in996.6 mb 0.05 in1.3 mm 0.00 in0.0 mm 0.31 in7.9 mm
11:27 AM 46.1°F7.8°C 43.9°F6.6°C 92% 4.2 mph SE6.8 kmh SE 7.0 mph11.3 kmh 29.43 in996.6 mb 0.05 in1.3 mm 0.00 in0.0 mm 0.31 in7.9 mm
11:28 AM 46.2°F7.9°C 44.0°F6.7°C 92% 4.1 mph SSE6.6 kmh SSE 7.0 mph11.3 kmh 29.43 in996.6 mb 0.05 in1.3 mm 0.00 in0.0 mm 0.31 in7.9 mm
11:29 AM 46.2°F7.9°C 44.0°F6.7°C 92% 4.2 mph SSE6.8 kmh SSE 6.0 mph9.7 kmh 29.43 in996.6 mb 0.04 in1.0 mm 0.00 in0.0 mm 0.31 in7.9 mm
11:30 AM 46.2°F7.9°C 44.0°F6.7°C 92% 5.0 mph SSE8.0 kmh SSE 6.0 mph9.7 kmh 29.43 in996.6 mb 0.04 in1.0 mm 0.00 in0.0 mm 0.31 in7.9 mm
11:31 AM 46.2°F7.9°C 44.0°F6.7°C 92% 5.1 mph SSE8.2 kmh SSE 7.0 mph11.3 kmh 29.43 in996.6 mb 0.04 in1.0 mm 0.00 in0.0 mm 0.31 in7.9 mm
11:32 AM 46.2°F7.9°C 44.0°F6.7°C 92% 2.4 mph SSE3.9 kmh SSE 7.0 mph11.3 kmh 29.43 in996.6 mb 0.04 in1.0 mm 0.00 in0.0 mm 0.31 in7.9 mm
11:33 AM 46.3°F7.9°C 44.1°F6.7°C 92% 4.3 mph SE6.9 kmh SE 7.0 mph11.3 kmh 29.43 in996.6 mb 0.04 in1.0 mm 0.00 in0.0 mm 0.31 in7.9 mm
11:34 AM 46.2°F7.9°C 44.0°F6.7°C 92% 5.0 mph SE8.0 kmh SE 6.0 mph9.7 kmh 29.43 in996.6 mb 0.04 in1.0 mm 0.00 in0.0 mm 0.31 in7.9 mm
11:35 AM 46.2°F7.9°C 44.0°F6.7°C 92% 4.0 mph SE6.4 kmh SE 6.0 mph9.7 kmh 29.43 in996.6 mb 0.04 in1.0 mm 0.00 in0.0 mm 0.31 in7.9 mm
11:36 AM 46.2°F7.9°C 44.0°F6.7°C 92% 3.6 mph SE5.8 kmh SE 5.0 mph8.0 kmh 29.43 in996.6 mb 0.04 in1.0 mm 0.00 in0.0 mm 0.31 in7.9 mm
11:37 AM 46.2°F7.9°C 44.0°F6.7°C 92% 2.8 mph SE4.5 kmh SE 5.0 mph8.0 kmh 29.43 in996.6 mb 0.04 in1.0 mm 0.00 in0.0 mm 0.31 in7.9 mm
11:38 AM 46.2°F7.9°C 44.0°F6.7°C 92% 2.7 mph SE4.3 kmh SE 4.0 mph6.4 kmh 29.43 in996.6 mb 0.04 in1.0 mm 0.00 in0.0 mm 0.31 in7.9 mm
11:39 AM 46.2°F7.9°C 44.0°F6.7°C 92% 3.6 mph SE5.8 kmh SE 5.0 mph8.0 kmh 29.43 in996.6 mb 0.04 in1.0 mm 0.00 in0.0 mm 0.31 in7.9 mm
11:40 AM 46.1°F7.8°C 43.9°F6.6°C 92% 3.8 mph SE6.1 kmh SE 5.0 mph8.0 kmh 29.43 in996.6 mb 0.04 in1.0 mm 0.00 in0.0 mm 0.31 in7.9 mm
11:41 AM 46.1°F7.8°C 43.9°F6.6°C 92% 2.8 mph SE4.5 kmh SE 5.0 mph8.0 kmh 29.43 in996.6 mb 0.04 in1.0 mm 0.00 in0.0 mm 0.31 in7.9 mm
11:42 AM 46.1°F7.8°C 43.6°F6.4°C 91% 4.2 mph SE6.8 kmh SE 6.0 mph9.7 kmh 29.43 in996.6 mb 0.04 in1.0 mm 0.00 in0.0 mm 0.31 in7.9 mm
11:43 AM 46.1°F7.8°C 43.9°F6.6°C 92% 3.8 mph SSE6.1 kmh SSE 7.0 mph11.3 kmh 29.43 in996.6 mb 0.04 in1.0 mm 0.00 in0.0 mm 0.31 in7.9 mm
11:44 AM 46.1°F7.8°C 43.9°F6.6°C 92% 4.8 mph SSE7.7 kmh SSE 7.0 mph11.3 kmh 29.43 in996.6 mb 0.04 in1.0 mm 0.00 in0.0 mm 0.31 in7.9 mm
11:45 AM 46.2°F7.9°C 44.0°F6.7°C 92% 3.7 mph SSE6.0 kmh SSE 6.0 mph9.7 kmh 29.43 in996.6 mb 0.04 in1.0 mm 0.00 in0.0 mm 0.31 in7.9 mm
11:46 AM 46.1°F7.8°C 43.9°F6.6°C 92% 3.9 mph S6.3 kmh S 6.0 mph9.7 kmh 29.43 in996.6 mb 0.04 in1.0 mm 0.00 in0.0 mm 0.31 in7.9 mm
11:47 AM 46.1°F7.8°C 43.9°F6.6°C 92% 5.9 mph S9.5 kmh S 9.0 mph14.5 kmh 29.43 in996.6 mb 0.04 in1.0 mm 0.00 in0.0 mm 0.31 in7.9 mm
11:48 AM 46.0°F7.8°C 43.5°F6.4°C 91% 5.0 mph S8.0 kmh S 8.0 mph12.9 kmh 29.43 in996.6 mb 0.04 in1.0 mm 0.00 in0.0 mm 0.31 in7.9 mm
11:49 AM 46.0°F7.8°C 43.8°F6.6°C 92% 4.0 mph S6.4 kmh S 6.0 mph9.7 kmh 29.43 in996.6 mb 0.03 in0.8 mm 0.00 in0.0 mm 0.31 in7.9 mm
11:50 AM 46.1°F7.8°C 43.9°F6.6°C 92% 4.0 mph S6.4 kmh S 5.0 mph8.0 kmh 29.43 in996.6 mb 0.03 in0.8 mm 0.00 in0.0 mm 0.31 in7.9 mm
11:51 AM 46.1°F7.8°C 43.9°F6.6°C 92% 3.9 mph S6.3 kmh S 5.0 mph8.0 kmh 29.43 in996.6 mb 0.03 in0.8 mm 0.00 in0.0 mm 0.31 in7.9 mm
11:52 AM 46.1°F7.8°C 43.9°F6.6°C 92% 4.0 mph S6.4 kmh S 6.0 mph9.7 kmh 29.43 in996.6 mb 0.03 in0.8 mm 0.00 in0.0 mm 0.31 in7.9 mm
11:53 AM 46.1°F7.8°C 43.9°F6.6°C 92% 5.0 mph S8.0 kmh S 6.0 mph9.7 kmh 29.43 in996.6 mb 0.03 in0.8 mm 0.00 in0.0 mm 0.32 in8.1 mm
11:54 AM 46.0°F7.8°C 43.8°F6.6°C 92% 3.5 mph S5.6 kmh S 4.0 mph6.4 kmh 29.43 in996.6 mb 0.03 in0.8 mm 0.00 in0.0 mm 0.32 in8.1 mm
11:55 AM 46.1°F7.8°C 43.9°F6.6°C 92% 3.0 mph S4.8 kmh S 4.0 mph6.4 kmh 29.43 in996.6 mb 0.03 in0.8 mm 0.00 in0.0 mm 0.32 in8.1 mm
11:56 AM 46.1°F7.8°C 43.9°F6.6°C 92% 4.2 mph S6.8 kmh S 6.0 mph9.7 kmh 29.43 in996.6 mb 0.03 in0.8 mm 0.00 in0.0 mm 0.32 in8.1 mm
11:57 AM 46.1°F7.8°C 43.9°F6.6°C 92% 5.2 mph S8.4 kmh S 7.0 mph11.3 kmh 29.43 in996.6 mb 0.03 in0.8 mm 0.00 in0.0 mm 0.32 in8.1 mm
11:58 AM 46.1°F7.8°C 43.9°F6.6°C 92% 4.1 mph S6.6 kmh S 7.0 mph11.3 kmh 29.43 in996.6 mb 0.03 in0.8 mm 0.00 in0.0 mm 0.32 in8.1 mm
11:59 AM 46.1°F7.8°C 43.9°F6.6°C 92% 4.2 mph S6.8 kmh S 6.0 mph9.7 kmh 29.43 in996.6 mb 0.04 in1.0 mm 0.60 in15.2 mm 0.33 in8.4 mm
12:00 PM 46.1°F7.8°C 43.9°F6.6°C 92% 3.6 mph S5.8 kmh S 6.0 mph9.7 kmh 29.43 in996.6 mb 0.04 in1.0 mm 0.00 in0.0 mm 0.33 in8.4 mm
12:01 PM 46.1°F7.8°C 43.9°F6.6°C 92% 4.0 mph S6.4 kmh S 6.0 mph9.7 kmh 29.43 in996.6 mb 0.04 in1.0 mm 0.00 in0.0 mm 0.33 in8.4 mm
12:02 PM 46.1°F7.8°C 43.9°F6.6°C 92% 4.0 mph S6.4 kmh S 6.0 mph9.7 kmh 29.44 in997.0 mb 0.04 in1.0 mm 0.00 in0.0 mm 0.33 in8.4 mm
12:03 PM 46.1°F7.8°C 43.9°F6.6°C 92% 3.9 mph S6.3 kmh S 5.0 mph8.0 kmh 29.44 in997.0 mb 0.03 in0.8 mm 0.00 in0.0 mm 0.33 in8.4 mm
12:04 PM 46.0°F7.8°C 43.8°F6.6°C 92% 4.0 mph S6.4 kmh S 6.0 mph9.7 kmh 29.43 in996.6 mb 0.03 in0.8 mm 0.00 in0.0 mm 0.33 in8.4 mm
12:05 PM 46.0°F7.8°C 43.8°F6.6°C 92% 3.0 mph SSW4.8 kmh SSW 5.0 mph8.0 kmh 29.44 in997.0 mb 0.03 in0.8 mm 0.00 in0.0 mm 0.33 in8.4 mm
12:06 PM 46.1°F7.8°C 43.9°F6.6°C 92% 6.0 mph S9.7 kmh S 6.0 mph9.7 kmh 29.44 in997.0 mb 0.04 in1.0 mm 0.60 in15.2 mm 0.34 in8.6 mm
12:07 PM 46.0°F7.8°C 43.8°F6.6°C 92% 6.1 mph S9.8 kmh S 7.0 mph11.3 kmh 29.44 in997.0 mb 0.04 in1.0 mm 0.00 in0.0 mm 0.34 in8.6 mm
12:08 PM 46.0°F7.8°C 43.8°F6.6°C 92% 3.3 mph S5.3 kmh S 7.0 mph11.3 kmh 29.44 in997.0 mb 0.04 in1.0 mm 0.00 in0.0 mm 0.34 in8.6 mm
12:09 PM 46.0°F7.8°C 43.8°F6.6°C 92% 3.5 mph S5.6 kmh S 6.0 mph9.7 kmh 29.44 in997.0 mb 0.04 in1.0 mm 0.00 in0.0 mm 0.34 in8.6 mm
12:10 PM 46.0°F7.8°C 43.8°F6.6°C 92% 2.5 mph S4.0 kmh S 5.0 mph8.0 kmh 29.44 in997.0 mb 0.03 in0.8 mm 0.00 in0.0 mm 0.34 in8.6 mm
12:11 PM 46.0°F7.8°C 43.8°F6.6°C 92% 3.0 mph S4.8 kmh S 5.0 mph8.0 kmh 29.44 in997.0 mb 0.03 in0.8 mm 0.00 in0.0 mm 0.34 in8.6 mm
12:12 PM 46.1°F7.8°C 43.9°F6.6°C 92% 3.0 mph S4.8 kmh S 5.0 mph8.0 kmh 29.44 in997.0 mb 0.03 in0.8 mm 0.00 in0.0 mm 0.34 in8.6 mm
12:13 PM 46.1°F7.8°C 43.9°F6.6°C 92% 4.0 mph S6.4 kmh S 6.0 mph9.7 kmh 29.44 in997.0 mb 0.03 in0.8 mm 0.00 in0.0 mm 0.34 in8.6 mm
12:14 PM 46.1°F7.8°C 43.9°F6.6°C 92% 3.9 mph S6.3 kmh S 6.0 mph9.7 kmh 29.44 in997.0 mb 0.03 in0.8 mm 0.00 in0.0 mm 0.34 in8.6 mm
12:15 PM 46.1°F7.8°C 43.9°F6.6°C 92% 4.1 mph S6.6 kmh S 6.0 mph9.7 kmh 29.44 in997.0 mb 0.03 in0.8 mm 0.00 in0.0 mm 0.34 in8.6 mm
12:16 PM 46.1°F7.8°C 43.9°F6.6°C 92% 3.5 mph S5.6 kmh S 5.0 mph8.0 kmh 29.44 in997.0 mb 0.03 in0.8 mm 0.00 in0.0 mm 0.34 in8.6 mm
12:17 PM 46.1°F7.8°C 43.9°F6.6°C 92% 4.4 mph S7.1 kmh S 7.0 mph11.3 kmh 29.44 in997.0 mb 0.03 in0.8 mm 0.00 in0.0 mm 0.34 in8.6 mm
12:18 PM 46.1°F7.8°C 43.9°F6.6°C 92% 3.6 mph S5.8 kmh S 7.0 mph11.3 kmh 29.44 in997.0 mb 0.03 in0.8 mm 0.00 in0.0 mm 0.34 in8.6 mm
12:19 PM 46.1°F7.8°C 43.9°F6.6°C 92% 2.7 mph S4.3 kmh S 4.0 mph6.4 kmh 29.44 in997.0 mb 0.03 in0.8 mm 0.00 in0.0 mm 0.34 in8.6 mm
12:20 PM 46.1°F7.8°C 43.9°F6.6°C 92% 3.5 mph S5.6 kmh S 5.0 mph8.0 kmh 29.44 in997.0 mb 0.03 in0.8 mm 0.00 in0.0 mm 0.34 in8.6 mm
12:21 PM 46.1°F7.8°C 43.9°F6.6°C 92% 2.9 mph S4.7 kmh S 5.0 mph8.0 kmh 29.44 in997.0 mb 0.03 in0.8 mm 0.00 in0.0 mm 0.34 in8.6 mm
12:22 PM 46.1°F7.8°C 43.9°F6.6°C 92% 3.0 mph S4.8 kmh S 4.0 mph6.4 kmh 29.44 in997.0 mb 0.02 in0.5 mm 0.00 in0.0 mm 0.34 in8.6 mm
12:23 PM 46.1°F7.8°C 43.9°F6.6°C 92% 3.0 mph S4.8 kmh S 4.0 mph6.4 kmh 29.44 in997.0 mb 0.02 in0.5 mm 0.00 in0.0 mm 0.34 in8.6 mm
12:24 PM 46.2°F7.9°C 44.0°F6.7°C 92% 3.1 mph S5.0 kmh S 4.0 mph6.4 kmh 29.44 in997.0 mb 0.02 in0.5 mm 0.00 in0.0 mm 0.34 in8.6 mm
12:25 PM 46.2°F7.9°C 44.0°F6.7°C 92% 3.6 mph SSW5.8 kmh SSW 4.0 mph6.4 kmh 29.44 in997.0 mb 0.02 in0.5 mm 0.00 in0.0 mm 0.34 in8.6 mm
12:26 PM 46.2°F7.9°C 44.0°F6.7°C 92% 2.7 mph SSW4.3 kmh SSW 4.0 mph6.4 kmh 29.44 in997.0 mb 0.02 in0.5 mm 0.00 in0.0 mm 0.34 in8.6 mm
12:27 PM 46.2°F7.9°C 44.0°F6.7°C 92% 3.0 mph SSW4.8 kmh SSW 4.0 mph6.4 kmh 29.44 in997.0 mb 0.02 in0.5 mm 0.00 in0.0 mm 0.34 in8.6 mm
12:28 PM 46.2°F7.9°C 44.0°F6.7°C 92% 3.0 mph SW4.8 kmh SW 4.0 mph6.4 kmh 29.44 in997.0 mb 0.02 in0.5 mm 0.00 in0.0 mm 0.34 in8.6 mm
12:29 PM 46.2°F7.9°C 44.0°F6.7°C 92% 2.3 mph SW3.7 kmh SW 4.0 mph6.4 kmh 29.44 in997.0 mb 0.02 in0.5 mm 0.00 in0.0 mm 0.34 in8.6 mm
12:30 PM 46.3°F7.9°C 44.1°F6.7°C 92% 2.7 mph SW4.3 kmh SW 4.0 mph6.4 kmh 29.44 in997.0 mb 0.02 in0.5 mm 0.00 in0.0 mm 0.34 in8.6 mm
12:31 PM 46.2°F7.9°C 44.0°F6.7°C 92% 2.9 mph SW4.7 kmh SW 4.0 mph6.4 kmh 29.44 in997.0 mb 0.02 in0.5 mm 0.00 in0.0 mm 0.34 in8.6 mm
12:32 PM 46.3°F7.9°C 44.1°F6.7°C 92% 3.2 mph SW5.1 kmh SW 4.0 mph6.4 kmh 29.44 in997.0 mb 0.02 in0.5 mm 0.00 in0.0 mm 0.34 in8.6 mm
12:33 PM 46.3°F7.9°C 44.1°F6.7°C 92% 2.9 mph SW4.7 kmh SW 4.0 mph6.4 kmh 29.44 in997.0 mb 0.02 in0.5 mm 0.00 in0.0 mm 0.34 in8.6 mm
12:34 PM 46.3°F7.9°C 44.1°F6.7°C 92% 4.8 mph SSW7.7 kmh SSW 6.0 mph9.7 kmh 29.44 in997.0 mb 0.02 in0.5 mm 0.00 in0.0 mm 0.34 in8.6 mm
12:35 PM 46.3°F7.9°C 44.1°F6.7°C 92% 3.3 mph SW5.3 kmh SW 6.0 mph9.7 kmh 29.44 in997.0 mb 0.02 in0.5 mm 0.00 in0.0 mm 0.34 in8.6 mm
12:36 PM 46.3°F7.9°C 44.1°F6.7°C 92% 3.6 mph SW5.8 kmh SW 5.0 mph8.0 kmh 29.44 in997.0 mb 0.02 in0.5 mm 0.00 in0.0 mm 0.34 in8.6 mm
12:37 PM 46.0°F7.8°C 43.5°F6.4°C 91% 5.9 mph WSW9.5 kmh WSW 8.0 mph12.9 kmh 29.44 in997.0 mb 0.02 in0.5 mm 0.00 in0.0 mm 0.34 in8.6 mm
12:38 PM 45.6°F7.6°C 43.1°F6.2°C 91% 5.3 mph WSW8.5 kmh WSW 8.0 mph12.9 kmh 29.44 in997.0 mb 0.02 in0.5 mm 0.00 in0.0 mm 0.34 in8.6 mm
12:39 PM 45.2°F7.3°C 42.7°F5.9°C 91% 6.0 mph W9.7 kmh W 8.0 mph12.9 kmh 29.44 in997.0 mb 0.02 in0.5 mm 0.00 in0.0 mm 0.34 in8.6 mm
12:40 PM 44.9°F7.2°C 42.4°F5.8°C 91% 6.0 mph WSW9.7 kmh WSW 8.0 mph12.9 kmh 29.44 in997.0 mb 0.02 in0.5 mm 0.00 in0.0 mm 0.34 in8.6 mm
12:41 PM 44.6°F7.0°C 42.1°F5.6°C 91% 7.0 mph WSW11.3 kmh WSW 7.0 mph11.3 kmh 29.44 in997.0 mb 0.02 in0.5 mm 0.00 in0.0 mm 0.34 in8.6 mm
12:42 PM 44.4°F6.9°C 41.9°F5.5°C 91% 7.3 mph WSW11.7 kmh WSW 8.0 mph12.9 kmh 29.44 in997.0 mb 0.02 in0.5 mm 0.00 in0.0 mm 0.34 in8.6 mm
12:43 PM 44.2°F6.8°C 41.7°F5.4°C 91% 7.1 mph WSW11.4 kmh WSW 8.0 mph12.9 kmh 29.44 in997.0 mb 0.02 in0.5 mm 0.00 in0.0 mm 0.34 in8.6 mm
12:44 PM 44.0°F6.7°C 41.5°F5.3°C 91% 7.2 mph WSW11.6 kmh WSW 8.0 mph12.9 kmh 29.44 in997.0 mb 0.02 in0.5 mm 0.00 in0.0 mm 0.34 in8.6 mm
12:45 PM 44.0°F6.7°C 41.5°F5.3°C 91% 7.4 mph WSW11.9 kmh WSW 8.0 mph12.9 kmh 29.44 in997.0 mb 0.03 in0.8 mm 0.60 in15.2 mm 0.35 in8.9 mm
12:46 PM 43.9°F6.6°C 41.4°F5.2°C 91% 6.8 mph WSW10.9 kmh WSW 8.0 mph12.9 kmh 29.44 in997.0 mb 0.03 in0.8 mm 0.00 in0.0 mm 0.35 in8.9 mm
12:47 PM 43.9°F6.6°C 41.7°F5.4°C 92% 7.5 mph WSW12.1 kmh WSW 8.0 mph12.9 kmh 29.44 in997.0 mb 0.03 in0.8 mm 0.00 in0.0 mm 0.35 in8.9 mm
12:48 PM 43.9°F6.6°C 41.7°F5.4°C 92% 7.0 mph WSW11.3 kmh WSW 8.0 mph12.9 kmh 29.44 in997.0 mb 0.03 in0.8 mm 0.00 in0.0 mm 0.35 in8.9 mm
12:49 PM 44.0°F6.7°C 41.8°F5.4°C 92% 6.8 mph WSW10.9 kmh WSW 8.0 mph12.9 kmh 29.44 in997.0 mb 0.03 in0.8 mm 0.00 in0.0 mm 0.35 in8.9 mm
12:50 PM 44.0°F6.7°C 41.8°F5.4°C 92% 6.9 mph WSW11.1 kmh WSW 9.0 mph14.5 kmh 29.44 in997.0 mb 0.03 in0.8 mm 0.00 in0.0 mm 0.35 in8.9 mm
12:51 PM 44.0°F6.7°C 41.8°F5.4°C 92% 7.8 mph SW12.6 kmh SW 11.0 mph17.7 kmh 29.44 in997.0 mb 0.04 in1.0 mm 0.60 in15.2 mm 0.35 in8.9 mm
12:52 PM 44.0°F6.7°C 41.8°F5.4°C 92% 6.8 mph SW10.9 kmh SW 11.0 mph17.7 kmh 29.44 in997.0 mb 0.04 in1.0 mm 0.00 in0.0 mm 0.35 in8.9 mm
12:53 PM 44.0°F6.7°C 41.8°F5.4°C 92% 9.7 mph SW15.6 kmh SW 13.0 mph20.9 kmh 29.44 in997.0 mb 0.03 in0.8 mm 0.00 in0.0 mm 0.35 in8.9 mm
12:54 PM 44.2°F6.8°C 42.3°F5.7°C 93% 10.0 mph SW16.1 kmh SW 12.0 mph19.3 kmh 29.44 in997.0 mb 0.03 in0.8 mm 0.00 in0.0 mm 0.35 in8.9 mm
12:55 PM 44.3°F6.8°C 42.4°F5.8°C 93% 10.0 mph SW16.1 kmh SW 13.0 mph20.9 kmh 29.45 in997.3 mb 0.03 in0.8 mm 0.00 in0.0 mm 0.35 in8.9 mm
12:56 PM 44.4°F6.9°C 42.5°F5.8°C 93% 11.3 mph SW18.2 kmh SW 12.0 mph19.3 kmh 29.45 in997.3 mb 0.03 in0.8 mm 0.00 in0.0 mm 0.35 in8.9 mm
12:57 PM 44.4°F6.9°C 42.5°F5.8°C 93% 10.4 mph SW16.7 kmh SW 12.0 mph19.3 kmh 29.45 in997.3 mb 0.03 in0.8 mm 0.00 in0.0 mm 0.35 in8.9 mm
12:58 PM 44.4°F6.9°C 42.2°F5.7°C 92% 10.6 mph WSW17.1 kmh WSW 12.0 mph19.3 kmh 29.45 in997.3 mb 0.03 in0.8 mm 0.00 in0.0 mm 0.35 in8.9 mm
12:59 PM 44.3°F6.8°C 42.1°F5.6°C 92% 10.6 mph WSW17.1 kmh WSW 12.0 mph19.3 kmh 29.45 in997.3 mb 0.02 in0.5 mm 0.00 in0.0 mm 0.35 in8.9 mm
01:00 PM 44.2°F6.8°C 42.0°F5.6°C 92% 10.4 mph WSW16.7 kmh WSW 12.0 mph19.3 kmh 29.45 in997.3 mb 0.02 in0.5 mm 0.00 in0.0 mm 0.35 in8.9 mm
01:01 PM 44.1°F6.7°C 41.9°F5.5°C 92% 10.0 mph WSW16.1 kmh WSW 11.0 mph17.7 kmh 29.45 in997.3 mb 0.02 in0.5 mm 0.00 in0.0 mm 0.35 in8.9 mm
01:02 PM 44.0°F6.7°C 41.8°F5.4°C 92% 9.5 mph WSW15.3 kmh WSW 11.0 mph17.7 kmh 29.45 in997.3 mb 0.02 in0.5 mm 0.00 in0.0 mm 0.35 in8.9 mm
01:03 PM 44.0°F6.7°C 41.8°F5.4°C 92% 9.5 mph WSW15.3 kmh WSW 11.0 mph17.7 kmh 29.45 in997.3 mb 0.02 in0.5 mm 0.00 in0.0 mm 0.35 in8.9 mm
01:04 PM 44.0°F6.7°C 41.8°F5.4°C 92% 9.0 mph WSW14.5 kmh WSW 10.0 mph16.1 kmh 29.45 in997.3 mb 0.02 in0.5 mm 0.00 in0.0 mm 0.35 in8.9 mm
01:05 PM 44.0°F6.7°C 41.8°F5.4°C 92% 9.0 mph WSW14.5 kmh WSW 10.0 mph16.1 kmh 29.45 in997.3 mb 0.02 in0.5 mm 0.00 in0.0 mm 0.35 in8.9 mm
01:06 PM 44.0°F6.7°C 41.8°F5.4°C 92% 10.2 mph WSW16.4 kmh WSW 11.0 mph17.7 kmh 29.45 in997.3 mb 0.02 in0.5 mm 0.00 in0.0 mm 0.35 in8.9 mm
01:07 PM 44.0°F6.7°C 41.8°F5.4°C 92% 10.0 mph WSW16.1 kmh WSW 12.0 mph19.3 kmh 29.45 in997.3 mb 0.02 in0.5 mm 0.00 in0.0 mm 0.35 in8.9 mm
01:08 PM 44.1°F6.7°C 42.2°F5.7°C 93% 9.5 mph SW15.3 kmh SW 12.0 mph19.3 kmh 29.45 in997.3 mb 0.02 in0.5 mm 0.00 in0.0 mm 0.35 in8.9 mm
01:09 PM 44.1°F6.7°C 42.2°F5.7°C 93% 10.5 mph SW16.9 kmh SW 12.0 mph19.3 kmh 29.45 in997.3 mb 0.02 in0.5 mm 0.00 in0.0 mm 0.35 in8.9 mm
01:10 PM 44.2°F6.8°C 42.3°F5.7°C 93% 11.1 mph WSW17.9 kmh WSW 13.0 mph20.9 kmh 29.45 in997.3 mb 0.02 in0.5 mm 0.00 in0.0 mm 0.35 in8.9 mm
01:11 PM 44.2°F6.8°C 42.0°F5.6°C 92% 12.0 mph WSW19.3 kmh WSW 13.0 mph20.9 kmh 29.45 in997.3 mb 0.02 in0.5 mm 0.00 in0.0 mm 0.35 in8.9 mm
01:12 PM 44.1°F6.7°C 41.9°F5.5°C 92% 11.0 mph WSW17.7 kmh WSW 12.0 mph19.3 kmh 29.45 in997.3 mb 0.02 in0.5 mm 0.00 in0.0 mm 0.35 in8.9 mm
01:13 PM 44.0°F6.7°C 41.8°F5.4°C 92% 11.1 mph WSW17.9 kmh WSW 12.0 mph19.3 kmh 29.45 in997.3 mb 0.02 in0.5 mm 0.00 in0.0 mm 0.35 in8.9 mm
01:14 PM 44.0°F6.7°C 41.8°F5.4°C 92% 10.5 mph WSW16.9 kmh WSW 12.0 mph19.3 kmh 29.45 in997.3 mb 0.02 in0.5 mm 0.00 in0.0 mm 0.35 in8.9 mm
01:15 PM 43.8°F6.6°C 41.6°F5.3°C 92% 10.0 mph WSW16.1 kmh WSW 12.0 mph19.3 kmh 29.45 in997.3 mb 0.02 in0.5 mm 0.00 in0.0 mm 0.35 in8.9 mm
01:16 PM 43.7°F6.5°C 41.5°F5.3°C 92% 12.0 mph WSW19.3 kmh WSW 14.0 mph22.5 kmh 29.45 in997.3 mb 0.02 in0.5 mm 0.00 in0.0 mm 0.35 in8.9 mm
01:17 PM 43.6°F6.4°C 41.4°F5.2°C 92% 15.9 mph WSW25.6 kmh WSW 17.0 mph27.4 kmh 29.45 in997.3 mb 0.02 in0.5 mm 0.00 in0.0 mm 0.35 in8.9 mm
01:18 PM 43.7°F6.5°C 41.8°F5.4°C 93% 15.0 mph WSW24.1 kmh WSW 18.0 mph29.0 kmh 29.45 in997.3 mb 0.02 in0.5 mm 0.00 in0.0 mm 0.36 in9.1 mm
01:19 PM 43.7°F6.5°C 41.5°F5.3°C 92% 15.4 mph WSW24.8 kmh WSW 18.0 mph29.0 kmh 29.45 in997.3 mb 0.02 in0.5 mm 0.00 in0.0 mm 0.36 in9.1 mm
01:20 PM 43.8°F6.6°C 41.6°F5.3°C 92% 15.0 mph WSW24.1 kmh WSW 18.0 mph29.0 kmh 29.45 in997.3 mb 0.02 in0.5 mm 0.00 in0.0 mm 0.36 in9.1 mm
01:21 PM 43.7°F6.5°C 41.5°F5.3°C 92% 14.9 mph WSW24.0 kmh WSW 17.0 mph27.4 kmh 29.45 in997.3 mb 0.02 in0.5 mm 0.00 in0.0 mm 0.36 in9.1 mm
01:22 PM 43.6°F6.4°C 41.4°F5.2°C 92% 14.3 mph WSW23.0 kmh WSW 17.0 mph27.4 kmh 29.45 in997.3 mb 0.02 in0.5 mm 0.00 in0.0 mm 0.36 in9.1 mm
01:23 PM 43.6°F6.4°C 41.4°F5.2°C 92% 13.2 mph WSW21.2 kmh WSW 16.0 mph25.7 kmh 29.46 in997.6 mb 0.02 in0.5 mm 0.00 in0.0 mm 0.36 in9.1 mm
01:24 PM 43.7°F6.5°C 41.5°F5.3°C 92% 13.0 mph W20.9 kmh W 15.0 mph24.1 kmh 29.46 in997.6 mb 0.02 in0.5 mm 0.00 in0.0 mm 0.36 in9.1 mm
01:25 PM 43.6°F6.4°C 41.4°F5.2°C 92% 13.0 mph W20.9 kmh W 15.0 mph24.1 kmh 29.46 in997.6 mb 0.02 in0.5 mm 0.00 in0.0 mm 0.36 in9.1 mm
01:26 PM 43.6°F6.4°C 41.4°F5.2°C 92% 13.0 mph W20.9 kmh W 15.0 mph24.1 kmh 29.46 in997.6 mb 0.02 in0.5 mm 0.00 in0.0 mm 0.36 in9.1 mm
01:27 PM 43.6°F6.4°C 41.4°F5.2°C 92% 14.7 mph W23.7 kmh W 16.0 mph25.7 kmh 29.46 in997.6 mb 0.02 in0.5 mm 0.00 in0.0 mm 0.36 in9.1 mm
01:28 PM 43.6°F6.4°C 41.4°F5.2°C 92% 12.9 mph W20.8 kmh W 16.0 mph25.7 kmh 29.46 in997.6 mb 0.02 in0.5 mm 0.00 in0.0 mm 0.36 in9.1 mm
01:29 PM 43.6°F6.4°C 41.4°F5.2°C 92% 14.8 mph W23.8 kmh W 16.0 mph25.7 kmh 29.46 in997.6 mb 0.02 in0.5 mm 0.00 in0.0 mm 0.36 in9.1 mm
01:30 PM 43.5°F6.4°C 41.3°F5.2°C 92% 15.0 mph W24.1 kmh W 17.0 mph27.4 kmh 29.46 in997.6 mb 0.02 in0.5 mm 0.00 in0.0 mm 0.36 in9.1 mm
01:31 PM 43.4°F6.3°C 41.2°F5.1°C 92% 14.0 mph W22.5 kmh W 16.0 mph25.7 kmh 29.46 in997.6 mb 0.02 in0.5 mm 0.00 in0.0 mm 0.36 in9.1 mm
01:32 PM 43.4°F6.3°C 41.2°F5.1°C 92% 14.0 mph W22.5 kmh W 17.0 mph27.4 kmh 29.46 in997.6 mb 0.02 in0.5 mm 0.00 in0.0 mm 0.36 in9.1 mm
01:33 PM 43.3°F6.3°C 41.1°F5.1°C 92% 16.0 mph W25.7 kmh W 17.0 mph27.4 kmh 29.46 in997.6 mb 0.02 in0.5 mm 0.00 in0.0 mm 0.36 in9.1 mm
01:34 PM 43.3°F6.3°C 41.1°F5.1°C 92% 15.4 mph W24.8 kmh W 18.0 mph29.0 kmh 29.46 in997.6 mb 0.02 in0.5 mm 0.00 in0.0 mm 0.36 in9.1 mm
01:35 PM 43.2°F6.2°C 41.0°F5.0°C 92% 16.0 mph W25.7 kmh W 18.0 mph29.0 kmh 29.46 in997.6 mb 0.02 in0.5 mm 0.00 in0.0 mm 0.36 in9.1 mm
01:36 PM 43.2°F6.2°C 41.0°F5.0°C 92% 16.0 mph W25.7 kmh W 18.0 mph29.0 kmh 29.46 in997.6 mb 0.02 in0.5 mm 0.00 in0.0 mm 0.36 in9.1 mm
01:37 PM 43.1°F6.2°C 40.9°F4.9°C 92% 16.0 mph W25.7 kmh W 18.0 mph29.0 kmh 29.46 in997.6 mb 0.02 in0.5 mm 0.00 in0.0 mm 0.36 in9.1 mm
01:38 PM 43.1°F6.2°C 40.9°F4.9°C 92% 16.8 mph W27.0 kmh W 19.0 mph30.6 kmh 29.46 in997.6 mb 0.02 in0.5 mm 0.00 in0.0 mm 0.36 in9.1 mm
01:39 PM 43.1°F6.2°C 40.9°F4.9°C 92% 16.1 mph W25.9 kmh W 19.0 mph30.6 kmh 29.46 in997.6 mb 0.02 in0.5 mm 0.00 in0.0 mm 0.36 in9.1 mm
01:40 PM 43.1°F6.2°C 40.9°F4.9°C 92% 17.0 mph W27.4 kmh W 19.0 mph30.6 kmh 29.47 in998.0 mb 0.02 in0.5 mm 0.00 in0.0 mm 0.36 in9.1 mm
01:41 PM 43.2°F6.2°C 41.0°F5.0°C 92% 15.0 mph W24.1 kmh W 18.0 mph29.0 kmh 29.47 in998.0 mb 0.02 in0.5 mm 0.00 in0.0 mm 0.36 in9.1 mm
01:42 PM 43.1°F6.2°C 40.9°F4.9°C 92% 16.0 mph W25.7 kmh W 17.0 mph27.4 kmh 29.46 in997.6 mb 0.02 in0.5 mm 0.00 in0.0 mm 0.36 in9.1 mm
01:43 PM 43.1°F6.2°C 40.9°F4.9°C 92% 16.5 mph W26.6 kmh W 19.0 mph30.6 kmh 29.47 in998.0 mb 0.02 in0.5 mm 0.00 in0.0 mm 0.36 in9.1 mm
01:44 PM 43.0°F6.1°C 40.8°F4.9°C 92% 14.0 mph WSW22.5 kmh WSW 19.0 mph30.6 kmh 29.47 in998.0 mb 0.02 in0.5 mm 0.00 in0.0 mm 0.36 in9.1 mm
01:45 PM 43.1°F6.2°C 40.9°F4.9°C 92% 16.0 mph WSW25.7 kmh WSW 18.0 mph29.0 kmh 29.47 in998.0 mb 0.02 in0.5 mm 0.00 in0.0 mm 0.36 in9.1 mm
01:46 PM 43.0°F6.1°C 40.8°F4.9°C 92% 14.7 mph W23.7 kmh W 18.0 mph29.0 kmh 29.47 in998.0 mb 0.02 in0.5 mm 0.00 in0.0 mm 0.36 in9.1 mm
01:47 PM 43.0°F6.1°C 40.8°F4.9°C 92% 14.7 mph W23.7 kmh W 17.0 mph27.4 kmh 29.47 in998.0 mb 0.02 in0.5 mm 0.00 in0.0 mm 0.36 in9.1 mm
01:48 PM 43.0°F6.1°C 40.8°F4.9°C 92% 14.6 mph W23.5 kmh W 17.0 mph27.4 kmh 29.47 in998.0 mb 0.02 in0.5 mm 0.00 in0.0 mm 0.36 in9.1 mm
01:49 PM 43.1°F6.2°C 40.9°F4.9°C 92% 15.7 mph W25.3 kmh W 18.0 mph29.0 kmh 29.47 in998.0 mb 0.02 in0.5 mm 0.00 in0.0 mm 0.36 in9.1 mm
01:50 PM 43.0°F6.1°C 40.8°F4.9°C 92% 14.8 mph WSW23.8 kmh WSW 18.0 mph29.0 kmh 29.47 in998.0 mb 0.02 in0.5 mm 0.00 in0.0 mm 0.36 in9.1 mm
01:51 PM 42.9°F6.1°C 40.7°F4.8°C 92% 15.0 mph W24.1 kmh W 17.0 mph27.4 kmh 29.47 in998.0 mb 0.01 in0.3 mm 0.00 in0.0 mm 0.36 in9.1 mm
01:52 PM 42.9°F6.1°C 40.7°F4.8°C 92% 14.9 mph W24.0 kmh W 17.0 mph27.4 kmh 29.47 in998.0 mb 0.01 in0.3 mm 0.00 in0.0 mm 0.36 in9.1 mm
01:53 PM 42.9°F6.1°C 40.7°F4.8°C 92% 15.0 mph WSW24.1 kmh WSW 17.0 mph27.4 kmh 29.47 in998.0 mb 0.01 in0.3 mm 0.00 in0.0 mm 0.36 in9.1 mm
01:54 PM 42.9°F6.1°C 40.7°F4.8°C 92% 15.1 mph W24.3 kmh W 18.0 mph29.0 kmh 29.47 in998.0 mb 0.01 in0.3 mm 0.00 in0.0 mm 0.36 in9.1 mm
01:55 PM 42.8°F6.0°C 40.6°F4.8°C 92% 13.8 mph W22.2 kmh W 18.0 mph29.0 kmh 29.47 in998.0 mb 0.01 in0.3 mm 0.00 in0.0 mm 0.36 in9.1 mm
01:56 PM 42.8°F6.0°C 40.6°F4.8°C 92% 16.2 mph W26.1 kmh W 18.0 mph29.0 kmh 29.47 in998.0 mb 0.01 in0.3 mm 0.00 in0.0 mm 0.36 in9.1 mm
01:57 PM 42.8°F6.0°C 40.6°F4.8°C 92% 16.0 mph W25.7 kmh W 17.0 mph27.4 kmh 29.48 in998.3 mb 0.02 in0.5 mm 0.60 in15.2 mm 0.37 in9.4 mm
01:58 PM 42.8°F6.0°C 40.6°F4.8°C 92% 16.0 mph W25.7 kmh W 17.0 mph27.4 kmh 29.48 in998.3 mb 0.02 in0.5 mm 0.00 in0.0 mm 0.37 in9.4 mm
01:59 PM 42.9°F6.1°C 40.7°F4.8°C 92% 16.0 mph W25.7 kmh W 19.0 mph30.6 kmh 29.48 in998.3 mb 0.02 in0.5 mm 0.00 in0.0 mm 0.37 in9.4 mm
02:00 PM 42.9°F6.1°C 40.7°F4.8°C 92% 18.0 mph W29.0 kmh W 20.0 mph32.2 kmh 29.48 in998.3 mb 0.02 in0.5 mm 0.00 in0.0 mm 0.37 in9.4 mm
02:01 PM 42.8°F6.0°C 40.6°F4.8°C 92% 15.4 mph W24.8 kmh W 20.0 mph32.2 kmh 29.48 in998.3 mb 0.02 in0.5 mm 0.00 in0.0 mm 0.37 in9.4 mm
02:02 PM 42.9°F6.1°C 40.7°F4.8°C 92% 15.0 mph W24.1 kmh W 18.0 mph29.0 kmh 29.48 in998.3 mb 0.02 in0.5 mm 0.00 in0.0 mm 0.37 in9.4 mm
02:03 PM 42.9°F6.1°C 40.5°F4.7°C 91% 15.8 mph W25.4 kmh W 21.0 mph33.8 kmh 29.48 in998.3 mb 0.02 in0.5 mm 0.00 in0.0 mm 0.37 in9.4 mm
02:04 PM 42.8°F6.0°C 40.4°F4.7°C 91% 19.6 mph WNW31.5 kmh WNW 24.0 mph38.6 kmh 29.48 in998.3 mb 0.02 in0.5 mm 0.00 in0.0 mm 0.37 in9.4 mm
02:05 PM 42.7°F5.9°C 40.3°F4.6°C 91% 18.5 mph WNW29.8 kmh WNW 24.0 mph38.6 kmh 29.48 in998.3 mb 0.02 in0.5 mm 0.00 in0.0 mm 0.37 in9.4 mm
02:06 PM 42.6°F5.9°C 40.2°F4.6°C 91% 18.9 mph W30.4 kmh W 24.0 mph38.6 kmh 29.48 in998.3 mb 0.02 in0.5 mm 0.00 in0.0 mm 0.37 in9.4 mm
02:07 PM 42.5°F5.8°C 40.1°F4.5°C 91% 20.2 mph WNW32.5 kmh WNW 24.0 mph38.6 kmh 29.48 in998.3 mb 0.02 in0.5 mm 0.00 in0.0 mm 0.37 in9.4 mm
02:08 PM 42.5°F5.8°C 40.1°F4.5°C 91% 22.6 mph WNW36.4 kmh WNW 26.0 mph41.8 kmh 29.48 in998.3 mb 0.02 in0.5 mm 0.00 in0.0 mm 0.37 in9.4 mm
02:09 PM 42.3°F5.7°C 39.9°F4.4°C 91% 21.2 mph W34.1 kmh W 26.0 mph41.8 kmh 29.48 in998.3 mb 0.02 in0.5 mm 0.00 in0.0 mm 0.37 in9.4 mm
02:10 PM 42.1°F5.6°C 39.7°F4.3°C 91% 20.0 mph WNW32.2 kmh WNW 25.0 mph40.2 kmh 29.49 in998.6 mb 0.02 in0.5 mm 0.00 in0.0 mm 0.37 in9.4 mm
02:11 PM 42.0°F5.6°C 39.6°F4.2°C 91% 21.0 mph WNW33.8 kmh WNW 27.0 mph43.5 kmh 29.49 in998.6 mb 0.02 in0.5 mm 0.00 in0.0 mm 0.37 in9.4 mm
02:12 PM 41.9°F5.5°C 39.5°F4.2°C 91% 20.2 mph WNW32.5 kmh WNW 21.0 mph33.8 kmh 29.49 in998.6 mb 0.02 in0.5 mm 0.00 in0.0 mm 0.37 in9.4 mm
02:13 PM 41.8°F5.4°C 39.4°F4.1°C 91% 22.7 mph WNW36.5 kmh WNW 27.0 mph43.5 kmh 29.49 in998.6 mb 0.02 in0.5 mm 0.00 in0.0 mm 0.37 in9.4 mm
02:14 PM 41.6°F5.3°C 39.2°F4.0°C 91% 22.9 mph WNW36.9 kmh WNW 27.0 mph43.5 kmh 29.49 in998.6 mb 0.02 in0.5 mm 0.00 in0.0 mm 0.37 in9.4 mm
02:15 PM 41.6°F5.3°C 39.2°F4.0°C 91% 23.0 mph WNW37.0 kmh WNW 27.0 mph43.5 kmh 29.49 in998.6 mb 0.02 in0.5 mm 0.00 in0.0 mm 0.37 in9.4 mm
02:16 PM 41.4°F5.2°C 39.0°F3.9°C 91% 21.4 mph WNW34.4 kmh WNW 27.0 mph43.5 kmh 29.49 in998.6 mb 0.02 in0.5 mm 0.00 in0.0 mm 0.37 in9.4 mm
02:17 PM 41.3°F5.2°C 38.9°F3.8°C 91% 23.4 mph WNW37.7 kmh WNW 28.0 mph45.1 kmh 29.49 in998.6 mb 0.02 in0.5 mm 0.00 in0.0 mm 0.37 in9.4 mm
02:18 PM 41.2°F5.1°C 38.8°F3.8°C 91% 25.0 mph WNW40.2 kmh WNW 30.0 mph48.3 kmh 29.50 in999.0 mb 0.01 in0.3 mm 0.00 in0.0 mm 0.37 in9.4 mm
02:19 PM 41.0°F5.0°C 38.6°F3.7°C 91% 24.2 mph WNW38.9 kmh WNW 30.0 mph48.3 kmh 29.50 in999.0 mb 0.01 in0.3 mm 0.00 in0.0 mm 0.37 in9.4 mm
02:20 PM 41.0°F5.0°C 38.6°F3.7°C 91% 25.0 mph WNW40.2 kmh WNW 28.0 mph45.1 kmh 29.50 in999.0 mb 0.01 in0.3 mm 0.00 in0.0 mm 0.37 in9.4 mm
02:21 PM 40.8°F4.9°C 38.4°F3.6°C 91% 21.4 mph WNW34.4 kmh WNW 27.0 mph43.5 kmh 29.50 in999.0 mb 0.01 in0.3 mm 0.00 in0.0 mm 0.37 in9.4 mm
02:22 PM 40.8°F4.9°C 38.4°F3.6°C 91% 19.9 mph WNW32.0 kmh WNW 24.0 mph38.6 kmh 29.50 in999.0 mb 0.01 in0.3 mm 0.00 in0.0 mm 0.37 in9.4 mm
02:23 PM 40.7°F4.8°C 38.3°F3.5°C 91% 23.9 mph NW38.5 kmh NW 28.0 mph45.1 kmh 29.50 in999.0 mb 0.01 in0.3 mm 0.00 in0.0 mm 0.37 in9.4 mm
02:24 PM 40.6°F4.8°C 38.2°F3.4°C 91% 23.3 mph NW37.5 kmh NW 28.0 mph45.1 kmh 29.50 in999.0 mb 0.01 in0.3 mm 0.00 in0.0 mm 0.37 in9.4 mm
02:25 PM 40.4°F4.7°C 38.0°F3.3°C 91% 23.0 mph NW37.0 kmh NW 26.0 mph41.8 kmh 29.50 in999.0 mb 0.01 in0.3 mm 0.00 in0.0 mm 0.37 in9.4 mm
02:26 PM 40.3°F4.6°C 37.9°F3.3°C 91% 24.2 mph NW38.9 kmh NW 28.0 mph45.1 kmh 29.50 in999.0 mb 0.01 in0.3 mm 0.00 in0.0 mm 0.37 in9.4 mm
02:27 PM 40.2°F4.6°C 37.5°F3.1°C 90% 29.0 mph NW46.7 kmh NW 34.0 mph54.7 kmh 29.51 in999.3 mb 0.01 in0.3 mm 0.00 in0.0 mm 0.37 in9.4 mm
02:28 PM 40.0°F4.4°C 37.3°F2.9°C 90% 31.7 mph NW51.0 kmh NW 34.0 mph54.7 kmh 29.51 in999.3 mb 0.01 in0.3 mm 0.00 in0.0 mm 0.37 in9.4 mm
02:29 PM 40.0°F4.4°C 37.3°F2.9°C 90% 26.1 mph NW42.0 kmh NW 34.0 mph54.7 kmh 29.51 in999.3 mb 0.01 in0.3 mm 0.00 in0.0 mm 0.37 in9.4 mm
02:30 PM 39.9°F4.4°C 37.2°F2.9°C 90% 25.5 mph NW41.0 kmh NW 30.0 mph48.3 kmh 29.51 in999.3 mb 0.01 in0.3 mm 0.00 in0.0 mm 0.37 in9.4 mm
02:31 PM 39.8°F4.3°C 37.1°F2.8°C 90% 28.5 mph NW45.9 kmh NW 33.0 mph53.1 kmh 29.51 in999.3 mb 0.01 in0.3 mm 0.00 in0.0 mm 0.37 in9.4 mm
02:32 PM 39.7°F4.3°C 36.7°F2.6°C 89% 28.4 mph WNW45.7 kmh WNW 34.0 mph54.7 kmh 29.51 in999.3 mb 0.01 in0.3 mm 0.00 in0.0 mm 0.37 in9.4 mm
02:33 PM 39.7°F4.3°C 36.7°F2.6°C 89% 26.6 mph NW42.8 kmh NW 34.0 mph54.7 kmh 29.51 in999.3 mb 0.01 in0.3 mm 0.00 in0.0 mm 0.37 in9.4 mm
02:34 PM 39.6°F4.2°C 36.6°F2.6°C 89% 26.0 mph NW41.8 kmh NW 33.0 mph53.1 kmh 29.52 in999.7 mb 0.01 in0.3 mm 0.00 in0.0 mm 0.37 in9.4 mm
02:35 PM 39.5°F4.2°C 36.8°F2.7°C 90% 24.1 mph NW38.8 kmh NW 29.0 mph46.7 kmh 29.52 in999.7 mb 0.01 in0.3 mm 0.00 in0.0 mm 0.37 in9.4 mm
02:36 PM 39.5°F4.2°C 36.8°F2.7°C 90% 23.9 mph NW38.5 kmh NW 28.0 mph45.1 kmh 29.52 in999.7 mb 0.01 in0.3 mm 0.00 in0.0 mm 0.37 in9.4 mm
02:37 PM 39.4°F4.1°C 36.7°F2.6°C 90% 22.0 mph NW35.4 kmh NW 27.0 mph43.5 kmh 29.52 in999.7 mb 0.01 in0.3 mm 0.00 in0.0 mm 0.37 in9.4 mm
02:38 PM 39.4°F4.1°C 36.7°F2.6°C 90% 22.6 mph NW36.4 kmh NW 30.0 mph48.3 kmh 29.52 in999.7 mb 0.01 in0.3 mm 0.00 in0.0 mm 0.37 in9.4 mm
02:39 PM 39.3°F4.1°C 36.3°F2.4°C 89% 28.5 mph NW45.9 kmh NW 33.0 mph53.1 kmh 29.52 in999.7 mb 0.01 in0.3 mm 0.00 in0.0 mm 0.37 in9.4 mm
02:40 PM 39.3°F4.1°C 36.3°F2.4°C 89% 25.1 mph WNW40.4 kmh WNW 33.0 mph53.1 kmh 29.52 in999.7 mb 0.01 in0.3 mm 0.00 in0.0 mm 0.37 in9.4 mm
02:41 PM 39.4°F4.1°C 36.1°F2.3°C 88% 27.2 mph NW43.8 kmh NW 32.0 mph51.5 kmh 29.52 in999.7 mb 0.01 in0.3 mm 0.00 in0.0 mm 0.37 in9.4 mm
02:42 PM 39.4°F4.1°C 36.1°F2.3°C 88% 25.2 mph WNW40.6 kmh WNW 32.0 mph51.5 kmh 29.52 in999.7 mb 0.01 in0.3 mm 0.00 in0.0 mm 0.37 in9.4 mm
02:43 PM 39.4°F4.1°C 36.1°F2.3°C 88% 28.7 mph NW46.2 kmh NW 36.0 mph57.9 kmh 29.52 in999.7 mb 0.01 in0.3 mm 0.00 in0.0 mm 0.37 in9.4 mm
02:44 PM 39.5°F4.2°C 36.0°F2.2°C 87% 27.6 mph WNW44.4 kmh WNW 36.0 mph57.9 kmh 29.52 in999.7 mb 0.01 in0.3 mm 0.00 in0.0 mm 0.37 in9.4 mm
02:45 PM 39.6°F4.2°C 36.1°F2.3°C 87% 25.9 mph NW41.7 kmh NW 31.0 mph49.9 kmh 29.53 in1000.0 mb 0.01 in0.3 mm 0.00 in0.0 mm 0.37 in9.4 mm
02:46 PM 39.6°F4.2°C 36.1°F2.3°C 87% 26.2 mph NW42.2 kmh NW 31.0 mph49.9 kmh 29.53 in1000.0 mb 0.01 in0.3 mm 0.00 in0.0 mm 0.37 in9.4 mm
02:47 PM 39.7°F4.3°C 35.9°F2.2°C 86% 27.7 mph NW44.6 kmh NW 32.0 mph51.5 kmh 29.53 in1000.0 mb 0.01 in0.3 mm 0.00 in0.0 mm 0.37 in9.4 mm
02:48 PM 39.7°F4.3°C 35.9°F2.2°C 86% 26.2 mph NW42.2 kmh NW 32.0 mph51.5 kmh 29.53 in1000.0 mb 0.01 in0.3 mm 0.00 in0.0 mm 0.37 in9.4 mm
02:49 PM 39.8°F4.3°C 35.7°F2.1°C 85% 23.8 mph WNW38.3 kmh WNW 29.0 mph46.7 kmh 29.53 in1000.0 mb 0.01 in0.3 mm 0.00 in0.0 mm 0.37 in9.4 mm
02:50 PM 39.7°F4.3°C 35.9°F2.2°C 86% 24.0 mph NW38.6 kmh NW 28.0 mph45.1 kmh 29.53 in1000.0 mb 0.01 in0.3 mm 0.00 in0.0 mm 0.37 in9.4 mm
02:51 PM 39.8°F4.3°C 36.0°F2.2°C 86% 22.9 mph NW36.9 kmh NW 28.0 mph45.1 kmh 29.53 in1000.0 mb 0.01 in0.3 mm 0.00 in0.0 mm 0.37 in9.4 mm
02:52 PM 39.8°F4.3°C 36.0°F2.2°C 86% 23.3 mph NW37.5 kmh NW 28.0 mph45.1 kmh 29.53 in1000.0 mb 0.01 in0.3 mm 0.00 in0.0 mm 0.37 in9.4 mm
02:53 PM 39.7°F4.3°C 35.9°F2.2°C 86% 23.7 mph NW38.1 kmh NW 31.0 mph49.9 kmh 29.53 in1000.0 mb 0.01 in0.3 mm 0.00 in0.0 mm 0.37 in9.4 mm
02:54 PM 39.8°F4.3°C 35.7°F2.1°C 85% 24.4 mph NW39.3 kmh NW 31.0 mph49.9 kmh 29.53 in1000.0 mb 0.01 in0.3 mm 0.00 in0.0 mm 0.37 in9.4 mm
02:55 PM 39.8°F4.3°C 35.7°F2.1°C 85% 26.9 mph NW43.3 kmh NW 30.0 mph48.3 kmh 29.53 in1000.0 mb 0.01 in0.3 mm 0.00 in0.0 mm 0.37 in9.4 mm
02:56 PM 39.9°F4.4°C 35.5°F1.9°C 84% 30.8 mph NW49.6 kmh NW 35.0 mph56.3 kmh 29.54 in1000.3 mb 0.01 in0.3 mm 0.00 in0.0 mm 0.37 in9.4 mm
02:57 PM 40.0°F4.4°C 35.6°F2.0°C 84% 28.9 mph NW46.5 kmh NW 35.0 mph56.3 kmh 29.53 in1000.0 mb 0.00 in0.0 mm 0.00 in0.0 mm 0.37 in9.4 mm
02:58 PM 40.1°F4.5°C 36.0°F2.2°C 85% 24.7 mph WNW39.8 kmh WNW 33.0 mph53.1 kmh 29.54 in1000.3 mb 0.00 in0.0 mm 0.00 in0.0 mm 0.37 in9.4 mm
02:59 PM 40.1°F4.5°C 35.7°F2.1°C 84% 25.2 mph NW40.6 kmh NW 32.0 mph51.5 kmh 29.54 in1000.3 mb 0.00 in0.0 mm 0.00 in0.0 mm 0.37 in9.4 mm
03:00 PM 40.1°F4.5°C 35.7°F2.1°C 84% 29.7 mph NW47.8 kmh NW 35.0 mph56.3 kmh 29.54 in1000.3 mb 0.00 in0.0 mm 0.00 in0.0 mm 0.37 in9.4 mm
03:01 PM 40.1°F4.5°C 35.4°F1.9°C 83% 29.4 mph NW47.3 kmh NW 35.0 mph56.3 kmh 29.54 in1000.3 mb 0.00 in0.0 mm 0.00 in0.0 mm 0.37 in9.4 mm
03:02 PM 40.1°F4.5°C 35.4°F1.9°C 83% 26.7 mph NW43.0 kmh NW 32.0 mph51.5 kmh 29.54 in1000.3 mb 0.00 in0.0 mm 0.00 in0.0 mm 0.37 in9.4 mm
03:03 PM 40.2°F4.6°C 35.5°F1.9°C 83% 30.8 mph NW49.6 kmh NW 33.0 mph53.1 kmh 29.54 in1000.3 mb 0.00 in0.0 mm 0.00 in0.0 mm 0.37 in9.4 mm
03:04 PM 40.2°F4.6°C 35.5°F1.9°C 83% 26.7 mph NW43.0 kmh NW 33.0 mph53.1 kmh 29.54 in1000.3 mb 0.00 in0.0 mm 0.00 in0.0 mm 0.37 in9.4 mm
03:05 PM 40.1°F4.5°C 35.4°F1.9°C 83% 29.6 mph NW47.6 kmh NW 33.0 mph53.1 kmh 29.54 in1000.3 mb 0.00 in0.0 mm 0.00 in0.0 mm 0.37 in9.4 mm
03:06 PM 40.2°F4.6°C 35.5°F1.9°C 83% 25.6 mph NW41.2 kmh NW 33.0 mph53.1 kmh 29.54 in1000.3 mb 0.00 in0.0 mm 0.00 in0.0 mm 0.37 in9.4 mm
03:07 PM 40.1°F4.5°C 35.4°F1.9°C 83% 26.3 mph NW42.3 kmh NW 30.0 mph48.3 kmh 29.54 in1000.3 mb 0.00 in0.0 mm 0.00 in0.0 mm 0.37 in9.4 mm
03:08 PM 40.1°F4.5°C 35.1°F1.7°C 82% 29.8 mph NW48.0 kmh NW 34.0 mph54.7 kmh 29.55 in1000.7 mb 0.00 in0.0 mm 0.00 in0.0 mm 0.37 in9.4 mm
03:09 PM 40.1°F4.5°C 35.1°F1.7°C 82% 28.9 mph NW46.5 kmh NW 34.0 mph54.7 kmh 29.55 in1000.7 mb 0.00 in0.0 mm 0.00 in0.0 mm 0.37 in9.4 mm
03:10 PM 40.2°F4.6°C 34.8°F1.6°C 81% 33.8 mph NW54.4 kmh NW 39.0 mph62.8 kmh 29.55 in1000.7 mb 0.00 in0.0 mm 0.00 in0.0 mm 0.37 in9.4 mm
03:11 PM 40.3°F4.6°C 34.9°F1.6°C 81% 32.2 mph NW51.8 kmh NW 39.0 mph62.8 kmh 29.55 in1000.7 mb 0.00 in0.0 mm 0.00 in0.0 mm 0.37 in9.4 mm
03:12 PM 40.4°F4.7°C 35.0°F1.7°C 81% 27.7 mph NW44.6 kmh NW 36.0 mph57.9 kmh 29.55 in1000.7 mb 0.00 in0.0 mm 0.00 in0.0 mm 0.37 in9.4 mm
03:13 PM 40.3°F4.6°C 34.9°F1.6°C 81% 31.4 mph NW50.5 kmh NW 36.0 mph57.9 kmh 29.55 in1000.7 mb 0.00 in0.0 mm 0.00 in0.0 mm 0.37 in9.4 mm
03:14 PM 40.4°F4.7°C 34.7°F1.5°C 80% 28.9 mph NW46.5 kmh NW 36.0 mph57.9 kmh 29.55 in1000.7 mb 0.00 in0.0 mm 0.00 in0.0 mm 0.37 in9.4 mm
03:15 PM 40.4°F4.7°C 34.7°F1.5°C 80% 28.5 mph NW45.9 kmh NW 33.0 mph53.1 kmh 29.55 in1000.7 mb 0.00 in0.0 mm 0.00 in0.0 mm 0.37 in9.4 mm
03:16 PM 40.4°F4.7°C 34.7°F1.5°C 80% 26.5 mph NW42.6 kmh NW 32.0 mph51.5 kmh 29.55 in1000.7 mb 0.00 in0.0 mm 0.00 in0.0 mm 0.37 in9.4 mm
03:17 PM 40.5°F4.7°C 34.8°F1.6°C 80% 26.0 mph NW41.8 kmh NW 32.0 mph51.5 kmh 29.56 in1001.0 mb 0.00 in0.0 mm 0.00 in0.0 mm 0.37 in9.4 mm
03:18 PM 40.5°F4.7°C 34.8°F1.6°C 80% 30.8 mph NW49.6 kmh NW 36.0 mph57.9 kmh 29.56 in1001.0 mb 0.00 in0.0 mm 0.00 in0.0 mm 0.37 in9.4 mm
03:19 PM 40.5°F4.7°C 34.5°F1.4°C 79% 29.5 mph NW47.5 kmh NW 36.0 mph57.9 kmh 29.56 in1001.0 mb 0.00 in0.0 mm 0.00 in0.0 mm 0.37 in9.4 mm
03:20 PM 40.6°F4.8°C 34.9°F1.6°C 80% 28.4 mph NW45.7 kmh NW 33.0 mph53.1 kmh 29.56 in1001.0 mb 0.00 in0.0 mm 0.00 in0.0 mm 0.37 in9.4 mm
03:21 PM 40.6°F4.8°C 34.6°F1.4°C 79% 28.2 mph NW45.4 kmh NW 33.0 mph53.1 kmh 29.56 in1001.0 mb 0.00 in0.0 mm 0.00 in0.0 mm 0.37 in9.4 mm
03:22 PM 40.6°F4.8°C 34.6°F1.4°C 79% 27.5 mph NW44.3 kmh NW 33.0 mph53.1 kmh 29.56 in1001.0 mb 0.00 in0.0 mm 0.00 in0.0 mm 0.37 in9.4 mm
03:23 PM 40.7°F4.8°C 34.4°F1.3°C 78% 27.5 mph NW44.3 kmh NW 32.0 mph51.5 kmh 29.56 in1001.0 mb 0.00 in0.0 mm 0.00 in0.0 mm 0.37 in9.4 mm
03:24 PM 40.7°F4.8°C 34.7°F1.5°C 79% 28.4 mph NW45.7 kmh NW 33.0 mph53.1 kmh 29.56 in1001.0 mb 0.00 in0.0 mm 0.00 in0.0 mm 0.37 in9.4 mm
03:25 PM 40.7°F4.8°C 34.7°F1.5°C 79% 27.6 mph NW44.4 kmh NW 33.0 mph53.1 kmh 29.56 in1001.0 mb 0.00 in0.0 mm 0.00 in0.0 mm 0.37 in9.4 mm
03:26 PM 40.7°F4.8°C 34.7°F1.5°C 79% 26.2 mph NW42.2 kmh NW 32.0 mph51.5 kmh 29.57 in1001.4 mb 0.00 in0.0 mm 0.00 in0.0 mm 0.37 in9.4 mm
03:27 PM 40.7°F4.8°C 34.7°F1.5°C 79% 26.6 mph NW42.8 kmh NW 33.0 mph53.1 kmh 29.57 in1001.4 mb 0.00 in0.0 mm 0.00 in0.0 mm 0.37 in9.4 mm
03:28 PM 40.8°F4.9°C 34.5°F1.4°C 78% 32.8 mph NW52.8 kmh NW 40.0 mph64.4 kmh 29.57 in1001.4 mb 0.00 in0.0 mm 0.00 in0.0 mm 0.37 in9.4 mm
03:29 PM 40.9°F4.9°C 34.3°F1.3°C 77% 30.2 mph NW48.6 kmh NW 40.0 mph64.4 kmh 29.57 in1001.4 mb 0.00 in0.0 mm 0.00 in0.0 mm 0.37 in9.4 mm
03:30 PM 40.9°F4.9°C 34.6°F1.4°C 78% 27.9 mph NW44.9 kmh NW 35.0 mph56.3 kmh 29.57 in1001.4 mb 0.00 in0.0 mm 0.00 in0.0 mm 0.37 in9.4 mm
03:31 PM 40.9°F4.9°C 34.3°F1.3°C 77% 34.0 mph NW54.7 kmh NW 39.0 mph62.8 kmh 29.57 in1001.4 mb 0.00 in0.0 mm 0.00 in0.0 mm 0.37 in9.4 mm
03:32 PM 40.9°F4.9°C 34.3°F1.3°C 77% 32.5 mph NW52.3 kmh NW 39.0 mph62.8 kmh 29.57 in1001.4 mb 0.00 in0.0 mm 0.00 in0.0 mm 0.37 in9.4 mm
03:33 PM 40.9°F4.9°C 34.3°F1.3°C 77% 30.5 mph NW49.1 kmh NW 38.0 mph61.2 kmh 29.57 in1001.4 mb 0.00 in0.0 mm 0.00 in0.0 mm 0.37 in9.4 mm
03:34 PM 40.9°F4.9°C 34.3°F1.3°C 77% 32.4 mph NW52.1 kmh NW 36.0 mph57.9 kmh 29.57 in1001.4 mb 0.00 in0.0 mm 0.00 in0.0 mm 0.37 in9.4 mm
03:35 PM 40.9°F4.9°C 34.3°F1.3°C 77% 30.1 mph NW48.4 kmh NW 36.0 mph57.9 kmh 29.57 in1001.4 mb 0.00 in0.0 mm 0.00 in0.0 mm 0.37 in9.4 mm
03:36 PM 40.8°F4.9°C 34.2°F1.2°C 77% 27.5 mph NW44.3 kmh NW 34.0 mph54.7 kmh 29.57 in1001.4 mb 0.00 in0.0 mm 0.00 in0.0 mm 0.37 in9.4 mm
03:37 PM 40.8°F4.9°C 34.5°F1.4°C 78% 28.5 mph NW45.9 kmh NW 36.0 mph57.9 kmh 29.57 in1001.4 mb 0.00 in0.0 mm 0.00 in0.0 mm 0.37 in9.4 mm
03:38 PM 40.9°F4.9°C 34.3°F1.3°C 77% 31.2 mph NW50.2 kmh NW 36.0 mph57.9 kmh 29.58 in1001.7 mb 0.00 in0.0 mm 0.00 in0.0 mm 0.37 in9.4 mm
03:39 PM 40.9°F4.9°C 34.3°F1.3°C 77% 31.4 mph NW50.5 kmh NW 36.0 mph57.9 kmh 29.58 in1001.7 mb 0.00 in0.0 mm 0.00 in0.0 mm 0.37 in9.4 mm
03:40 PM 41.0°F5.0°C 34.4°F1.3°C 77% 31.2 mph NW50.2 kmh NW 36.0 mph57.9 kmh 29.57 in1001.4 mb 0.00 in0.0 mm 0.00 in0.0 mm 0.37 in9.4 mm
03:41 PM 41.0°F5.0°C 34.4°F1.3°C 77% 33.1 mph NW53.3 kmh NW 37.0 mph59.5 kmh 29.58 in1001.7 mb 0.00 in0.0 mm 0.00 in0.0 mm 0.37 in9.4 mm
03:42 PM 41.0°F5.0°C 34.4°F1.3°C 77% 30.2 mph NW48.6 kmh NW 37.0 mph59.5 kmh 29.58 in1001.7 mb 0.00 in0.0 mm 0.00 in0.0 mm 0.37 in9.4 mm
03:43 PM 40.9°F4.9°C 34.3°F1.3°C 77% 28.9 mph NW46.5 kmh NW 36.0 mph57.9 kmh 29.57 in1001.4 mb 0.00 in0.0 mm 0.00 in0.0 mm 0.37 in9.4 mm
03:44 PM 41.0°F5.0°C 34.7°F1.5°C 78% 30.1 mph NW48.4 kmh NW 34.0 mph54.7 kmh 29.58 in1001.7 mb 0.00 in0.0 mm 0.00 in0.0 mm 0.37 in9.4 mm
03:45 PM 41.0°F5.0°C 34.4°F1.3°C 77% 32.0 mph NW51.5 kmh NW 40.0 mph64.4 kmh 29.58 in1001.7 mb 0.00 in0.0 mm 0.00 in0.0 mm 0.37 in9.4 mm
03:46 PM 41.0°F5.0°C 34.4°F1.3°C 77% 34.6 mph NW55.7 kmh NW 40.0 mph64.4 kmh 29.58 in1001.7 mb 0.00 in0.0 mm 0.00 in0.0 mm 0.37 in9.4 mm
03:47 PM 41.1°F5.1°C 34.1°F1.2°C 76% 37.4 mph NW60.2 kmh NW 42.0 mph67.6 kmh 29.58 in1001.7 mb 0.01 in0.3 mm 0.60 in15.2 mm 0.38 in9.7 mm
03:48 PM 41.2°F5.1°C 34.2°F1.2°C 76% 31.4 mph NW50.5 kmh NW 42.0 mph67.6 kmh 29.58 in1001.7 mb 0.01 in0.3 mm 0.00 in0.0 mm 0.38 in9.7 mm
03:49 PM 41.0°F5.0°C 34.4°F1.3°C 77% 26.1 mph NW42.0 kmh NW 36.0 mph57.9 kmh 29.58 in1001.7 mb 0.01 in0.3 mm 0.00 in0.0 mm 0.38 in9.7 mm
03:50 PM 41.1°F5.1°C 34.1°F1.2°C 76% 32.2 mph NW51.8 kmh NW 35.0 mph56.3 kmh 29.58 in1001.7 mb 0.01 in0.3 mm 0.00 in0.0 mm 0.38 in9.7 mm
03:51 PM 41.1°F5.1°C 34.4°F1.3°C 77% 24.8 mph NW39.9 kmh NW 35.0 mph56.3 kmh 29.58 in1001.7 mb 0.01 in0.3 mm 0.00 in0.0 mm 0.38 in9.7 mm
03:52 PM 41.0°F5.0°C 34.7°F1.5°C 78% 26.5 mph NW42.6 kmh NW 30.0 mph48.3 kmh 29.58 in1001.7 mb 0.01 in0.3 mm 0.00 in0.0 mm 0.38 in9.7 mm
03:53 PM 41.0°F5.0°C 34.4°F1.3°C 77% 25.9 mph NW41.7 kmh NW 31.0 mph49.9 kmh 29.58 in1001.7 mb 0.01 in0.3 mm 0.00 in0.0 mm 0.38 in9.7 mm
03:54 PM 41.0°F5.0°C 34.4°F1.3°C 77% 29.4 mph NW47.3 kmh NW 35.0 mph56.3 kmh 29.58 in1001.7 mb 0.01 in0.3 mm 0.00 in0.0 mm 0.38 in9.7 mm
03:55 PM 41.1°F5.1°C 34.1°F1.2°C 76% 35.5 mph NW57.1 kmh NW 40.0 mph64.4 kmh 29.58 in1001.7 mb 0.01 in0.3 mm 0.00 in0.0 mm 0.38 in9.7 mm
03:56 PM 41.2°F5.1°C 34.2°F1.2°C 76% 31.6 mph NW50.9 kmh NW 40.0 mph64.4 kmh 29.58 in1001.7 mb 0.01 in0.3 mm 0.00 in0.0 mm 0.38 in9.7 mm
03:57 PM 41.2°F5.1°C 34.2°F1.2°C 76% 33.5 mph NW53.9 kmh NW 37.0 mph59.5 kmh 29.58 in1001.7 mb 0.01 in0.3 mm 0.00 in0.0 mm 0.38 in9.7 mm
03:58 PM 41.3°F5.2°C 34.3°F1.3°C 76% 31.9 mph NW51.3 kmh NW 37.0 mph59.5 kmh 29.58 in1001.7 mb 0.01 in0.3 mm 0.00 in0.0 mm 0.38 in9.7 mm
03:59 PM 41.2°F5.1°C 34.2°F1.2°C 76% 33.0 mph NW53.1 kmh NW 38.0 mph61.2 kmh 29.59 in1002.0 mb 0.01 in0.3 mm 0.00 in0.0 mm 0.38 in9.7 mm
04:00 PM 41.2°F5.1°C 34.2°F1.2°C 76% 35.1 mph NW56.5 kmh NW 38.0 mph61.2 kmh 29.59 in1002.0 mb 0.01 in0.3 mm 0.00 in0.0 mm 0.38 in9.7 mm
04:01 PM 41.2°F5.1°C 33.9°F1.1°C 75% 31.2 mph NW50.2 kmh NW 38.0 mph61.2 kmh 29.59 in1002.0 mb 0.01 in0.3 mm 0.00 in0.0 mm 0.38 in9.7 mm
04:02 PM 41.2°F5.1°C 33.9°F1.1°C 75% 37.3 mph NW60.0 kmh NW 43.0 mph69.2 kmh 29.59 in1002.0 mb 0.01 in0.3 mm 0.00 in0.0 mm 0.38 in9.7 mm
04:03 PM 41.3°F5.2°C 34.0°F1.1°C 75% 33.5 mph NW53.9 kmh NW 43.0 mph69.2 kmh 29.59 in1002.0 mb 0.01 in0.3 mm 0.00 in0.0 mm 0.38 in9.7 mm
04:04 PM 41.3°F5.2°C 34.0°F1.1°C 75% 33.3 mph NW53.6 kmh NW 38.0 mph61.2 kmh 29.59 in1002.0 mb 0.01 in0.3 mm 0.00 in0.0 mm 0.38 in9.7 mm
04:05 PM 41.3°F5.2°C 34.0°F1.1°C 75% 34.7 mph NW55.8 kmh NW 39.0 mph62.8 kmh 29.59 in1002.0 mb 0.01 in0.3 mm 0.00 in0.0 mm 0.38 in9.7 mm
04:06 PM 41.3°F5.2°C 34.0°F1.1°C 75% 30.5 mph NW49.1 kmh NW 39.0 mph62.8 kmh 29.59 in1002.0 mb 0.01 in0.3 mm 0.00 in0.0 mm 0.38 in9.7 mm
04:07 PM 41.2°F5.1°C 34.2°F1.2°C 76% 29.6 mph NW47.6 kmh NW 35.0 mph56.3 kmh 29.59 in1002.0 mb 0.01 in0.3 mm 0.00 in0.0 mm 0.38 in9.7 mm
04:08 PM 41.2°F5.1°C 33.9°F1.1°C 75% 30.6 mph NW49.2 kmh NW 37.0 mph59.5 kmh 29.59 in1002.0 mb 0.01 in0.3 mm 0.00 in0.0 mm 0.38 in9.7 mm
04:09 PM 41.3°F5.2°C 33.6°F0.9°C 74% 35.1 mph NW56.5 kmh NW 41.0 mph66.0 kmh 29.60 in1002.4 mb 0.01 in0.3 mm 0.00 in0.0 mm 0.38 in9.7 mm
04:10 PM 41.4°F5.2°C 33.4°F0.8°C 73% 36.5 mph NW58.7 kmh NW 43.0 mph69.2 kmh 29.60 in1002.4 mb 0.01 in0.3 mm 0.00 in0.0 mm 0.38 in9.7 mm
04:11 PM 41.4°F5.2°C 33.7°F0.9°C 74% 35.6 mph NW57.3 kmh NW 43.0 mph69.2 kmh 29.60 in1002.4 mb 0.01 in0.3 mm 0.00 in0.0 mm 0.38 in9.7 mm
04:12 PM 41.4°F5.2°C 33.4°F0.8°C 73% 35.1 mph NW56.5 kmh NW 46.0 mph74.0 kmh 29.60 in1002.4 mb 0.01 in0.3 mm 0.00 in0.0 mm 0.38 in9.7 mm
04:13 PM 41.4°F5.2°C 33.7°F0.9°C 74% 29.9 mph NW48.1 kmh NW 46.0 mph74.0 kmh 29.60 in1002.4 mb 0.01 in0.3 mm 0.00 in0.0 mm 0.38 in9.7 mm
04:14 PM 41.4°F5.2°C 33.4°F0.8°C 73% 35.6 mph NW57.3 kmh NW 42.0 mph67.6 kmh 29.60 in1002.4 mb 0.01 in0.3 mm 0.00 in0.0 mm 0.38 in9.7 mm
04:15 PM 41.5°F5.3°C 33.5°F0.8°C 73% 33.3 mph NW53.6 kmh NW 42.0 mph67.6 kmh 29.60 in1002.4 mb 0.01 in0.3 mm 0.00 in0.0 mm 0.38 in9.7 mm
04:16 PM 41.5°F5.3°C 33.8°F1.0°C 74% 27.7 mph NW44.6 kmh NW 38.0 mph61.2 kmh 29.60 in1002.4 mb 0.01 in0.3 mm 0.00 in0.0 mm 0.38 in9.7 mm
04:17 PM 41.5°F5.3°C 33.8°F1.0°C 74% 35.0 mph NW56.3 kmh NW 42.0 mph67.6 kmh 29.61 in1002.7 mb 0.01 in0.3 mm 0.00 in0.0 mm 0.38 in9.7 mm
04:18 PM 41.5°F5.3°C 33.5°F0.8°C 73% 34.8 mph NW56.0 kmh NW 42.0 mph67.6 kmh 29.60 in1002.4 mb 0.01 in0.3 mm 0.00 in0.0 mm 0.38 in9.7 mm
04:19 PM 41.6°F5.3°C 33.6°F0.9°C 73% 33.9 mph NW54.6 kmh NW 39.0 mph62.8 kmh 29.61 in1002.7 mb 0.01 in0.3 mm 0.00 in0.0 mm 0.38 in9.7 mm
04:20 PM 41.5°F5.3°C 33.8°F1.0°C 74% 28.9 mph NW46.5 kmh NW 38.0 mph61.2 kmh 29.61 in1002.7 mb 0.01 in0.3 mm 0.00 in0.0 mm 0.38 in9.7 mm
04:21 PM 41.6°F5.3°C 33.6°F0.9°C 73% 31.4 mph WNW50.5 kmh WNW 36.0 mph57.9 kmh 29.61 in1002.7 mb 0.01 in0.3 mm 0.00 in0.0 mm 0.38 in9.7 mm
04:22 PM 41.6°F5.3°C 33.3°F0.7°C 72% 31.5 mph NW50.7 kmh NW 37.0 mph59.5 kmh 29.61 in1002.7 mb 0.01 in0.3 mm 0.00 in0.0 mm 0.38 in9.7 mm
04:23 PM 41.6°F5.3°C 33.3°F0.7°C 72% 36.6 mph NW58.9 kmh NW 46.0 mph74.0 kmh 29.61 in1002.7 mb 0.01 in0.3 mm 0.00 in0.0 mm 0.38 in9.7 mm
04:24 PM 41.6°F5.3°C 32.6°F0.3°C 70% 38.1 mph NW61.3 kmh NW 46.0 mph74.0 kmh 29.61 in1002.7 mb 0.01 in0.3 mm 0.00 in0.0 mm 0.38 in9.7 mm
04:25 PM 41.7°F5.4°C 32.6°F0.3°C 70% 35.5 mph NW57.1 kmh NW 43.0 mph69.2 kmh 29.61 in1002.7 mb 0.01 in0.3 mm 0.00 in0.0 mm 0.38 in9.7 mm
04:26 PM 41.8°F5.4°C 32.7°F0.4°C 70% 37.1 mph NW59.7 kmh NW 41.0 mph66.0 kmh 29.61 in1002.7 mb 0.01 in0.3 mm 0.00 in0.0 mm 0.38 in9.7 mm
04:27 PM 41.7°F5.4°C 32.6°F0.3°C 70% 34.2 mph NW55.0 kmh NW 43.0 mph69.2 kmh 29.62 in1003.0 mb 0.01 in0.3 mm 0.00 in0.0 mm 0.38 in9.7 mm
04:28 PM 41.8°F5.4°C 33.1°F0.6°C 71% 35.3 mph NW56.8 kmh NW 43.0 mph69.2 kmh 29.62 in1003.0 mb 0.01 in0.3 mm 0.00 in0.0 mm 0.38 in9.7 mm
04:29 PM 41.8°F5.4°C 32.4°F0.2°C 69% 35.9 mph WNW57.8 kmh WNW 45.0 mph72.4 kmh 29.62 in1003.0 mb 0.01 in0.3 mm 0.00 in0.0 mm 0.38 in9.7 mm
04:30 PM 41.8°F5.4°C 32.4°F0.2°C 69% 37.6 mph NW60.5 kmh NW 45.0 mph72.4 kmh 29.62 in1003.0 mb 0.01 in0.3 mm 0.00 in0.0 mm 0.38 in9.7 mm
04:31 PM 41.8°F5.4°C 32.7°F0.4°C 70% 33.1 mph NW53.3 kmh NW 45.0 mph72.4 kmh 29.62 in1003.0 mb 0.01 in0.3 mm 0.00 in0.0 mm 0.38 in9.7 mm
04:32 PM 41.8°F5.4°C 33.1°F0.6°C 71% 32.7 mph NW52.6 kmh NW 39.0 mph62.8 kmh 29.62 in1003.0 mb 0.01 in0.3 mm 0.00 in0.0 mm 0.38 in9.7 mm
04:33 PM 41.6°F5.3°C 32.9°F0.5°C 71% 36.5 mph NW58.7 kmh NW 43.0 mph69.2 kmh 29.62 in1003.0 mb 0.01 in0.3 mm 0.00 in0.0 mm 0.38 in9.7 mm
04:34 PM 41.6°F5.3°C 32.6°F0.3°C 70% 35.0 mph WNW56.3 kmh WNW 43.0 mph69.2 kmh 29.62 in1003.0 mb 0.01 in0.3 mm 0.00 in0.0 mm 0.38 in9.7 mm
04:35 PM 41.8°F5.4°C 32.7°F0.4°C 70% 33.4 mph NW53.8 kmh NW 40.0 mph64.4 kmh 29.63 in1003.4 mb 0.01 in0.3 mm 0.00 in0.0 mm 0.38 in9.7 mm
04:36 PM 41.8°F5.4°C 33.1°F0.6°C 71% 33.3 mph NW53.6 kmh NW 40.0 mph64.4 kmh 29.63 in1003.4 mb 0.01 in0.3 mm 0.00 in0.0 mm 0.38 in9.7 mm
04:37 PM 41.8°F5.4°C 32.7°F0.4°C 70% 32.9 mph NW52.9 kmh NW 40.0 mph64.4 kmh 29.63 in1003.4 mb 0.01 in0.3 mm 0.00 in0.0 mm 0.38 in9.7 mm
04:38 PM 41.8°F5.4°C 32.7°F0.4°C 70% 30.5 mph NW49.1 kmh NW 38.0 mph61.2 kmh 29.63 in1003.4 mb 0.01 in0.3 mm 0.00 in0.0 mm 0.38 in9.7 mm
04:39 PM 41.7°F5.4°C 33.0°F0.6°C 71% 31.0 mph NW49.9 kmh NW 39.0 mph62.8 kmh 29.63 in1003.4 mb 0.01 in0.3 mm 0.00 in0.0 mm 0.38 in9.7 mm
04:40 PM 41.7°F5.4°C 32.6°F0.3°C 70% 33.6 mph NW54.1 kmh NW 39.0 mph62.8 kmh 29.63 in1003.4 mb 0.01 in0.3 mm 0.00 in0.0 mm 0.38 in9.7 mm
04:41 PM 41.7°F5.4°C 33.0°F0.6°C 71% 30.5 mph NW49.1 kmh NW 38.0 mph61.2 kmh 29.63 in1003.4 mb 0.01 in0.3 mm 0.00 in0.0 mm 0.38 in9.7 mm
04:42 PM 41.7°F5.4°C 33.0°F0.6°C 71% 31.5 mph NW50.7 kmh NW 36.0 mph57.9 kmh 29.63 in1003.4 mb 0.01 in0.3 mm 0.00 in0.0 mm 0.38 in9.7 mm
04:43 PM 41.6°F5.3°C 32.9°F0.5°C 71% 31.5 mph NW50.7 kmh NW 36.0 mph57.9 kmh 29.64 in1003.7 mb 0.01 in0.3 mm 0.00 in0.0 mm 0.38 in9.7 mm
04:44 PM 41.6°F5.3°C 33.3°F0.7°C 72% 29.2 mph NW47.0 kmh NW 35.0 mph56.3 kmh 29.63 in1003.4 mb 0.01 in0.3 mm 0.00 in0.0 mm 0.38 in9.7 mm
04:45 PM 41.7°F5.4°C 33.4°F0.8°C 72% 34.5 mph NW55.5 kmh NW 43.0 mph69.2 kmh 29.63 in1003.4 mb 0.01 in0.3 mm 0.00 in0.0 mm 0.38 in9.7 mm
04:46 PM 41.8°F5.4°C 32.4°F0.2°C 69% 34.7 mph NW55.8 kmh NW 43.0 mph69.2 kmh 29.64 in1003.7 mb 0.01 in0.3 mm 0.00 in0.0 mm 0.38 in9.7 mm
04:47 PM 41.6°F5.3°C 32.9°F0.5°C 71% 34.5 mph NW55.5 kmh NW 41.0 mph66.0 kmh 29.64 in1003.7 mb 0.00 in0.0 mm 0.00 in0.0 mm 0.38 in9.7 mm
04:48 PM 41.7°F5.4°C 32.6°F0.3°C 70% 36.3 mph NW58.4 kmh NW 41.0 mph66.0 kmh 29.64 in1003.7 mb 0.00 in0.0 mm 0.00 in0.0 mm 0.38 in9.7 mm
04:49 PM 41.7°F5.4°C 33.0°F0.6°C 71% 30.1 mph WNW48.4 kmh WNW 41.0 mph66.0 kmh 29.64 in1003.7 mb 0.00 in0.0 mm 0.00 in0.0 mm 0.38 in9.7 mm
04:50 PM 41.7°F5.4°C 32.6°F0.3°C 70% 34.6 mph NW55.7 kmh NW 38.0 mph61.2 kmh 29.64 in1003.7 mb 0.00 in0.0 mm 0.00 in0.0 mm 0.38 in9.7 mm
04:51 PM 41.6°F5.3°C 33.3°F0.7°C 72% 28.8 mph NW46.3 kmh NW 38.0 mph61.2 kmh 29.64 in1003.7 mb 0.00 in0.0 mm 0.00 in0.0 mm 0.38 in9.7 mm
04:52 PM 41.6°F5.3°C 33.3°F0.7°C 72% 30.7 mph NW49.4 kmh NW 35.0 mph56.3 kmh 29.64 in1003.7 mb 0.00 in0.0 mm 0.00 in0.0 mm 0.38 in9.7 mm
04:53 PM 41.7°F5.4°C 33.0°F0.6°C 71% 37.2 mph NW59.9 kmh NW 43.0 mph69.2 kmh 29.64 in1003.7 mb 0.00 in0.0 mm 0.00 in0.0 mm 0.38 in9.7 mm
04:54 PM 41.8°F5.4°C 33.1°F0.6°C 71% 31.3 mph NW50.4 kmh NW 43.0 mph69.2 kmh 29.64 in1003.7 mb 0.00 in0.0 mm 0.00 in0.0 mm 0.38 in9.7 mm
04:55 PM 41.8°F5.4°C 33.4°F0.8°C 72% 28.7 mph NW46.2 kmh NW 42.0 mph67.6 kmh 29.64 in1003.7 mb 0.00 in0.0 mm 0.00 in0.0 mm 0.38 in9.7 mm
04:56 PM 41.8°F5.4°C 33.4°F0.8°C 72% 32.4 mph NW52.1 kmh NW 38.0 mph61.2 kmh 29.64 in1003.7 mb 0.00 in0.0 mm 0.00 in0.0 mm 0.38 in9.7 mm
04:57 PM 41.9°F5.5°C 33.5°F0.8°C 72% 35.7 mph NW57.5 kmh NW 44.0 mph70.8 kmh 29.64 in1003.7 mb 0.00 in0.0 mm 0.00 in0.0 mm 0.38 in9.7 mm
04:58 PM 41.9°F5.5°C 33.2°F0.7°C 71% 37.6 mph NW60.5 kmh NW 44.0 mph70.8 kmh 29.65 in1004.1 mb 0.00 in0.0 mm 0.00 in0.0 mm 0.38 in9.7 mm
04:59 PM 42.0°F5.6°C 33.3°F0.7°C 71% 34.2 mph NW55.0 kmh NW 41.0 mph66.0 kmh 29.64 in1003.7 mb 0.00 in0.0 mm 0.00 in0.0 mm 0.38 in9.7 mm
05:00 PM 42.0°F5.6°C 33.6°F0.9°C 72% 32.0 mph NW51.5 kmh NW 39.0 mph62.8 kmh 29.65 in1004.1 mb 0.00 in0.0 mm 0.00 in0.0 mm 0.38 in9.7 mm
05:01 PM 41.9°F5.5°C 33.5°F0.8°C 72% 32.8 mph NW52.8 kmh NW 39.0 mph62.8 kmh 29.65 in1004.1 mb 0.00 in0.0 mm 0.00 in0.0 mm 0.38 in9.7 mm
05:02 PM 41.9°F5.5°C 33.5°F0.8°C 72% 35.5 mph NW57.1 kmh NW 41.0 mph66.0 kmh 29.65 in1004.1 mb 0.00 in0.0 mm 0.00 in0.0 mm 0.38 in9.7 mm
05:03 PM 41.9°F5.5°C 33.5°F0.8°C 72% 38.2 mph NW61.5 kmh NW 43.0 mph69.2 kmh 29.65 in1004.1 mb 0.00 in0.0 mm 0.00 in0.0 mm 0.38 in9.7 mm
05:04 PM 41.9°F5.5°C 33.5°F0.8°C 72% 31.6 mph NW50.9 kmh NW 43.0 mph69.2 kmh 29.65 in1004.1 mb 0.00 in0.0 mm 0.00 in0.0 mm 0.38 in9.7 mm
05:05 PM 41.9°F5.5°C 33.5°F0.8°C 72% 29.3 mph NW47.2 kmh NW 37.0 mph59.5 kmh 29.65 in1004.1 mb 0.00 in0.0 mm 0.00 in0.0 mm 0.38 in9.7 mm
05:06 PM 41.9°F5.5°C 33.9°F1.1°C 73% 29.3 mph NW47.2 kmh NW 34.0 mph54.7 kmh 29.65 in1004.1 mb 0.00 in0.0 mm 0.00 in0.0 mm 0.38 in9.7 mm
05:07 PM 41.8°F5.4°C 34.1°F1.2°C 74% 31.3 mph NW50.4 kmh NW 36.0 mph57.9 kmh 29.65 in1004.1 mb 0.00 in0.0 mm 0.00 in0.0 mm 0.38 in9.7 mm
05:08 PM 41.7°F5.4°C 34.0°F1.1°C 74% 28.1 mph NW45.2 kmh NW 36.0 mph57.9 kmh 29.65 in1004.1 mb 0.00 in0.0 mm 0.00 in0.0 mm 0.38 in9.7 mm
05:09 PM 41.8°F5.4°C 34.1°F1.2°C 74% 27.7 mph NW44.6 kmh NW 33.0 mph53.1 kmh 29.65 in1004.1 mb 0.00 in0.0 mm 0.00 in0.0 mm 0.38 in9.7 mm
05:10 PM 41.8°F5.4°C 34.1°F1.2°C 74% 26.8 mph WNW43.1 kmh WNW 36.0 mph57.9 kmh 29.65 in1004.1 mb 0.00 in0.0 mm 0.00 in0.0 mm 0.38 in9.7 mm
05:11 PM 41.9°F5.5°C 33.9°F1.1°C 73% 29.5 mph WNW47.5 kmh WNW 36.0 mph57.9 kmh 29.65 in1004.1 mb 0.00 in0.0 mm 0.00 in0.0 mm 0.38 in9.7 mm
05:12 PM 41.9°F5.5°C 33.5°F0.8°C 72% 31.2 mph NW50.2 kmh NW 36.0 mph57.9 kmh 29.65 in1004.1 mb 0.00 in0.0 mm 0.00 in0.0 mm 0.38 in9.7 mm
05:13 PM 41.9°F5.5°C 33.9°F1.1°C 73% 28.8 mph NW46.3 kmh NW 36.0 mph57.9 kmh 29.66 in1004.4 mb 0.00 in0.0 mm 0.00 in0.0 mm 0.38 in9.7 mm
05:14 PM 41.9°F5.5°C 34.2°F1.2°C 74% 29.0 mph NW46.7 kmh NW 36.0 mph57.9 kmh 29.66 in1004.4 mb 0.00 in0.0 mm 0.00 in0.0 mm 0.38 in9.7 mm
05:15 PM 41.8°F5.4°C 33.8°F1.0°C 73% 29.8 mph NW48.0 kmh NW 36.0 mph57.9 kmh 29.66 in1004.4 mb 0.00 in0.0 mm 0.00 in0.0 mm 0.38 in9.7 mm
05:16 PM 41.8°F5.4°C 33.8°F1.0°C 73% 30.8 mph NW49.6 kmh NW 34.0 mph54.7 kmh 29.66 in1004.4 mb 0.00 in0.0 mm 0.00 in0.0 mm 0.38 in9.7 mm
05:17 PM 41.8°F5.4°C 34.1°F1.2°C 74% 26.4 mph NW42.5 kmh NW 34.0 mph54.7 kmh 29.66 in1004.4 mb 0.00 in0.0 mm 0.00 in0.0 mm 0.38 in9.7 mm
05:18 PM 41.8°F5.4°C 33.8°F1.0°C 73% 27.0 mph NW43.5 kmh NW 33.0 mph53.1 kmh 29.66 in1004.4 mb 0.00 in0.0 mm 0.00 in0.0 mm 0.38 in9.7 mm
05:19 PM 41.8°F5.4°C 33.8°F1.0°C 73% 28.3 mph NW45.5 kmh NW 33.0 mph53.1 kmh 29.66 in1004.4 mb 0.00 in0.0 mm 0.00 in0.0 mm 0.38 in9.7 mm
05:20 PM 41.8°F5.4°C 33.8°F1.0°C 73% 25.6 mph NW41.2 kmh NW 33.0 mph53.1 kmh 29.66 in1004.4 mb 0.00 in0.0 mm 0.00 in0.0 mm 0.38 in9.7 mm
05:21 PM 41.8°F5.4°C 34.1°F1.2°C 74% 27.0 mph NW43.5 kmh NW 32.0 mph51.5 kmh 29.66 in1004.4 mb 0.00 in0.0 mm 0.00 in0.0 mm 0.38 in9.7 mm
05:22 PM 41.8°F5.4°C 34.1°F1.2°C 74% 29.5 mph NW47.5 kmh NW 41.0 mph66.0 kmh 29.66 in1004.4 mb 0.00 in0.0 mm 0.00 in0.0 mm 0.38 in9.7 mm
05:23 PM 41.8°F5.4°C 33.4°F0.8°C 72% 33.2 mph NW53.4 kmh NW 41.0 mph66.0 kmh 29.66 in1004.4 mb 0.00 in0.0 mm 0.00 in0.0 mm 0.38 in9.7 mm
05:24 PM 41.8°F5.4°C 33.4°F0.8°C 72% 32.2 mph NW51.8 kmh NW 41.0 mph66.0 kmh 29.66 in1004.4 mb 0.00 in0.0 mm 0.00 in0.0 mm 0.38 in9.7 mm
05:25 PM 41.7°F5.4°C 33.7°F0.9°C 73% 32.7 mph NW52.6 kmh NW 38.0 mph61.2 kmh 29.66 in1004.4 mb 0.00 in0.0 mm 0.00 in0.0 mm 0.38 in9.7 mm
05:26 PM 41.6°F5.3°C 33.6°F0.9°C 73% 32.6 mph NW52.5 kmh NW 37.0 mph59.5 kmh 29.66 in1004.4 mb 0.00 in0.0 mm 0.00 in0.0 mm 0.38 in9.7 mm
05:27 PM 41.6°F5.3°C 33.6°F0.9°C 73% 30.7 mph NW49.4 kmh NW 37.0 mph59.5 kmh 29.66 in1004.4 mb 0.00 in0.0 mm 0.00 in0.0 mm 0.38 in9.7 mm
05:28 PM 41.6°F5.3°C 33.6°F0.9°C 73% 27.7 mph WNW44.6 kmh WNW 35.0 mph56.3 kmh 29.66 in1004.4 mb 0.00 in0.0 mm 0.00 in0.0 mm 0.38 in9.7 mm
05:29 PM 41.5°F5.3°C 33.8°F1.0°C 74% 27.3 mph NW43.9 kmh NW 39.0 mph62.8 kmh 29.66 in1004.4 mb 0.00 in0.0 mm 0.00 in0.0 mm 0.38 in9.7 mm
05:30 PM 41.5°F5.3°C 33.5°F0.8°C 73% 32.1 mph NW51.7 kmh NW 39.0 mph62.8 kmh 29.66 in1004.4 mb 0.00 in0.0 mm 0.00 in0.0 mm 0.38 in9.7 mm
05:31 PM 41.5°F5.3°C 33.5°F0.8°C 73% 32.2 mph NW51.8 kmh NW 37.0 mph59.5 kmh 29.67 in1004.7 mb 0.00 in0.0 mm 0.00 in0.0 mm 0.38 in9.7 mm
05:32 PM 41.4°F5.2°C 33.7°F0.9°C 74% 26.2 mph NW42.2 kmh NW 37.0 mph59.5 kmh 29.67 in1004.7 mb 0.00 in0.0 mm 0.00 in0.0 mm 0.38 in9.7 mm
05:33 PM 41.5°F5.3°C 33.8°F1.0°C 74% 26.6 mph NW42.8 kmh NW 31.0 mph49.9 kmh 29.67 in1004.7 mb 0.00 in0.0 mm 0.00 in0.0 mm 0.38 in9.7 mm
05:34 PM 41.4°F5.2°C 34.1°F1.2°C 75% 24.0 mph NW38.6 kmh NW 31.0 mph49.9 kmh 29.67 in1004.7 mb 0.00 in0.0 mm 0.00 in0.0 mm 0.38 in9.7 mm
05:35 PM 41.3°F5.2°C 34.0°F1.1°C 75% 21.9 mph NW35.2 kmh NW 29.0 mph46.7 kmh 29.67 in1004.7 mb 0.00 in0.0 mm 0.00 in0.0 mm 0.38 in9.7 mm
05:36 PM 41.3°F5.2°C 34.0°F1.1°C 75% 28.2 mph NW45.4 kmh NW 33.0 mph53.1 kmh 29.67 in1004.7 mb 0.00 in0.0 mm 0.00 in0.0 mm 0.38 in9.7 mm
05:37 PM 41.4°F5.2°C 33.7°F0.9°C 74% 30.7 mph NW49.4 kmh NW 36.0 mph57.9 kmh 29.67 in1004.7 mb 0.00 in0.0 mm 0.00 in0.0 mm 0.38 in9.7 mm
05:38 PM 41.4°F5.2°C 34.1°F1.2°C 75% 25.9 mph NW41.7 kmh NW 36.0 mph57.9 kmh 29.67 in1004.7 mb 0.00 in0.0 mm 0.00 in0.0 mm 0.38 in9.7 mm
05:39 PM 41.4°F5.2°C 33.7°F0.9°C 74% 25.0 mph WNW40.2 kmh WNW 30.0 mph48.3 kmh 29.67 in1004.7 mb 0.00 in0.0 mm 0.00 in0.0 mm 0.38 in9.7 mm
05:40 PM 41.5°F5.3°C 34.2°F1.2°C 75% 24.7 mph WNW39.8 kmh WNW 29.0 mph46.7 kmh 29.67 in1004.7 mb 0.00 in0.0 mm 0.00 in0.0 mm 0.38 in9.7 mm
05:41 PM 41.5°F5.3°C 33.8°F1.0°C 74% 29.0 mph WNW46.7 kmh WNW 35.0 mph56.3 kmh 29.67 in1004.7 mb 0.00 in0.0 mm 0.00 in0.0 mm 0.38 in9.7 mm
05:42 PM 41.5°F5.3°C 34.2°F1.2°C 75% 28.8 mph WNW46.3 kmh WNW 36.0 mph57.9 kmh 29.67 in1004.7 mb 0.00 in0.0 mm 0.00 in0.0 mm 0.38 in9.7 mm
05:43 PM 41.5°F5.3°C 33.2°F0.7°C 72% 30.1 mph WNW48.4 kmh WNW 37.0 mph59.5 kmh 29.68 in1005.1 mb 0.00 in0.0 mm 0.00 in0.0 mm 0.38 in9.7 mm
05:44 PM 41.5°F5.3°C 33.5°F0.8°C 73% 28.6 mph WNW46.0 kmh WNW 37.0 mph59.5 kmh 29.68 in1005.1 mb 0.00 in0.0 mm 0.00 in0.0 mm 0.38 in9.7 mm
05:45 PM 41.5°F5.3°C 33.2°F0.7°C 72% 30.8 mph WNW49.6 kmh WNW 37.0 mph59.5 kmh 29.68 in1005.1 mb 0.00 in0.0 mm 0.00 in0.0 mm 0.38 in9.7 mm
05:46 PM 41.6°F5.3°C 33.3°F0.7°C 72% 29.9 mph NW48.1 kmh NW 37.0 mph59.5 kmh 29.68 in1005.1 mb 0.00 in0.0 mm 0.00 in0.0 mm 0.38 in9.7 mm
05:47 PM 41.6°F5.3°C 33.3°F0.7°C 72% 28.3 mph NW45.5 kmh NW 37.0 mph59.5 kmh 29.68 in1005.1 mb 0.00 in0.0 mm 0.00 in0.0 mm 0.38 in9.7 mm
05:48 PM 41.6°F5.3°C 32.9°F0.5°C 71% 29.3 mph NW47.2 kmh NW 36.0 mph57.9 kmh 29.68 in1005.1 mb 0.00 in0.0 mm 0.00 in0.0 mm 0.38 in9.7 mm
05:49 PM 41.6°F5.3°C 32.9°F0.5°C 71% 29.6 mph NW47.6 kmh NW 36.0 mph57.9 kmh 29.68 in1005.1 mb 0.00 in0.0 mm 0.00 in0.0 mm 0.38 in9.7 mm
05:50 PM 41.6°F5.3°C 32.9°F0.5°C 71% 31.7 mph WNW51.0 kmh WNW 38.0 mph61.2 kmh 29.68 in1005.1 mb 0.00 in0.0 mm 0.00 in0.0 mm 0.38 in9.7 mm
05:51 PM 41.6°F5.3°C 32.9°F0.5°C 71% 31.6 mph NW50.9 kmh NW 38.0 mph61.2 kmh 29.68 in1005.1 mb 0.00 in0.0 mm 0.00 in0.0 mm 0.38 in9.7 mm
05:52 PM 41.6°F5.3°C 32.9°F0.5°C 71% 30.1 mph NW48.4 kmh NW 39.0 mph62.8 kmh 29.68 in1005.1 mb 0.00 in0.0 mm 0.00 in0.0 mm 0.38 in9.7 mm
05:53 PM 41.5°F5.3°C 33.2°F0.7°C 72% 30.9 mph NW49.7 kmh NW 39.0 mph62.8 kmh 29.68 in1005.1 mb 0.00 in0.0 mm 0.00 in0.0 mm 0.38 in9.7 mm
05:54 PM 41.6°F5.3°C 32.9°F0.5°C 71% 33.2 mph NW53.4 kmh NW 37.0 mph59.5 kmh 29.68 in1005.1 mb 0.00 in0.0 mm 0.00 in0.0 mm 0.38 in9.7 mm
05:55 PM 41.7°F5.4°C 32.6°F0.3°C 70% 31.0 mph NW49.9 kmh NW 38.0 mph61.2 kmh 29.68 in1005.1 mb 0.00 in0.0 mm 0.00 in0.0 mm 0.38 in9.7 mm
05:56 PM 41.6°F5.3°C 32.9°F0.5°C 71% 23.4 mph WNW37.7 kmh WNW 38.0 mph61.2 kmh 29.68 in1005.1 mb 0.00 in0.0 mm 0.00 in0.0 mm 0.38 in9.7 mm
05:57 PM 41.6°F5.3°C 33.3°F0.7°C 72% 29.7 mph WNW47.8 kmh WNW 34.0 mph54.7 kmh 29.69 in1005.4 mb 0.00 in0.0 mm 0.00 in0.0 mm 0.38 in9.7 mm
05:58 PM 41.6°F5.3°C 33.3°F0.7°C 72% 23.4 mph WNW37.7 kmh WNW 34.0 mph54.7 kmh 29.69 in1005.4 mb 0.00 in0.0 mm 0.00 in0.0 mm 0.38 in9.7 mm
05:59 PM 41.6°F5.3°C 32.9°F0.5°C 71% 24.2 mph WNW38.9 kmh WNW 31.0 mph49.9 kmh 29.69 in1005.4 mb 0.00 in0.0 mm 0.00 in0.0 mm 0.38 in9.7 mm
06:00 PM 41.5°F5.3°C 33.2°F0.7°C 72% 26.5 mph WNW42.6 kmh WNW 31.0 mph49.9 kmh 29.69 in1005.4 mb 0.00 in0.0 mm 0.00 in0.0 mm 0.38 in9.7 mm
06:01 PM 41.5°F5.3°C 33.2°F0.7°C 72% 22.9 mph NW36.9 kmh NW 31.0 mph49.9 kmh 29.69 in1005.4 mb 0.00 in0.0 mm 0.00 in0.0 mm 0.38 in9.7 mm
06:02 PM 41.5°F5.3°C 33.2°F0.7°C 72% 26.1 mph WNW42.0 kmh WNW 30.0 mph48.3 kmh 29.69 in1005.4 mb 0.00 in0.0 mm 0.00 in0.0 mm 0.38 in9.7 mm
06:03 PM 41.6°F5.3°C 33.3°F0.7°C 72% 28.0 mph WNW45.1 kmh WNW 31.0 mph49.9 kmh 29.69 in1005.4 mb 0.00 in0.0 mm 0.00 in0.0 mm 0.38 in9.7 mm
06:04 PM 41.6°F5.3°C 32.9°F0.5°C 71% 25.1 mph WNW40.4 kmh WNW 31.0 mph49.9 kmh 29.69 in1005.4 mb 0.00 in0.0 mm 0.00 in0.0 mm 0.38 in9.7 mm
06:05 PM 41.5°F5.3°C 33.2°F0.7°C 72% 24.6 mph WNW39.6 kmh WNW 34.0 mph54.7 kmh 29.69 in1005.4 mb 0.00 in0.0 mm 0.00 in0.0 mm 0.38 in9.7 mm
06:06 PM 41.5°F5.3°C 33.2°F0.7°C 72% 28.8 mph WNW46.3 kmh WNW 34.0 mph54.7 kmh 29.69 in1005.4 mb 0.00 in0.0 mm 0.00 in0.0 mm 0.38 in9.7 mm
06:07 PM 41.5°F5.3°C 33.2°F0.7°C 72% 27.8 mph WNW44.7 kmh WNW 34.0 mph54.7 kmh 29.69 in1005.4 mb 0.00 in0.0 mm 0.00 in0.0 mm 0.38 in9.7 mm
06:08 PM 41.5°F5.3°C 33.2°F0.7°C 72% 23.5 mph WNW37.8 kmh WNW 34.0 mph54.7 kmh 29.69 in1005.4 mb 0.00 in0.0 mm 0.00 in0.0 mm 0.38 in9.7 mm
06:09 PM 41.4°F5.2°C 33.4°F0.8°C 73% 25.3 mph WNW40.7 kmh WNW 32.0 mph51.5 kmh 29.70 in1005.8 mb 0.00 in0.0 mm 0.00 in0.0 mm 0.38 in9.7 mm
06:10 PM 41.5°F5.3°C 32.8°F0.4°C 71% 25.5 mph WNW41.0 kmh WNW 32.0 mph51.5 kmh 29.70 in1005.8 mb 0.00 in0.0 mm 0.00 in0.0 mm 0.38 in9.7 mm
06:11 PM 41.5°F5.3°C 32.8°F0.4°C 71% 28.3 mph WNW45.5 kmh WNW 32.0 mph51.5 kmh 29.70 in1005.8 mb 0.00 in0.0 mm 0.00 in0.0 mm 0.38 in9.7 mm
06:12 PM 41.5°F5.3°C 32.8°F0.4°C 71% 28.5 mph WNW45.9 kmh WNW 32.0 mph51.5 kmh 29.70 in1005.8 mb 0.00 in0.0 mm 0.00 in0.0 mm 0.38 in9.7 mm
06:13 PM 41.5°F5.3°C 32.8°F0.4°C 71% 24.6 mph WNW39.6 kmh WNW 32.0 mph51.5 kmh 29.70 in1005.8 mb 0.00 in0.0 mm 0.00 in0.0 mm 0.38 in9.7 mm
06:14 PM 41.5°F5.3°C 32.5°F0.3°C 70% 28.7 mph NW46.2 kmh NW 32.0 mph51.5 kmh 29.70 in1005.8 mb 0.00 in0.0 mm 0.00 in0.0 mm 0.38 in9.7 mm
06:15 PM 41.5°F5.3°C 32.8°F0.4°C 71% 26.6 mph WNW42.8 kmh WNW 33.0 mph53.1 kmh 29.70 in1005.8 mb 0.00 in0.0 mm 0.00 in0.0 mm 0.38 in9.7 mm
06:16 PM 41.5°F5.3°C 33.2°F0.7°C 72% 21.9 mph WNW35.2 kmh WNW 33.0 mph53.1 kmh 29.70 in1005.8 mb 0.00 in0.0 mm 0.00 in0.0 mm 0.38 in9.7 mm
06:17 PM 41.4°F5.2°C 33.1°F0.6°C 72% 24.3 mph WNW39.1 kmh WNW 27.0 mph43.5 kmh 29.70 in1005.8 mb 0.00 in0.0 mm 0.00 in0.0 mm 0.38 in9.7 mm
06:18 PM 41.4°F5.2°C 33.1°F0.6°C 72% 25.8 mph NW41.5 kmh NW 30.0 mph48.3 kmh 29.70 in1005.8 mb 0.00 in0.0 mm 0.00 in0.0 mm 0.38 in9.7 mm
06:19 PM 41.4°F5.2°C 33.4°F0.8°C 73% 22.4 mph WNW36.0 kmh WNW 30.0 mph48.3 kmh 29.70 in1005.8 mb 0.00 in0.0 mm 0.00 in0.0 mm 0.38 in9.7 mm
06:20 PM 41.3°F5.2°C 33.0°F0.6°C 72% 26.9 mph WNW43.3 kmh WNW 36.0 mph57.9 kmh 29.70 in1005.8 mb 0.00 in0.0 mm 0.00 in0.0 mm 0.38 in9.7 mm
06:21 PM 41.4°F5.2°C 32.7°F0.4°C 71% 30.0 mph WNW48.3 kmh WNW 37.0 mph59.5 kmh 29.70 in1005.8 mb 0.00 in0.0 mm 0.00 in0.0 mm 0.38 in9.7 mm
06:22 PM 41.4°F5.2°C 33.1°F0.6°C 72% 30.6 mph NW49.2 kmh NW 37.0 mph59.5 kmh 29.70 in1005.8 mb 0.00 in0.0 mm 0.00 in0.0 mm 0.38 in9.7 mm
06:23 PM 41.4°F5.2°C 32.7°F0.4°C 71% 26.4 mph WNW42.5 kmh WNW 37.0 mph59.5 kmh 29.70 in1005.8 mb 0.00 in0.0 mm 0.00 in0.0 mm 0.38 in9.7 mm
06:24 PM 41.4°F5.2°C 33.1°F0.6°C 72% 26.5 mph NW42.6 kmh NW 29.0 mph46.7 kmh 29.70 in1005.8 mb 0.00 in0.0 mm 0.00 in0.0 mm 0.38 in9.7 mm
06:25 PM 41.3°F5.2°C 33.0°F0.6°C 72% 30.7 mph NW49.4 kmh NW 35.0 mph56.3 kmh 29.70 in1005.8 mb 0.00 in0.0 mm 0.00 in0.0 mm 0.38 in9.7 mm
06:26 PM 41.4°F5.2°C 32.7°F0.4°C 71% 32.4 mph WNW52.1 kmh WNW 39.0 mph62.8 kmh 29.70 in1005.8 mb 0.00 in0.0 mm 0.00 in0.0 mm 0.38 in9.7 mm
06:27 PM 41.3°F5.2°C 33.0°F0.6°C 72% 29.6 mph NW47.6 kmh NW 39.0 mph62.8 kmh 29.70 in1005.8 mb 0.00 in0.0 mm 0.00 in0.0 mm 0.38 in9.7 mm
06:28 PM 41.3°F5.2°C 32.6°F0.3°C 71% 26.4 mph WNW42.5 kmh WNW 34.0 mph54.7 kmh 29.71 in1006.1 mb 0.00 in0.0 mm 0.00 in0.0 mm 0.38 in9.7 mm
06:29 PM 41.3°F5.2°C 32.6°F0.3°C 71% 25.7 mph WNW41.4 kmh WNW 30.0 mph48.3 kmh 29.71 in1006.1 mb 0.00 in0.0 mm 0.00 in0.0 mm 0.38 in9.7 mm
06:30 PM 41.2°F5.1°C 32.5°F0.3°C 71% 26.2 mph WNW42.2 kmh WNW 32.0 mph51.5 kmh 29.71 in1006.1 mb 0.00 in0.0 mm 0.00 in0.0 mm 0.38 in9.7 mm
06:31 PM 41.3°F5.2°C 32.6°F0.3°C 71% 33.2 mph WNW53.4 kmh WNW 37.0 mph59.5 kmh 29.71 in1006.1 mb 0.00 in0.0 mm 0.00 in0.0 mm 0.38 in9.7 mm
06:32 PM 41.3°F5.2°C 32.3°F0.2°C 70% 34.5 mph NW55.5 kmh NW 39.0 mph62.8 kmh 29.71 in1006.1 mb 0.00 in0.0 mm 0.00 in0.0 mm 0.38 in9.7 mm
06:33 PM 41.3°F5.2°C 32.6°F0.3°C 71% 29.5 mph WNW47.5 kmh WNW 39.0 mph62.8 kmh 29.71 in1006.1 mb 0.00 in0.0 mm 0.00 in0.0 mm 0.38 in9.7 mm
06:34 PM 41.3°F5.2°C 32.6°F0.3°C 71% 26.5 mph WNW42.6 kmh WNW 33.0 mph53.1 kmh 29.71 in1006.1 mb 0.00 in0.0 mm 0.00 in0.0 mm 0.38 in9.7 mm
06:35 PM 41.2°F5.1°C 32.5°F0.3°C 71% 27.9 mph WNW44.9 kmh WNW 37.0 mph59.5 kmh 29.71 in1006.1 mb 0.00 in0.0 mm 0.00 in0.0 mm 0.38 in9.7 mm
06:36 PM 41.2°F5.1°C 32.2°F0.1°C 70% 28.0 mph NW45.1 kmh NW 37.0 mph59.5 kmh 29.71 in1006.1 mb 0.00 in0.0 mm 0.00 in0.0 mm 0.38 in9.7 mm
06:37 PM 41.1°F5.1°C 32.4°F0.2°C 71% 27.8 mph WNW44.7 kmh WNW 33.0 mph53.1 kmh 29.71 in1006.1 mb 0.00 in0.0 mm 0.00 in0.0 mm 0.38 in9.7 mm
06:38 PM 41.1°F5.1°C 32.4°F0.2°C 71% 27.8 mph WNW44.7 kmh WNW 34.0 mph54.7 kmh 29.71 in1006.1 mb 0.00 in0.0 mm 0.00 in0.0 mm 0.38 in9.7 mm
06:39 PM 41.1°F5.1°C 32.1°F0.1°C 70% 31.9 mph NW51.3 kmh NW 37.0 mph59.5 kmh 29.71 in1006.1 mb 0.00 in0.0 mm 0.00 in0.0 mm 0.38 in9.7 mm
06:40 PM 41.1°F5.1°C 32.4°F0.2°C 71% 27.0 mph WNW43.5 kmh WNW 37.0 mph59.5 kmh 29.71 in1006.1 mb 0.00 in0.0 mm 0.00 in0.0 mm 0.38 in9.7 mm
06:41 PM 41.0°F5.0°C 32.7°F0.4°C 72% 23.1 mph WNW37.2 kmh WNW 32.0 mph51.5 kmh 29.72 in1006.4 mb 0.00 in0.0 mm 0.00 in0.0 mm 0.38 in9.7 mm
06:42 PM 40.9°F4.9°C 32.6°F0.3°C 72% 24.0 mph WNW38.6 kmh WNW 29.0 mph46.7 kmh 29.72 in1006.4 mb 0.00 in0.0 mm 0.00 in0.0 mm 0.38 in9.7 mm
06:43 PM 40.9°F4.9°C 32.2°F0.1°C 71% 28.0 mph WNW45.1 kmh WNW 32.0 mph51.5 kmh 29.72 in1006.4 mb 0.00 in0.0 mm 0.00 in0.0 mm 0.38 in9.7 mm
06:44 PM 41.0°F5.0°C 32.0°F0.0°C 70% 26.9 mph NW43.3 kmh NW 32.0 mph51.5 kmh 29.72 in1006.4 mb 0.00 in0.0 mm 0.00 in0.0 mm 0.38 in9.7 mm
06:45 PM 40.9°F4.9°C 32.2°F0.1°C 71% 26.5 mph WNW42.6 kmh WNW 33.0 mph53.1 kmh 29.72 in1006.4 mb 0.00 in0.0 mm 0.00 in0.0 mm 0.38 in9.7 mm
06:46 PM 41.0°F5.0°C 32.3°F0.2°C 71% 24.9 mph WNW40.1 kmh WNW 33.0 mph53.1 kmh 29.72 in1006.4 mb 0.00 in0.0 mm 0.00 in0.0 mm 0.38 in9.7 mm
06:47 PM 40.9°F4.9°C 32.2°F0.1°C 71% 23.6 mph NW38.0 kmh NW 28.0 mph45.1 kmh 29.72 in1006.4 mb 0.00 in0.0 mm 0.00 in0.0 mm 0.38 in9.7 mm
06:48 PM 40.9°F4.9°C 31.9°F-0.1°C 70% 26.4 mph NW42.5 kmh NW 31.0 mph49.9 kmh 29.72 in1006.4 mb 0.00 in0.0 mm 0.00 in0.0 mm 0.38 in9.7 mm
06:49 PM 40.9°F4.9°C 32.2°F0.1°C 71% 25.2 mph WNW40.6 kmh WNW 31.0 mph49.9 kmh 29.72 in1006.4 mb 0.00 in0.0 mm 0.00 in0.0 mm 0.38 in9.7 mm
06:50 PM 40.8°F4.9°C 32.1°F0.1°C 71% 24.7 mph WNW39.8 kmh WNW 29.0 mph46.7 kmh 29.72 in1006.4 mb 0.00 in0.0 mm 0.00 in0.0 mm 0.38 in9.7 mm
06:51 PM 40.8°F4.9°C 32.1°F0.1°C 71% 21.9 mph WNW35.2 kmh WNW 29.0 mph46.7 kmh 29.72 in1006.4 mb 0.00 in0.0 mm 0.00 in0.0 mm 0.38 in9.7 mm
06:52 PM 40.7°F4.8°C 32.4°F0.2°C 72% 22.8 mph NW36.7 kmh NW 28.0 mph45.1 kmh 29.73 in1006.8 mb 0.00 in0.0 mm 0.00 in0.0 mm 0.38 in9.7 mm
06:53 PM 40.7°F4.8°C 32.4°F0.2°C 72% 21.0 mph WNW33.8 kmh WNW 27.0 mph43.5 kmh 29.73 in1006.8 mb 0.00 in0.0 mm 0.00 in0.0 mm 0.38 in9.7 mm
06:54 PM 40.7°F4.8°C 32.0°F0.0°C 71% 23.7 mph NW38.1 kmh NW 31.0 mph49.9 kmh 29.73 in1006.8 mb 0.00 in0.0 mm 0.00 in0.0 mm 0.38 in9.7 mm
06:55 PM 40.7°F4.8°C 32.0°F0.0°C 71% 21.8 mph WNW35.1 kmh WNW 31.0 mph49.9 kmh 29.73 in1006.8 mb 0.00 in0.0 mm 0.00 in0.0 mm 0.38 in9.7 mm
06:56 PM 40.6°F4.8°C 32.3°F0.2°C 72% 22.6 mph NW36.4 kmh NW 26.0 mph41.8 kmh 29.73 in1006.8 mb 0.00 in0.0 mm 0.00 in0.0 mm 0.38 in9.7 mm
06:57 PM 40.6°F4.8°C 32.3°F0.2°C 72% 20.3 mph WNW32.7 kmh WNW 26.0 mph41.8 kmh 29.73 in1006.8 mb 0.00 in0.0 mm 0.00 in0.0 mm 0.38 in9.7 mm
06:58 PM 40.6°F4.8°C 31.9°F-0.1°C 71% 21.7 mph WNW34.9 kmh WNW 28.0 mph45.1 kmh 29.73 in1006.8 mb 0.00 in0.0 mm 0.00 in0.0 mm 0.38 in9.7 mm
06:59 PM 40.7°F4.8°C 31.7°F-0.2°C 70% 23.6 mph WNW38.0 kmh WNW 28.0 mph45.1 kmh 29.73 in1006.8 mb 0.00 in0.0 mm 0.00 in0.0 mm 0.38 in9.7 mm
07:00 PM 40.6°F4.8°C 31.9°F-0.1°C 71% 20.3 mph WNW32.7 kmh WNW 28.0 mph45.1 kmh 29.73 in1006.8 mb 0.00 in0.0 mm 0.00 in0.0 mm 0.38 in9.7 mm
07:01 PM 40.7°F4.8°C 32.0°F0.0°C 71% 22.3 mph WNW35.9 kmh WNW 26.0 mph41.8 kmh 29.73 in1006.8 mb 0.00 in0.0 mm 0.00 in0.0 mm 0.38 in9.7 mm
07:02 PM 40.7°F4.8°C 32.0°F0.0°C 71% 21.8 mph WNW35.1 kmh WNW 28.0 mph45.1 kmh 29.73 in1006.8 mb 0.00 in0.0 mm 0.00 in0.0 mm 0.38 in9.7 mm
07:03 PM 40.7°F4.8°C 32.0°F0.0°C 71% 24.1 mph WNW38.8 kmh WNW 28.0 mph45.1 kmh 29.73 in1006.8 mb 0.00 in0.0 mm 0.00 in0.0 mm 0.38 in9.7 mm
07:04 PM 40.7°F4.8°C 31.7°F-0.2°C 70% 25.4 mph WNW40.9 kmh WNW 29.0 mph46.7 kmh 29.73 in1006.8 mb 0.00 in0.0 mm 0.00 in0.0 mm 0.38 in9.7 mm
07:05 PM 40.7°F4.8°C 32.0°F0.0°C 71% 22.0 mph WNW35.4 kmh WNW 29.0 mph46.7 kmh 29.73 in1006.8 mb 0.00 in0.0 mm 0.00 in0.0 mm 0.38 in9.7 mm
07:06 PM 40.6°F4.8°C 32.3°F0.2°C 72% 21.3 mph WNW34.3 kmh WNW 28.0 mph45.1 kmh 29.74 in1007.1 mb 0.00 in0.0 mm 0.00 in0.0 mm 0.38 in9.7 mm
07:07 PM 40.6°F4.8°C 31.6°F-0.2°C 70% 24.7 mph WNW39.8 kmh WNW 29.0 mph46.7 kmh 29.74 in1007.1 mb 0.00 in0.0 mm 0.00 in0.0 mm 0.38 in9.7 mm
07:08 PM 40.6°F4.8°C 32.3°F0.2°C 72% 22.4 mph WNW36.0 kmh WNW 29.0 mph46.7 kmh 29.74 in1007.1 mb 0.00 in0.0 mm 0.00 in0.0 mm 0.38 in9.7 mm
07:09 PM 40.5°F4.7°C 32.2°F0.1°C 72% 20.9 mph WNW33.6 kmh WNW 26.0 mph41.8 kmh 29.74 in1007.1 mb 0.00 in0.0 mm 0.00 in0.0 mm 0.38 in9.7 mm
07:10 PM 40.5°F4.7°C 32.2°F0.1°C 72% 20.1 mph WNW32.3 kmh WNW 26.0 mph41.8 kmh 29.74 in1007.1 mb 0.00 in0.0 mm 0.00 in0.0 mm 0.38 in9.7 mm
07:11 PM 40.5°F4.7°C 32.2°F0.1°C 72% 23.0 mph WNW37.0 kmh WNW 27.0 mph43.5 kmh 29.74 in1007.1 mb 0.00 in0.0 mm 0.00 in0.0 mm 0.38 in9.7 mm
07:12 PM 40.4°F4.7°C 31.8°F-0.1°C 71% 23.6 mph WNW38.0 kmh WNW 31.0 mph49.9 kmh 29.74 in1007.1 mb 0.00 in0.0 mm 0.00 in0.0 mm 0.38 in9.7 mm
07:13 PM 40.5°F4.7°C 31.8°F-0.1°C 71% 22.4 mph WNW36.0 kmh WNW 31.0 mph49.9 kmh 29.74 in1007.1 mb 0.00 in0.0 mm 0.00 in0.0 mm 0.38 in9.7 mm
07:14 PM 40.5°F4.7°C 32.2°F0.1°C 72% 21.6 mph WNW34.8 kmh WNW 28.0 mph45.1 kmh 29.74 in1007.1 mb 0.00 in0.0 mm 0.00 in0.0 mm 0.38 in9.7 mm
07:15 PM 40.5°F4.7°C 31.8°F-0.1°C 71% 22.6 mph WNW36.4 kmh WNW 28.0 mph45.1 kmh 29.74 in1007.1 mb 0.00 in0.0 mm 0.00 in0.0 mm 0.38 in9.7 mm
07:16 PM 40.5°F4.7°C 32.2°F0.1°C 72% 21.3 mph WNW34.3 kmh WNW 28.0 mph45.1 kmh 29.74 in1007.1 mb 0.00 in0.0 mm 0.00 in0.0 mm 0.38 in9.7 mm
07:17 PM 40.5°F4.7°C 31.8°F-0.1°C 71% 21.7 mph WNW34.9 kmh WNW 26.0 mph41.8 kmh 29.74 in1007.1 mb 0.00 in0.0 mm 0.00 in0.0 mm 0.38 in9.7 mm
07:18 PM 40.5°F4.7°C 32.2°F0.1°C 72% 20.1 mph WNW32.3 kmh WNW 26.0 mph41.8 kmh 29.74 in1007.1 mb 0.00 in0.0 mm 0.00 in0.0 mm 0.38 in9.7 mm
07:19 PM 40.5°F4.7°C 31.8°F-0.1°C 71% 17.6 mph WNW28.3 kmh WNW 26.0 mph41.8 kmh 29.74 in1007.1 mb 0.00 in0.0 mm 0.00 in0.0 mm 0.38 in9.7 mm
07:20 PM 40.5°F4.7°C 31.5°F-0.3°C 70% 23.5 mph WNW37.8 kmh WNW 26.0 mph41.8 kmh 29.75 in1007.5 mb 0.00 in0.0 mm 0.00 in0.0 mm 0.38 in9.7 mm
07:21 PM 40.5°F4.7°C 31.8°F-0.1°C 71% 20.9 mph WNW33.6 kmh WNW 26.0 mph41.8 kmh 29.74 in1007.1 mb 0.00 in0.0 mm 0.00 in0.0 mm 0.38 in9.7 mm
07:22 PM 40.5°F4.7°C 31.8°F-0.1°C 71% 22.3 mph WNW35.9 kmh WNW 28.0 mph45.1 kmh 29.75 in1007.5 mb 0.00 in0.0 mm 0.00 in0.0 mm 0.38 in9.7 mm
07:23 PM 40.6°F4.8°C 31.9°F-0.1°C 71% 24.2 mph WNW38.9 kmh WNW 30.0 mph48.3 kmh 29.75 in1007.5 mb 0.00 in0.0 mm 0.00 in0.0 mm 0.38 in9.7 mm
07:24 PM 40.6°F4.8°C 31.9°F-0.1°C 71% 20.5 mph WNW33.0 kmh WNW 30.0 mph48.3 kmh 29.75 in1007.5 mb 0.00 in0.0 mm 0.00 in0.0 mm 0.38 in9.7 mm
07:25 PM 40.5°F4.7°C 31.8°F-0.1°C 71% 17.4 mph WNW28.0 kmh WNW 24.0 mph38.6 kmh 29.75 in1007.5 mb 0.00 in0.0 mm 0.00 in0.0 mm 0.38 in9.7 mm
07:26 PM 40.5°F4.7°C 31.8°F-0.1°C 71% 21.3 mph WNW34.3 kmh WNW 25.0 mph40.2 kmh 29.75 in1007.5 mb 0.00 in0.0 mm 0.00 in0.0 mm 0.38 in9.7 mm
07:27 PM 40.4°F4.7°C 32.1°F0.1°C 72% 16.9 mph WNW27.2 kmh WNW 25.0 mph40.2 kmh 29.75 in1007.5 mb 0.00 in0.0 mm 0.00 in0.0 mm 0.38 in9.7 mm
07:28 PM 40.3°F4.6°C 32.3°F0.2°C 73% 18.2 mph WNW29.3 kmh WNW 24.0 mph38.6 kmh 29.75 in1007.5 mb 0.00 in0.0 mm 0.00 in0.0 mm 0.38 in9.7 mm
07:29 PM 40.3°F4.6°C 32.0°F0.0°C 72% 17.2 mph WNW27.7 kmh WNW 24.0 mph38.6 kmh 29.75 in1007.5 mb 0.00 in0.0 mm 0.00 in0.0 mm 0.38 in9.7 mm
07:30 PM 40.2°F4.6°C 31.9°F-0.1°C 72% 19.8 mph W31.9 kmh W 24.0 mph38.6 kmh 29.75 in1007.5 mb 0.00 in0.0 mm 0.00 in0.0 mm 0.38 in9.7 mm
07:31 PM 40.3°F4.6°C 32.0°F0.0°C 72% 21.0 mph WNW33.8 kmh WNW 24.0 mph38.6 kmh 29.75 in1007.5 mb 0.00 in0.0 mm 0.00 in0.0 mm 0.38 in9.7 mm
07:32 PM 40.2°F4.6°C 32.2°F0.1°C 73% 16.0 mph W25.7 kmh W 24.0 mph38.6 kmh 29.75 in1007.5 mb 0.00 in0.0 mm 0.00 in0.0 mm 0.38 in9.7 mm
07:33 PM 40.2°F4.6°C 31.9°F-0.1°C 72% 19.6 mph WNW31.5 kmh WNW 25.0 mph40.2 kmh 29.75 in1007.5 mb 0.00 in0.0 mm 0.00 in0.0 mm 0.38 in9.7 mm
07:34 PM 40.2°F4.6°C 31.9°F-0.1°C 72% 18.4 mph WNW29.6 kmh WNW 25.0 mph40.2 kmh 29.75 in1007.5 mb 0.00 in0.0 mm 0.00 in0.0 mm 0.38 in9.7 mm
07:35 PM 40.2°F4.6°C 32.2°F0.1°C 73% 18.9 mph WNW30.4 kmh WNW 23.0 mph37.0 kmh 29.76 in1007.8 mb 0.00 in0.0 mm 0.00 in0.0 mm 0.38 in9.7 mm
07:36 PM 40.2°F4.6°C